Warning: Javascript must be enabled to use all the features on this page!


Page Loading - Please Wait...

Click to hideNews Bulletins
  • Try our new Mobile-friendly water data site from your mobile device!
  • Full News RSS icon
  • Click to hide state-specific text

    Welcome to the NWIS-Web for the Arizona Water Science Center


    The majority of USGS Gaging Stations are funded though a cooperative program between the USGS other interested agencies.
    Follow this link for information on the Cooperative Water Program with the USGS.


    Threatened and Endangered USGS Gaging Stations in Arizona
    Colorado Basin River Forecast Center - provided by the National Weather Service, AHPS. CBRFC on Google Maps.
    Arizona Water Science Center Home Page

    USGS 09471400 BABOCOMARI RIVER NEAR TOMBSTONE, AZ.

    PROVISIONAL DATA SUBJECT TO REVISION

    Click to hidestation-specific text
    Station operated in cooperation with Cochise County, the Bureau of Land Management, and the U.S. Army at Fort Huachuca.

    HIGH DATA RATE (Site data are transmitted & updated hourly)
    rainfall Arrow
    This station managed by the Tucson Field Office; USGS, AZ-WSC.

    Available Parameters Available Period
    All 3 Available Parameters for this site
      
    00060 Discharge 2007-10-01  2014-08-29
    00065 Gage height 2007-10-01  2014-08-29
    00045 Precipitation 2014-05-01  2014-08-29

    Graph
    Graph w/ stats
    Graph w/o stats
    Graph w/ (up to 3) parms
    Table
    Tab-separated
    Days  (31)
     

      -- or --
    Begin date
     

    End date
     

    Summary of all available data for this site
    Instantaneous-data availability statement






    Date / Time




    Dis-
    charge,
    ft3/s,




    Gage
    height,
    feet,



    Precip-
    itation
    total,
    inches,
    07/29/2014 00:00 MST0.19P  0.74P  0.00P  
    07/29/2014 00:15 MST0.17P  0.72P  0.00P  
    07/29/2014 00:30 MST0.17P  0.72P  0.00P  
    07/29/2014 00:45 MST0.20P  0.75P  0.00P  
    07/29/2014 01:00 MST0.18P  0.73P  0.00P  
    07/29/2014 01:15 MST0.19P  0.74P  0.00P  
    07/29/2014 01:30 MST0.16P  0.71P  0.00P  
    07/29/2014 01:45 MST0.20P  0.75P  0.00P  
    07/29/2014 02:00 MST0.22P  0.76P  0.00P  
    07/29/2014 02:15 MST0.18P  0.73P  0.00P  
    07/29/2014 02:30 MST0.20P  0.75P  0.00P  
    07/29/2014 02:45 MST0.18P  0.73P  0.00P  
    07/29/2014 03:00 MST0.22P  0.76P  0.00P  
    07/29/2014 03:15 MST0.19P  0.74P  0.00P  
    07/29/2014 03:30 MST0.20P  0.75P  0.00P  
    07/29/2014 03:45 MST0.22P  0.76P  0.00P  
    07/29/2014 04:00 MST0.19P  0.74P  0.00P  
    07/29/2014 04:15 MST0.22P  0.76P  0.00P  
    07/29/2014 04:30 MST0.22P  0.76P  0.00P  
    07/29/2014 04:45 MST0.17P  0.72P  0.00P  
    07/29/2014 05:00 MST0.22P  0.76P  0.00P  
    07/29/2014 05:15 MST0.18P  0.73P  0.00P  
    07/29/2014 05:30 MST0.22P  0.76P  0.00P  
    07/29/2014 05:45 MST0.18P  0.73P  0.00P  
    07/29/2014 06:00 MST0.24P  0.78P  0.00P  
    07/29/2014 06:15 MST0.24P  0.78P  0.00P  
    07/29/2014 06:30 MST0.16P  0.71P  0.00P  
    07/29/2014 06:45 MST0.24P  0.78P  0.00P  
    07/29/2014 07:00 MST0.23P  0.77P  0.00P  
    07/29/2014 07:15 MST0.18P  0.73P  0.00P  
    07/29/2014 07:30 MST0.22P  0.76P  0.00P  
    07/29/2014 07:45 MST0.24P  0.78P  0.00P  
    07/29/2014 08:00 MST0.24P  0.78P  0.00P  
    07/29/2014 08:15 MST0.24P  0.78P  0.00P  
    07/29/2014 08:30 MST0.23P  0.77P  0.00P  
    07/29/2014 08:45 MST0.19P  0.74P  0.00P  
    07/29/2014 09:00 MST0.23P  0.77P  0.00P  
    07/29/2014 09:15 MST0.23P  0.77P  0.00P  
    07/29/2014 09:30 MST0.24P  0.78P  0.00P  
    07/29/2014 09:45 MST0.20P  0.75P  0.00P  
    07/29/2014 10:00 MST0.22P  0.76P  0.00P  
    07/29/2014 10:15 MST0.24P  0.78P  0.00P  
    07/29/2014 10:30 MST0.23P  0.77P  0.00P  
    07/29/2014 10:45 MST0.22P  0.76P  0.00P  
    07/29/2014 11:00 MST0.19P  0.74P  0.00P  
    07/29/2014 11:15 MST0.18P  0.73P  0.00P  
    07/29/2014 11:30 MST0.17P  0.72P  0.00P  
    07/29/2014 11:45 MST0.17P  0.72P  0.00P  
    07/29/2014 12:00 MST0.19P  0.74P  0.00P  
    07/29/2014 12:15 MST0.20P  0.75P  0.00P  
    07/29/2014 12:30 MST0.17P  0.72P  0.00P  
    07/29/2014 12:45 MST0.24P  0.78P  0.00P  
    07/29/2014 13:00 MST0.13P  0.68P  0.00P  
    07/29/2014 13:15 MST0.15P  0.70P  0.00P  
    07/29/2014 13:30 MST0.20P  0.75P  0.00P  
    07/29/2014 13:45 MST0.18P  0.73P  0.00P  
    07/29/2014 14:00 MST0.18P  0.73P  0.00P  
    07/29/2014 14:15 MST0.18P  0.73P  0.00P  
    07/29/2014 14:30 MST0.18P  0.73P  0.00P  
    07/29/2014 14:45 MST0.19P  0.74P  0.00P  
    07/29/2014 15:00 MST0.17P  0.72P  0.00P  
    07/29/2014 15:15 MST0.17P  0.72P  0.00P  
    07/29/2014 15:30 MST0.17P  0.72P  0.00P  
    07/29/2014 15:45 MST0.16P  0.71P  0.00P  
    07/29/2014 16:00 MST0.16P  0.71P  0.00P  
    07/29/2014 16:15 MST0.17P  0.72P  0.00P  
    07/29/2014 16:30 MST0.13P  0.68P  0.00P  
    07/29/2014 16:45 MST0.16P  0.71P  0.00P  
    07/29/2014 17:00 MST0.16P  0.71P  0.00P  
    07/29/2014 17:15 MST0.13P  0.68P  0.00P  
    07/29/2014 17:30 MST0.12P  0.67P  0.00P  
    07/29/2014 17:45 MST0.14P  0.69P  0.00P  
    07/29/2014 18:00 MST0.14P  0.69P  0.00P  
    07/29/2014 18:15 MST0.13P  0.68P  0.00P  
    07/29/2014 18:30 MST0.15P  0.70P  0.00P  
    07/29/2014 18:45 MST0.15P  0.70P  0.00P  
    07/29/2014 19:00 MST0.14P  0.69P  0.00P  
    07/29/2014 19:15 MST0.11P  0.66P  0.00P  
    07/29/2014 19:30 MST0.11P  0.66P  0.00P  
    07/29/2014 19:45 MST0.14P  0.69P  0.00P  
    07/29/2014 20:00 MST0.15P  0.70P  0.00P  
    07/29/2014 20:15 MST0.15P  0.70P  0.00P  
    07/29/2014 20:30 MST0.17P  0.72P  0.00P  
    07/29/2014 20:45 MST0.15P  0.70P  0.00P  
    07/29/2014 21:00 MST0.12P  0.67P  0.00P  
    07/29/2014 21:15 MST0.13P  0.68P  0.00P  
    07/29/2014 21:30 MST0.16P  0.71P  0.00P  
    07/29/2014 21:45 MST0.15P  0.70P  0.00P  
    07/29/2014 22:00 MST0.13P  0.68P  0.00P  
    07/29/2014 22:15 MST0.11P  0.66P  0.00P  
    07/29/2014 22:30 MST0.17P  0.72P  0.00P  
    07/29/2014 22:45 MST0.14P  0.69P  0.00P  
    07/29/2014 23:00 MST0.13P  0.68P  0.00P  
    07/29/2014 23:15 MST0.11P  0.66P  0.00P  
    07/29/2014 23:30 MST0.15P  0.70P  0.00P  
    07/29/2014 23:45 MST0.19P  0.74P  0.00P  
    07/30/2014 00:00 MST0.17P  0.72P  0.00P  
    07/30/2014 00:15 MST0.17P  0.72P  0.00P  
    07/30/2014 00:30 MST0.16P  0.71P  0.00P  
    07/30/2014 00:45 MST0.16P  0.71P  0.00P  
    07/30/2014 01:00 MST0.15P  0.70P  0.00P  
    07/30/2014 01:15 MST0.17P  0.72P  0.00P  
    07/30/2014 01:30 MST0.12P  0.67P  0.00P  
    07/30/2014 01:45 MST0.19P  0.74P  0.00P  
    07/30/2014 02:00 MST0.15P  0.70P  0.00P  
    07/30/2014 02:15 MST0.15P  0.70P  0.00P  
    07/30/2014 02:30 MST0.19P  0.74P  0.00P  
    07/30/2014 02:45 MST0.19P  0.74P  0.00P  
    07/30/2014 03:00 MST0.19P  0.74P  0.00P  
    07/30/2014 03:15 MST0.15P  0.70P  0.00P  
    07/30/2014 03:30 MST0.16P  0.71P  0.00P  
    07/30/2014 03:45 MST0.17P  0.72P  0.00P  
    07/30/2014 04:00 MST0.20P  0.75P  0.00P  
    07/30/2014 04:15 MST0.17P  0.72P  0.00P  
    07/30/2014 04:30 MST0.18P  0.73P  0.00P  
    07/30/2014 04:45 MST0.19P  0.74P  0.00P  
    07/30/2014 05:00 MST0.20P  0.75P  0.00P  
    07/30/2014 05:15 MST0.17P  0.72P  0.00P  
    07/30/2014 05:30 MST0.17P  0.72P  0.00P  
    07/30/2014 05:45 MST0.18P  0.73P  0.00P  
    07/30/2014 06:00 MST0.18P  0.73P  0.00P  
    07/30/2014 06:15 MST0.18P  0.73P  0.00P  
    07/30/2014 06:30 MST0.19P  0.74P  0.00P  
    07/30/2014 06:45 MST0.19P  0.74P  0.00P  
    07/30/2014 07:00 MST0.16P  0.71P  0.00P  
    07/30/2014 07:15 MST0.17P  0.72P  0.00P  
    07/30/2014 07:30 MST0.20P  0.75P  0.00P  
    07/30/2014 07:45 MST0.20P  0.75P  0.00P  
    07/30/2014 08:00 MST0.19P  0.74P  0.00P  
    07/30/2014 08:15 MST0.20P  0.75P  0.00P  
    07/30/2014 08:30 MST0.17P  0.72P  0.00P  
    07/30/2014 08:45 MST0.22P  0.76P  0.00P  
    07/30/2014 09:00 MST0.18P  0.73P  0.00P  
    07/30/2014 09:15 MST0.22P  0.76P  0.00P  
    07/30/2014 09:30 MST0.20P  0.75P  0.00P  
    07/30/2014 09:45 MST0.18P  0.73P  0.00P  
    07/30/2014 10:00 MST0.15P  0.70P  0.00P  
    07/30/2014 10:15 MST0.17P  0.72P  0.00P  
    07/30/2014 10:30 MST0.18P  0.73P  0.00P  
    07/30/2014 10:45 MST0.17P  0.72P  0.00P  
    07/30/2014 11:00 MST0.18P  0.73P  0.00P  
    07/30/2014 11:15 MST0.15P  0.70P  0.00P  
    07/30/2014 11:30 MST0.17P  0.72P  0.00P  
    07/30/2014 11:45 MST0.18P  0.73P  0.00P  
    07/30/2014 12:00 MST0.18P  0.73P  0.00P  
    07/30/2014 12:15 MST0.15P  0.70P  0.00P  
    07/30/2014 12:30 MST0.16P  0.71P  0.00P  
    07/30/2014 12:45 MST0.18P  0.73P  0.00P  
    07/30/2014 13:00 MST0.16P  0.71P  0.00P  
    07/30/2014 13:15 MST0.14P  0.69P  0.00P  
    07/30/2014 13:30 MST0.14P  0.69P  0.00P  
    07/30/2014 13:45 MST0.13P  0.68P  0.00P  
    07/30/2014 14:00 MST0.13P  0.68P  0.00P  
    07/30/2014 14:15 MST0.12P  0.67P  0.00P  
    07/30/2014 14:30 MST0.13P  0.68P  0.00P  
    07/30/2014 14:45 MST0.16P  0.71P  0.00P  
    07/30/2014 15:00 MST0.14P  0.69P  0.00P  
    07/30/2014 15:15 MST0.11P  0.66P  0.00P  
    07/30/2014 15:30 MST0.11P  0.66P  0.00P  
    07/30/2014 15:45 MST0.10P  0.64P  0.00P  
    07/30/2014 16:00 MST0.14P  0.69P  0.00P  
    07/30/2014 16:15 MST0.13P  0.68P  0.00P  
    07/30/2014 16:30 MST0.10P  0.65P  0.00P  
    07/30/2014 16:45 MST0.11P  0.66P  0.00P  
    07/30/2014 17:00 MST0.10P  0.64P  0.00P  
    07/30/2014 17:15 MST0.12P  0.67P  0.00P  
    07/30/2014 17:30 MST0.13P  0.68P  0.00P  
    07/30/2014 17:45 MST0.08P  0.61P  0.00P  
    07/30/2014 18:00 MST0.11P  0.66P  0.00P  
    07/30/2014 18:15 MST0.12P  0.67P  0.00P  
    07/30/2014 18:30 MST0.11P  0.66P  0.00P  
    07/30/2014 18:45 MST0.12P  0.67P  0.00P  
    07/30/2014 19:00 MST0.12P  0.67P  0.00P  
    07/30/2014 19:15 MST0.11P  0.66P  0.00P  
    07/30/2014 19:30 MST0.11P  0.66P  0.00P  
    07/30/2014 19:45 MST0.10P  0.64P  0.00P  
    07/30/2014 20:00 MST0.12P  0.67P  0.00P  
    07/30/2014 20:15 MST0.09P  0.63P  0.00P  
    07/30/2014 20:30 MST0.12P  0.67P  0.00P  
    07/30/2014 20:45 MST0.08P  0.61P  0.00P  
    07/30/2014 21:00 MST0.11P  0.66P  0.00P  
    07/30/2014 21:15 MST0.10P  0.65P  0.00P  
    07/30/2014 21:30 MST0.12P  0.67P  0.00P  
    07/30/2014 21:45 MST0.12P  0.67P  0.00P  
    07/30/2014 22:00 MST0.10P  0.64P  0.00P  
    07/30/2014 22:15 MST0.09P  0.63P  0.00P  
    07/30/2014 22:30 MST0.10P  0.65P  0.00P  
    07/30/2014 22:45 MST0.10P  0.64P  0.00P  
    07/30/2014 23:00 MST0.07P  0.59P  0.00P  
    07/30/2014 23:15 MST0.07P  0.60P  0.00P  
    07/30/2014 23:30 MST0.09P  0.63P  0.00P  
    07/30/2014 23:45 MST0.08P  0.61P  0.00P  
    07/31/2014 00:00 MST0.08P  0.62P  0.00P  
    07/31/2014 00:15 MST0.08P  0.61P  0.00P  
    07/31/2014 00:30 MST0.08P  0.62P  0.00P  
    07/31/2014 00:45 MST0.06P  0.58P  0.00P  
    07/31/2014 01:00 MST0.08P  0.61P  0.00P  
    07/31/2014 01:15 MST0.10P  0.65P  0.00P  
    07/31/2014 01:30 MST0.07P  0.59P  0.00P  
    07/31/2014 01:45 MST0.08P  0.61P  0.00P  
    07/31/2014 02:00 MST0.07P  0.60P  0.00P  
    07/31/2014 02:15 MST0.10P  0.64P  0.00P  
    07/31/2014 02:30 MST0.11P  0.66P  0.00P  
    07/31/2014 02:45 MST0.09P  0.63P  0.00P  
    07/31/2014 03:00 MST0.12P  0.67P  0.00P  
    07/31/2014 03:15 MST0.08P  0.61P  0.00P  
    07/31/2014 03:30 MST0.12P  0.67P  0.00P  
    07/31/2014 03:45 MST0.10P  0.64P  0.00P  
    07/31/2014 04:00 MST0.09P  0.63P  0.00P  
    07/31/2014 04:15 MST0.10P  0.65P  0.00P  
    07/31/2014 04:30 MST0.11P  0.66P  0.00P  
    07/31/2014 04:45 MST0.10P  0.65P  0.00P  
    07/31/2014 05:00 MST0.08P  0.61P  0.00P  
    07/31/2014 05:15 MST0.13P  0.68P  0.00P  
    07/31/2014 05:30 MST0.16P  0.71P  0.00P  
    07/31/2014 05:45 MST0.11P  0.66P  0.00P  
    07/31/2014 06:00 MST0.17P  0.72P  0.00P  
    07/31/2014 06:15 MST0.10P  0.65P  0.00P  
    07/31/2014 06:30 MST0.11P  0.66P  0.00P  
    07/31/2014 06:45 MST0.12P  0.67P  0.00P  
    07/31/2014 07:00 MST0.16P  0.71P  0.00P  
    07/31/2014 07:15 MST0.15P  0.70P  0.00P  
    07/31/2014 07:30 MST0.16P  0.71P  0.00P  
    07/31/2014 07:45 MST0.18P  0.73P  0.00P  
    07/31/2014 08:00 MST0.15P  0.70P  0.00P  
    07/31/2014 08:15 MST0.16P  0.71P  0.00P  
    07/31/2014 08:30 MST0.12P  0.67P  0.00P  
    07/31/2014 08:45 MST0.14P  0.69P  0.00P  
    07/31/2014 09:00 MST0.19P  0.74P  0.00P  
    07/31/2014 09:15 MST0.17P  0.72P  0.00P  
    07/31/2014 09:30 MST0.19P  0.74P  0.00P  
    07/31/2014 09:45 MST0.11P  0.66P  0.00P  
    07/31/2014 10:00 MST0.16P  0.71P  0.00P  
    07/31/2014 10:15 MST0.18P  0.73P  0.00P  
    07/31/2014 10:30 MST0.15P  0.70P  0.00P  
    07/31/2014 10:45 MST0.19P  0.74P  0.00P  
    07/31/2014 11:00 MST0.13P  0.68P  0.00P  
    07/31/2014 11:15 MST0.12P  0.67P  0.00P  
    07/31/2014 11:30 MST0.19P  0.74P  0.00P  
    07/31/2014 11:45 MST0.15P  0.70P  0.00P  
    07/31/2014 12:00 MST0.20P  0.75P  0.00P  
    07/31/2014 12:15 MST0.15P  0.70P  0.00P  
    07/31/2014 12:30 MST0.12P  0.67P  0.00P  
    07/31/2014 12:45 MST0.16P  0.71P  0.00P  
    07/31/2014 13:00 MST0.16P  0.71P  0.00P  
    07/31/2014 13:15 MST0.19P  0.74P  0.00P  
    07/31/2014 13:30 MST0.17P  0.72P  0.00P  
    07/31/2014 13:45 MST0.17P  0.72P  0.00P  
    07/31/2014 14:00 MST0.12P  0.67P  0.00P  
    07/31/2014 14:15 MST0.17P  0.72P  0.00P  
    07/31/2014 14:30 MST0.19P  0.74P  0.00P  
    07/31/2014 14:45 MST0.18P  0.73P  0.00P  
    07/31/2014 15:00 MST0.16P  0.71P  0.00P  
    07/31/2014 15:15 MST0.18P  0.73P  0.00P  
    07/31/2014 15:30 MST0.16P  0.71P  0.00P  
    07/31/2014 15:45 MST0.17P  0.72P  0.00P  
    07/31/2014 16:00 MST0.12P  0.67P  0.00P  
    07/31/2014 16:15 MST0.10P  0.65P  0.00P  
    07/31/2014 16:30 MST0.16P  0.71P  0.00P  
    07/31/2014 16:45 MST0.10P  0.65P  0.00P  
    07/31/2014 17:00 MST0.13P  0.68P  0.00P  
    07/31/2014 17:15 MST0.15P  0.70P  0.00P  
    07/31/2014 17:30 MST0.11P  0.66P  0.00P  
    07/31/2014 17:45 MST0.11P  0.66P  0.00P  
    07/31/2014 18:00 MST0.16P  0.71P  0.00P  
    07/31/2014 18:15 MST0.17P  0.72P  0.00P  
    07/31/2014 18:30 MST0.16P  0.71P  0.00P  
    07/31/2014 18:45 MST0.15P  0.70P  0.00P  
    07/31/2014 19:00 MST0.16P  0.71P  0.00P  
    07/31/2014 19:15 MST0.12P  0.67P  0.00P  
    07/31/2014 19:30 MST0.15P  0.70P  0.00P  
    07/31/2014 19:45 MST0.16P  0.71P  0.00P  
    07/31/2014 20:00 MST0.12P  0.67P  0.00P  
    07/31/2014 20:15 MST0.13P  0.68P  0.00P  
    07/31/2014 20:30 MST0.10P  0.64P  0.00P  
    07/31/2014 20:45 MST0.10P  0.65P  0.00P  
    07/31/2014 21:00 MST0.17P  0.72P  0.00P  
    07/31/2014 21:15 MST0.15P  0.70P  0.00P  
    07/31/2014 21:30 MST0.15P  0.70P  0.00P  
    07/31/2014 21:45 MST0.12P  0.67P  0.00P  
    07/31/2014 22:00 MST0.17P  0.72P  0.00P  
    07/31/2014 22:15 MST0.14P  0.69P  0.00P  
    07/31/2014 22:30 MST0.14P  0.69P  0.00P  
    07/31/2014 22:45 MST0.13P  0.68P  0.00P  
    07/31/2014 23:00 MST0.13P  0.68P  0.06P  
    07/31/2014 23:15 MST0.16P  0.71P  0.05P  
    07/31/2014 23:30 MST0.15P  0.70P  0.00P  
    07/31/2014 23:45 MST0.15P  0.70P  0.00P  
    08/01/2014 00:00 MST0.19P  0.74P  0.01P  
    08/01/2014 00:15 MST0.15P  0.70P  0.00P  
    08/01/2014 00:30 MST1.0P  1.06P  0.00P  
    08/01/2014 00:45 MST0.78P  1.01P  0.00P  
    08/01/2014 01:00 MST0.62P  0.96P  0.00P  
    08/01/2014 01:15 MST0.49P  0.91P  0.00P  
    08/01/2014 01:30 MST0.34P  0.84P  0.00P  
    08/01/2014 01:45 MST0.27P  0.80P  0.00P  
    08/01/2014 02:00 MST0.34P  0.84P  0.00P  
    08/01/2014 02:15 MST0.34P  0.84P  0.00P  
    08/01/2014 02:30 MST0.29P  0.81P  0.00P  
    08/01/2014 02:45 MST0.20P  0.75P  0.00P  
    08/01/2014 03:00 MST0.31P  0.82P  0.00P  
    08/01/2014 03:15 MST0.27P  0.80P  0.00P  
    08/01/2014 03:30 MST0.29P  0.81P  0.00P  
    08/01/2014 03:45 MST0.27P  0.80P  0.00P  
    08/01/2014 04:00 MST0.31P  0.82P  0.00P  
    08/01/2014 04:15 MST0.24P  0.78P  0.00P  
    08/01/2014 04:30 MST0.26P  0.79P  0.00P  
    08/01/2014 04:45 MST0.27P  0.80P  0.00P  
    08/01/2014 05:00 MST0.23P  0.77P  0.00P  
    08/01/2014 05:15 MST0.22P  0.76P  0.01P  
    08/01/2014 05:30 MST0.24P  0.78P  0.04P  
    08/01/2014 05:45 MST0.24P  0.78P  0.02P  
    08/01/2014 06:00 MST0.24P  0.78P  0.03P  
    08/01/2014 06:15 MST0.19P  0.74P  0.01P  
    08/01/2014 06:30 MST0.23P  0.77P  0.01P  
    08/01/2014 06:45 MST0.26P  0.79P  0.02P  
    08/01/2014 07:00 MST0.24P  0.78P  0.00P  
    08/01/2014 07:15 MST0.31P  0.82P  0.00P  
    08/01/2014 07:30 MST0.31P  0.82P  0.00P  
    08/01/2014 07:45 MST0.29P  0.81P  0.00P  
    08/01/2014 08:00 MST0.29P  0.81P  0.00P  
    08/01/2014 08:15 MST0.26P  0.79P  0.00P  
    08/01/2014 08:30 MST0.29P  0.81P  0.00P  
    08/01/2014 08:45 MST0.26P  0.79P  0.00P  
    08/01/2014 09:00 MST0.27P  0.80P  0.00P  
    08/01/2014 09:15 MST0.20P  0.75P  0.00P  
    08/01/2014 09:30 MST0.20P  0.75P  0.00P  
    08/01/2014 09:45 MST0.24P  0.78P  0.00P  
    08/01/2014 10:00 MST0.23P  0.77P  0.00P  
    08/01/2014 10:15 MST0.23P  0.77P  0.00P  
    08/01/2014 10:30 MST0.17P  0.72P  0.00P  
    08/01/2014 10:45 MST0.20P  0.75P  0.00P  
    08/01/2014 11:00 MST0.20P  0.75P  0.00P  
    08/01/2014 11:15 MST0.20P  0.75P  0.00P  
    08/01/2014 11:30 MST0.18P  0.73P  0.00P  
    08/01/2014 11:45 MST0.19P  0.74P  0.00P  
    08/01/2014 12:00 MST0.20P  0.75P  0.00P  
    08/01/2014 12:15 MST0.20P  0.75P  0.00P  
    08/01/2014 12:30 MST0.18P  0.73P  0.00P  
    08/01/2014 12:45 MST0.19P  0.74P  0.00P  
    08/01/2014 13:00 MST0.19P  0.74P  0.00P  
    08/01/2014 13:15 MST0.18P  0.73P  0.00P  
    08/01/2014 13:30 MST0.17P  0.72P  0.00P  
    08/01/2014 13:45 MST0.19P  0.74P  0.00P  
    08/01/2014 14:00 MST0.15P  0.70P  0.00P  
    08/01/2014 14:15 MST0.16P  0.71P  0.00P  
    08/01/2014 14:30 MST0.20P  0.75P  0.00P  
    08/01/2014 14:45 MST0.19P  0.74P  0.00P  
    08/01/2014 15:00 MST0.17P  0.72P  0.00P  
    08/01/2014 15:15 MST0.17P  0.72P  0.00P  
    08/01/2014 15:30 MST0.18P  0.73P  0.00P  
    08/01/2014 15:45 MST0.15P  0.70P  0.00P  
    08/01/2014 16:00 MST0.17P  0.72P  0.00P  
    08/01/2014 16:15 MST0.17P  0.72P  0.00P  
    08/01/2014 16:30 MST0.20P  0.75P  0.00P  
    08/01/2014 16:45 MST0.16P  0.71P  0.00P  
    08/01/2014 17:00 MST0.18P  0.73P  0.00P  
    08/01/2014 17:15 MST0.14P  0.69P  0.00P  
    08/01/2014 17:30 MST0.14P  0.69P  0.00P  
    08/01/2014 17:45 MST0.10P  0.65P  0.00P  
    08/01/2014 18:00 MST0.11P  0.66P  0.00P  
    08/01/2014 18:15 MST0.12P  0.67P  0.00P  
    08/01/2014 18:30 MST0.14P  0.69P  0.00P  
    08/01/2014 18:45 MST0.14P  0.69P  0.00P  
    08/01/2014 19:00 MST0.12P  0.67P  0.00P  
    08/01/2014 19:15 MST0.14P  0.69P  0.00P  
    08/01/2014 19:30 MST0.14P  0.69P  0.00P  
    08/01/2014 19:45 MST0.12P  0.67P  0.00P  
    08/01/2014 20:00 MST0.09P  0.63P  0.00P  
    08/01/2014 20:15 MST0.11P  0.66P  0.00P  
    08/01/2014 20:30 MST0.10P  0.65P  0.00P  
    08/01/2014 20:45 MST0.11P  0.66P  0.00P  
    08/01/2014 21:00 MST0.15P  0.70P  0.00P  
    08/01/2014 21:15 MST0.08P  0.62P  0.00P  
    08/01/2014 21:30 MST0.12P  0.67P  0.00P  
    08/01/2014 21:45 MST0.17P  0.72P  0.05P  
    08/01/2014 22:00 MST0.12P  0.67P  0.01P  
    08/01/2014 22:15 MST0.16P  0.71P  0.00P  
    08/01/2014 22:30 MST17P  1.96P  0.12P  
    08/01/2014 22:45 MST7.1P  1.58P  0.29P  
    08/01/2014 23:00 MST2.3P  1.24P  0.10P  
    08/01/2014 23:15 MST1.9P  1.19P  0.08P  
    08/01/2014 23:30 MST8.8P  1.67P  0.09P  
    08/01/2014 23:45 MST8.4P  1.65P  0.06P  
    08/02/2014 00:00 MST11P  1.77P  0.03P  
    08/02/2014 00:15 MST21P  2.08P  0.01P  
    08/02/2014 00:30 MST31P  2.29P  0.00P  
    08/02/2014 00:45 MST39P  2.43P  0.00P  
    08/02/2014 01:00 MST53P  2.62P  0.00P  
    08/02/2014 01:15 MST65P  2.76P  0.00P  
    08/02/2014 01:30 MST70P  2.81P  0.00P  
    08/02/2014 01:45 MST63P  2.74P  0.00P  
    08/02/2014 02:00 MST56P  2.66P  0.01P  
    08/02/2014 02:15 MST55P  2.65P  0.00P  
    08/02/2014 02:30 MST51P  2.59P  0.00P  
    08/02/2014 02:45 MST49P  2.57P  0.00P  
    08/02/2014 03:00 MST43P  2.49P  0.00P  
    08/02/2014 03:15 MST46P  2.53P  0.00P  
    08/02/2014 03:30 MST53P  2.62P  0.00P  
    08/02/2014 03:45 MST49P  2.57P  0.00P  
    08/02/2014 04:00 MST48P  2.55P  0.00P  
    08/02/2014 04:15 MST41P  2.45P  0.00P  
    08/02/2014 04:30 MST42P  2.47P  0.00P  
    08/02/2014 04:45 MST37P  2.39P  0.00P  
    08/02/2014 05:00 MST34P  2.35P  0.00P  
    08/02/2014 05:15 MST30P  2.28P  0.00P  
    08/02/2014 05:30 MST26P  2.19P  0.00P  
    08/02/2014 05:45 MST24P  2.14P  0.00P  
    08/02/2014 06:00 MST21P  2.08P  0.00P  
    08/02/2014 06:15 MST19P  2.03P  0.00P  
    08/02/2014 06:30 MST17P  1.98P  0.00P  
    08/02/2014 06:45 MST15P  1.90P  0.00P  
    08/02/2014 07:00 MST13P  1.84P  0.00P  
    08/02/2014 07:15 MST12P  1.79P  0.00P  
    08/02/2014 07:30 MST11P  1.75P  0.00P  
    08/02/2014 07:45 MST8.2P  1.64P  0.00P  
    08/02/2014 08:00 MST7.8P  1.62P  0.00P  
    08/02/2014 08:15 MST7.4P  1.60P  0.00P  
    08/02/2014 08:30 MST6.4P  1.54P  0.00P  
    08/02/2014 08:45 MST5.1P  1.47P  0.00P  
    08/02/2014 09:00 MST5.6P  1.49P  0.00P  
    08/02/2014 09:15 MST4.6P  1.43P  0.00P  
    08/02/2014 09:30 MST4.6P  1.43P  0.00P  
    08/02/2014 09:45 MST4.1P  1.40P  0.00P  
    08/02/2014 10:00 MST3.0P  1.32P  0.00P  
    08/02/2014 10:15 MST3.0P  1.32P  0.00P  
    08/02/2014 10:30 MST3.0P  1.31P  0.00P  
    08/02/2014 10:45 MST2.4P  1.26P  0.00P  
    08/02/2014 11:00 MST2.8P  1.29P  0.00P  
    08/02/2014 11:15 MST2.2P  1.23P  0.00P  
    08/02/2014 11:30 MST2.1P  1.22P  0.00P  
    08/02/2014 11:45 MST2.2P  1.23P  0.00P  
    08/02/2014 12:00 MST1.9P  1.19P  0.00P  
    08/02/2014 12:15 MST1.3P  1.11P  0.00P  
    08/02/2014 12:30 MST1.7P  1.17P  0.00P  
    08/02/2014 12:45 MST1.4P  1.13P  0.00P  
    08/02/2014 13:00 MST1.7P  1.17P  0.00P  
    08/02/2014 13:15 MST1.5P  1.14P  0.00P  
    08/02/2014 13:30 MST1.3P  1.12P  0.00P  
    08/02/2014 13:45 MST1.5P  1.14P  0.00P  
    08/02/2014 14:00 MST1.0P  1.07P  0.00P  
    08/02/2014 14:15 MST1.2P  1.10P  0.00P  
    08/02/2014 14:30 MST1.3P  1.12P  0.00P  
    08/02/2014 14:45 MST1.2P  1.10P  0.00P  
    08/02/2014 15:00 MST1.0P  1.07P  0.00P  
    08/02/2014 15:15 MST1.0P  1.06P  0.00P  
    08/02/2014 15:30 MST1.1P  1.08P  0.00P  
    08/02/2014 15:45 MST1.0P  1.07P  0.00P  
    08/02/2014 16:00 MST0.97P  1.05P  0.00P  
    08/02/2014 16:15 MST0.89P  1.03P  0.00P  
    08/02/2014 16:30 MST0.78P  1.01P  0.00P  
    08/02/2014 16:45 MST0.97P  1.05P  0.00P  
    08/02/2014 17:00 MST0.97P  1.05P  0.00P  
    08/02/2014 17:15 MST0.75P  1.00P  0.00P  
    08/02/2014 17:30 MST0.97P  1.05P  0.01P  
    08/02/2014 17:45 MST0.89P  1.03P  0.00P  
    08/02/2014 18:00 MST0.75P  1.00P  0.00P  
    08/02/2014 18:15 MST0.65P  0.97P  0.00P  
    08/02/2014 18:30 MST0.82P  1.02P  0.00P  
    08/02/2014 18:45 MST0.68P  0.98P  0.00P  
    08/02/2014 19:00 MST0.82P  1.02P  0.00P  
    08/02/2014 19:15 MST0.68P  0.98P  0.00P  
    08/02/2014 19:30 MST0.75P  1.00P  0.00P  
    08/02/2014 19:45 MST0.71P  0.99P  0.00P  
    08/02/2014 20:00 MST0.68P  0.98P  0.00P  
    08/02/2014 20:15 MST0.59P  0.95P  0.00P  
    08/02/2014 20:30 MST0.49P  0.91P  0.00P  
    08/02/2014 20:45 MST0.62P  0.96P  0.00P  
    08/02/2014 21:00 MST0.59P  0.95P  0.00P  
    08/02/2014 21:15 MST0.59P  0.95P  0.00P  
    08/02/2014 21:30 MST0.59P  0.95P  0.00P  
    08/02/2014 21:45 MST0.57P  0.94P  0.00P  
    08/02/2014 22:00 MST0.49P  0.91P  0.00P  
    08/02/2014 22:15 MST0.59P  0.95P  0.00P  
    08/02/2014 22:30 MST0.57P  0.94P  0.00P  
    08/02/2014 22:45 MST0.68P  0.98P  0.00P  
    08/02/2014 23:00 MST0.59P  0.95P  0.00P  
    08/02/2014 23:15 MST0.62P  0.96P  0.00P  
    08/02/2014 23:30 MST0.44P  0.89P  0.00P  
    08/02/2014 23:45 MST0.49P  0.91P  0.00P  
    08/03/2014 00:00 MST0.52P  0.92P  0.00P  
    08/03/2014 00:15 MST0.40P  0.87P  0.00P  
    08/03/2014 00:30 MST0.36P  0.85P  0.00P  
    08/03/2014 00:45 MST0.52P  0.92P  0.00P  
    08/03/2014 01:00 MST0.40P  0.87P  0.00P  
    08/03/2014 01:15 MST0.62P  0.96P  0.00P  
    08/03/2014 01:30 MST0.42P  0.88P  0.00P  
    08/03/2014 01:45 MST0.44P  0.89P  0.00P  
    08/03/2014 02:00 MST0.38P  0.86P  0.00P  
    08/03/2014 02:15 MST0.44P  0.89P  0.00P  
    08/03/2014 02:30 MST0.38P  0.86P  0.00P  
    08/03/2014 02:45 MST0.42P  0.88P  0.00P  
    08/03/2014 03:00 MST0.47P  0.90P  0.00P  
    08/03/2014 03:15 MST0.47P  0.90P  0.00P  
    08/03/2014 03:30 MST0.29P  0.81P  0.00P  
    08/03/2014 03:45 MST0.36P  0.85P  0.00P  
    08/03/2014 04:00 MST0.44P  0.89P  0.00P  
    08/03/2014 04:15 MST0.32P  0.83P  0.00P  
    08/03/2014 04:30 MST0.42P  0.88P  0.00P  
    08/03/2014 04:45 MST0.34P  0.84P  0.00P  
    08/03/2014 05:00 MST0.40P  0.87P  0.00P  
    08/03/2014 05:15 MST0.40P  0.87P  0.00P  
    08/03/2014 05:30 MST0.40P  0.87P  0.00P  
    08/03/2014 05:45 MST0.44P  0.89P  0.00P  
    08/03/2014 06:00 MST0.42P  0.88P  0.00P  
    08/03/2014 06:15 MST0.44P  0.89P  0.00P  
    08/03/2014 06:30 MST0.40P  0.87P  0.00P  
    08/03/2014 06:45 MST0.40P  0.87P  0.00P  
    08/03/2014 07:00 MST0.42P  0.88P  0.00P  
    08/03/2014 07:15 MST0.36P  0.85P  0.00P  
    08/03/2014 07:30 MST0.44P  0.89P  0.00P  
    08/03/2014 07:45 MST0.38P  0.86P  0.00P  
    08/03/2014 08:00 MST0.42P  0.88P  0.00P  
    08/03/2014 08:15 MST0.42P  0.88P  0.00P  
    08/03/2014 08:30 MST0.36P  0.85P  0.00P  
    08/03/2014 08:45 MST0.42P  0.88P  0.00P  
    08/03/2014 09:00 MST0.32P  0.83P  0.00P  
    08/03/2014 09:15 MST0.42P  0.88P  0.00P  
    08/03/2014 09:30 MST0.29P  0.81P  0.00P  
    08/03/2014 09:45 MST0.40P  0.87P  0.00P  
    08/03/2014 10:00 MST0.34P  0.84P  0.00P  
    08/03/2014 10:15 MST0.42P  0.88P  0.00P  
    08/03/2014 10:30 MST0.34P  0.84P  0.00P  
    08/03/2014 10:45 MST0.34P  0.84P  0.00P  
    08/03/2014 11:00 MST0.36P  0.85P  0.00P  
    08/03/2014 11:15 MST0.31P  0.82P  0.00P  
    08/03/2014 11:30 MST0.29P  0.81P  0.00P  
    08/03/2014 11:45 MST0.40P  0.87P  0.00P  
    08/03/2014 12:00 MST0.38P  0.86P  0.00P  
    08/03/2014 12:15 MST0.38P  0.86P  0.00P  
    08/03/2014 12:30 MST0.36P  0.85P  0.00P  
    08/03/2014 12:45 MST0.34P  0.84P  0.00P  
    08/03/2014 13:00 MST0.36P  0.85P  0.00P  
    08/03/2014 13:15 MST0.31P  0.82P  0.00P  
    08/03/2014 13:30 MST0.31P  0.82P  0.00P  
    08/03/2014 13:45 MST0.32P  0.83P  0.00P  
    08/03/2014 14:00 MST0.32P  0.83P  0.00P  
    08/03/2014 14:15 MST0.31P  0.82P  0.00P  
    08/03/2014 14:30 MST0.32P  0.83P  0.00P  
    08/03/2014 14:45 MST0.26P  0.79P  0.00P  
    08/03/2014 15:00 MST0.26P  0.79P  0.00P  
    08/03/2014 15:15 MST0.34P  0.84P  0.00P  
    08/03/2014 15:30 MST0.34P  0.84P  0.00P  
    08/03/2014 15:45 MST0.34P  0.84P  0.00P  
    08/03/2014 16:00 MST0.20P  0.75P  0.00P  
    08/03/2014 16:15 MST0.22P  0.76P  0.00P  
    08/03/2014 16:30 MST0.24P  0.78P  0.00P  
    08/03/2014 16:45 MST0.34P  0.84P  0.00P  
    08/03/2014 17:00 MST0.34P  0.84P  0.00P  
    08/03/2014 17:15 MST0.32P  0.83P  0.00P  
    08/03/2014 17:30 MST0.29P  0.81P  0.00P  
    08/03/2014 17:45 MST0.29P  0.81P  0.00P  
    08/03/2014 18:00 MST0.29P  0.81P  0.00P  
    08/03/2014 18:15 MST0.34P  0.84P  0.00P  
    08/03/2014 18:30 MST0.29P  0.81P  0.00P  
    08/03/2014 18:45 MST0.32P  0.83P  0.00P  
    08/03/2014 19:00 MST0.32P  0.83P  0.00P  
    08/03/2014 19:15 MST0.32P  0.83P  0.00P  
    08/03/2014 19:30 MST0.31P  0.82P  0.00P  
    08/03/2014 19:45 MST0.32P  0.83P  0.00P  
    08/03/2014 20:00 MST0.34P  0.84P  0.00P  
    08/03/2014 20:15 MST0.34P  0.84P  0.00P  
    08/03/2014 20:30 MST0.26P  0.79P  0.00P  
    08/03/2014 20:45 MST0.23P  0.77P  0.00P  
    08/03/2014 21:00 MST0.31P  0.82P  0.00P  
    08/03/2014 21:15 MST0.32P  0.83P  0.00P  
    08/03/2014 21:30 MST0.29P  0.81P  0.00P  
    08/03/2014 21:45 MST0.27P  0.80P  0.00P  
    08/03/2014 22:00 MST0.23P  0.77P  0.00P  
    08/03/2014 22:15 MST0.34P  0.84P  0.00P  
    08/03/2014 22:30 MST0.31P  0.82P  0.00P  
    08/03/2014 22:45 MST0.32P  0.83P  0.00P  
    08/03/2014 23:00 MST0.31P  0.82P  0.00P  
    08/03/2014 23:15 MST0.32P  0.83P  0.00P  
    08/03/2014 23:30 MST0.24P  0.78P  0.00P  
    08/03/2014 23:45 MST0.34P  0.84P  0.00P  
    08/04/2014 00:00 MST0.32P  0.83P  0.00P  
    08/04/2014 00:15 MST0.36P  0.85P  0.00P  
    08/04/2014 00:30 MST0.29P  0.81P  0.00P  
    08/04/2014 00:45 MST0.36P  0.85P  0.00P  
    08/04/2014 01:00 MST0.38P  0.86P  0.00P  
    08/04/2014 01:15 MST0.24P  0.78P  0.00P  
    08/04/2014 01:30 MST0.36P  0.85P  0.00P  
    08/04/2014 01:45 MST0.27P  0.80P  0.00P  
    08/04/2014 02:00 MST0.31P  0.82P  0.00P  
    08/04/2014 02:15 MST0.38P  0.86P  0.00P  
    08/04/2014 02:30 MST0.34P  0.84P  0.00P  
    08/04/2014 02:45 MST0.27P  0.80P  0.00P  
    08/04/2014 03:00 MST0.38P  0.86P  0.00P  
    08/04/2014 03:15 MST0.32P  0.83P  0.00P  
    08/04/2014 03:30 MST0.38P  0.86P  0.00P  
    08/04/2014 03:45 MST0.23P  0.77P  0.00P  
    08/04/2014 04:00 MST0.27P  0.80P  0.00P  
    08/04/2014 04:15 MST0.32P  0.83P  0.00P  
    08/04/2014 04:30 MST0.24P  0.78P  0.00P  
    08/04/2014 04:45 MST0.27P  0.80P  0.00P  
    08/04/2014 05:00 MST0.27P  0.80P  0.00P  
    08/04/2014 05:15 MST0.31P  0.82P  0.00P  
    08/04/2014 05:30 MST0.27P  0.80P  0.00P  
    08/04/2014 05:45 MST0.32P  0.83P  0.00P  
    08/04/2014 06:00 MST0.22P  0.76P  0.00P  
    08/04/2014 06:15 MST0.32P  0.83P  0.00P  
    08/04/2014 06:30 MST0.32P  0.83P  0.00P  
    08/04/2014 06:45 MST0.34P  0.84P  0.00P  
    08/04/2014 07:00 MST0.38P  0.86P  0.00P  
    08/04/2014 07:15 MST0.38P  0.86P  0.00P  
    08/04/2014 07:30 MST0.31P  0.82P  0.00P  
    08/04/2014 07:45 MST0.36P  0.85P  0.00P  
    08/04/2014 08:00 MST0.32P  0.83P  0.00P  
    08/04/2014 08:15 MST0.40P  0.87P  0.00P  
    08/04/2014 08:30 MST0.36P  0.85P  0.00P  
    08/04/2014 08:45 MST0.34P  0.84P  0.00P  
    08/04/2014 09:00 MST0.38P  0.86P  0.00P  
    08/04/2014 09:15 MST0.31P  0.82P  0.00P  
    08/04/2014 09:30 MST0.26P  0.79P  0.00P  
    08/04/2014 09:45 MST0.32P  0.83P  0.00P  
    08/04/2014 10:00 MST0.27P  0.80P  0.00P  
    08/04/2014 10:15 MST0.32P  0.83P  0.00P  
    08/04/2014 10:30 MST0.22P  0.76P  0.00P  
    08/04/2014 10:45 MST0.31P  0.82P  0.00P  
    08/04/2014 11:00 MST0.34P  0.84P  0.00P  
    08/04/2014 11:15 MST0.29P  0.81P  0.00P  
    08/04/2014 11:30 MST0.29P  0.81P  0.00P  
    08/04/2014 11:45 MST0.34P  0.84P  0.00P  
    08/04/2014 12:00 MST0.24P  0.78P  0.00P  
    08/04/2014 12:15 MST0.24P  0.78P  0.00P  
    08/04/2014 12:30 MST0.34P  0.84P  0.00P  
    08/04/2014 12:45 MST0.27P  0.80P  0.00P  
    08/04/2014 13:00 MST0.29P  0.81P  0.00P  
    08/04/2014 13:15 MST0.26P  0.79P  0.00P  
    08/04/2014 13:30 MST0.26P  0.79P  0.00P  
    08/04/2014 13:45 MST0.22P  0.76P  0.00P  
    08/04/2014 14:00 MST0.22P  0.76P  0.00P  
    08/04/2014 14:15 MST0.31P  0.82P  0.00P  
    08/04/2014 14:30 MST0.34P  0.84P  0.00P  
    08/04/2014 14:45 MST0.32P  0.83P  0.00P  
    08/04/2014 15:00 MST0.31P  0.82P  0.00P  
    08/04/2014 15:15 MST0.29P  0.81P  0.00P  
    08/04/2014 15:30 MST0.23P  0.77P  0.00P  
    08/04/2014 15:45 MST0.22P  0.76P  0.00P  
    08/04/2014 16:00 MST0.34P  0.84P  0.00P  
    08/04/2014 16:15 MST0.32P  0.83P  0.00P  
    08/04/2014 16:30 MST0.29P  0.81P  0.00P  
    08/04/2014 16:45 MST0.23P  0.77P  0.00P  
    08/04/2014 17:00 MST0.22P  0.76P  0.00P  
    08/04/2014 17:15 MST0.34P  0.84P  0.00P  
    08/04/2014 17:30 MST0.32P  0.83P  0.00P  
    08/04/2014 17:45 MST0.29P  0.81P  0.00P  
    08/04/2014 18:00 MST0.32P  0.83P  0.00P  
    08/04/2014 18:15 MST0.26P  0.79P  0.00P  
    08/04/2014 18:30 MST0.29P  0.81P  0.00P  
    08/04/2014 18:45 MST0.22P  0.76P  0.00P  
    08/04/2014 19:00 MST0.27P  0.80P  0.00P  
    08/04/2014 19:15 MST0.26P  0.79P  0.00P  
    08/04/2014 19:30 MST0.31P  0.82P  0.00P  
    08/04/2014 19:45 MST0.29P  0.81P  0.00P  
    08/04/2014 20:00 MST0.27P  0.80P  0.00P  
    08/04/2014 20:15 MST0.27P  0.80P  0.00P  
    08/04/2014 20:30 MST0.22P  0.76P  0.00P  
    08/04/2014 20:45 MST0.29P  0.81P  0.00P  
    08/04/2014 21:00 MST0.27P  0.80P  0.00P  
    08/04/2014 21:15 MST0.23P  0.77P  0.00P  
    08/04/2014 21:30 MST0.24P  0.78P  0.00P  
    08/04/2014 21:45 MST0.23P  0.77P  0.00P  
    08/04/2014 22:00 MST0.23P  0.77P  0.00P  
    08/04/2014 22:15 MST0.29P  0.81P  0.00P  
    08/04/2014 22:30 MST0.29P  0.81P  0.00P  
    08/04/2014 22:45 MST0.23P  0.77P  0.00P  
    08/04/2014 23:00 MST0.27P  0.80P  0.00P  
    08/04/2014 23:15 MST0.29P  0.81P  0.00P  
    08/04/2014 23:30 MST0.24P  0.78P  0.00P  
    08/04/2014 23:45 MST0.27P  0.80P  0.00P  
    08/05/2014 00:00 MST0.31P  0.82P  0.00P  
    08/05/2014 00:15 MST0.31P  0.82P  0.00P  
    08/05/2014 00:30 MST0.29P  0.81P  0.00P  
    08/05/2014 00:45 MST0.31P  0.82P  0.00P  
    08/05/2014 01:00 MST0.31P  0.82P  0.00P  
    08/05/2014 01:15 MST0.26P  0.79P  0.00P  
    08/05/2014 01:30 MST0.29P  0.81P  0.00P  
    08/05/2014 01:45 MST0.29P  0.81P  0.00P  
    08/05/2014 02:00 MST0.29P  0.81P  0.00P  
    08/05/2014 02:15 MST0.32P  0.83P  0.00P  
    08/05/2014 02:30 MST0.29P  0.81P  0.00P  
    08/05/2014 02:45 MST0.26P  0.79P  0.00P  
    08/05/2014 03:00 MST0.26P  0.79P  0.00P  
    08/05/2014 03:15 MST0.27P  0.80P  0.00P  
    08/05/2014 03:30 MST0.27P  0.80P  0.00P  
    08/05/2014 03:45 MST0.31P  0.82P  0.00P  
    08/05/2014 04:00 MST0.27P  0.80P  0.00P  
    08/05/2014 04:15 MST0.31P  0.82P  0.00P  
    08/05/2014 04:30 MST0.31P  0.82P  0.00P  
    08/05/2014 04:45 MST0.31P  0.82P  0.00P  
    08/05/2014 05:00 MST0.27P  0.80P  0.00P  
    08/05/2014 05:15 MST0.22P  0.76P  0.00P  
    08/05/2014 05:30 MST0.23P  0.77P  0.00P  
    08/05/2014 05:45 MST0.24P  0.78P  0.00P  
    08/05/2014 06:00 MST0.26P  0.79P  0.00P  
    08/05/2014 06:15 MST0.38P  0.86P  0.00P  
    08/05/2014 06:30 MST0.29P  0.81P  0.00P  
    08/05/2014 06:45 MST0.29P  0.81P  0.00P  
    08/05/2014 07:00 MST0.31P  0.82P  0.00P  
    08/05/2014 07:15 MST0.24P  0.78P  0.00P  
    08/05/2014 07:30 MST0.26P  0.79P  0.00P  
    08/05/2014 07:45 MST0.32P  0.83P  0.00P  
    08/05/2014 08:00 MST0.27P  0.80P  0.00P  
    08/05/2014 08:15 MST0.32P  0.83P  0.00P  
    08/05/2014 08:30 MST0.34P  0.84P  0.00P  
    08/05/2014 08:45 MST0.32P  0.83P  0.00P  
    08/05/2014 09:00 MST0.34P  0.84P  0.00P  
    08/05/2014 09:15 MST0.32P  0.83P  0.00P  
    08/05/2014 09:30 MST0.27P  0.80P  0.00P  
    08/05/2014 09:45 MST0.20P  0.75P  0.00P  
    08/05/2014 10:00 MST0.24P  0.78P  0.00P  
    08/05/2014 10:15 MST0.31P  0.82P  0.00P  
    08/05/2014 10:30 MST0.32P  0.83P  0.00P  
    08/05/2014 10:45 MST0.29P  0.81P  0.00P  
    08/05/2014 11:00 MST0.31P  0.82P  0.00P  
    08/05/2014 11:15 MST0.29P  0.81P  0.00P  
    08/05/2014 11:30 MST0.31P  0.82P  0.00P  
    08/05/2014 11:45 MST0.26P  0.79P  0.00P  
    08/05/2014 12:00 MST0.26P  0.79P  0.00P  
    08/05/2014 12:15 MST0.26P  0.79P  0.00P  
    08/05/2014 12:30 MST0.29P  0.81P  0.00P  
    08/05/2014 12:45 MST0.26P  0.79P  0.00P  
    08/05/2014 13:00 MST0.29P  0.81P  0.00P  
    08/05/2014 13:15 MST0.24P  0.78P  0.00P  
    08/05/2014 13:30 MST0.24P  0.78P  0.00P  
    08/05/2014 13:45 MST0.22P  0.76P  0.00P  
    08/05/2014 14:00 MST0.27P  0.80P  0.00P  
    08/05/2014 14:15 MST0.26P  0.79P  0.00P  
    08/05/2014 14:30 MST0.26P  0.79P  0.00P  
    08/05/2014 14:45 MST0.24P  0.78P  0.00P  
    08/05/2014 15:00 MST0.22P  0.76P  0.00P  
    08/05/2014 15:15 MST0.22P  0.76P  0.00P  
    08/05/2014 15:30 MST0.23P  0.77P  0.00P  
    08/05/2014 15:45 MST0.24P  0.78P  0.00P  
    08/05/2014 16:00 MST0.22P  0.76P  0.00P  
    08/05/2014 16:15 MST0.24P  0.78P  0.00P  
    08/05/2014 16:30 MST0.20P  0.75P  0.00P  
    08/05/2014 16:45 MST0.23P  0.77P  0.00P  
    08/05/2014 17:00 MST0.19P  0.74P  0.00P  
    08/05/2014 17:15 MST0.18P  0.73P  0.00P  
    08/05/2014 17:30 MST0.18P  0.73P  0.00P  
    08/05/2014 17:45 MST0.12P  0.67P  0.00P  
    08/05/2014 18:00 MST0.15P  0.70P  0.00P  
    08/05/2014 18:15 MST0.16P  0.71P  0.00P  
    08/05/2014 18:30 MST0.17P  0.72P  0.00P  
    08/05/2014 18:45 MST0.18P  0.73P  0.00P  
    08/05/2014 19:00 MST0.18P  0.73P  0.00P  
    08/05/2014 19:15 MST0.20P  0.75P  0.00P  
    08/05/2014 19:30 MST0.22P  0.76P  0.00P  
    08/05/2014 19:45 MST0.22P  0.76P  0.00P  
    08/05/2014 20:00 MST0.23P  0.77P  0.00P  
    08/05/2014 20:15 MST0.20P  0.75P  0.00P  
    08/05/2014 20:30 MST0.17P  0.72P  0.00P  
    08/05/2014 20:45 MST0.22P  0.76P  0.00P  
    08/05/2014 21:00 MST0.23P  0.77P  0.00P  
    08/05/2014 21:15 MST0.19P  0.74P  0.00P  
    08/05/2014 21:30 MST0.15P  0.70P  0.00P  
    08/05/2014 21:45 MST0.22P  0.76P  0.00P  
    08/05/2014 22:00 MST0.18P  0.73P  0.00P  
    08/05/2014 22:15 MST0.16P  0.71P  0.00P  
    08/05/2014 22:30 MST0.17P  0.72P  0.00P  
    08/05/2014 22:45 MST0.23P  0.77P  0.00P  
    08/05/2014 23:00 MST0.18P  0.73P  0.00P  
    08/05/2014 23:15 MST0.19P  0.74P  0.00P  
    08/05/2014 23:30 MST0.18P  0.73P  0.00P  
    08/05/2014 23:45 MST0.18P  0.73P  0.00P  
    08/06/2014 00:00 MST0.15P  0.70P  0.00P  
    08/06/2014 00:15 MST0.19P  0.74P  0.00P  
    08/06/2014 00:30 MST0.20P  0.75P  0.00P  
    08/06/2014 00:45 MST0.17P  0.72P  0.00P  
    08/06/2014 01:00 MST0.19P  0.74P  0.00P  
    08/06/2014 01:15 MST0.19P  0.74P  0.00P  
    08/06/2014 01:30 MST0.19P  0.74P  0.00P  
    08/06/2014 01:45 MST0.16P  0.71P  0.00P  
    08/06/2014 02:00 MST0.14P  0.69P  0.00P  
    08/06/2014 02:15 MST0.20P  0.75P  0.00P  
    08/06/2014 02:30 MST0.17P  0.72P  0.00P  
    08/06/2014 02:45 MST0.18P  0.73P  0.00P  
    08/06/2014 03:00 MST0.23P  0.77P  0.00P  
    08/06/2014 03:15 MST0.20P  0.75P  0.00P  
    08/06/2014 03:30 MST0.22P  0.76P  0.00P  
    08/06/2014 03:45 MST0.20P  0.75P  0.00P  
    08/06/2014 04:00 MST0.18P  0.73P  0.00P  
    08/06/2014 04:15 MST0.23P  0.77P  0.00P  
    08/06/2014 04:30 MST0.18P  0.73P  0.00P  
    08/06/2014 04:45 MST0.23P  0.77P  0.00P  
    08/06/2014 05:00 MST0.19P  0.74P  0.00P  
    08/06/2014 05:15 MST0.23P  0.77P  0.00P  
    08/06/2014 05:30 MST0.20P  0.75P  0.00P  
    08/06/2014 05:45 MST0.29P  0.81P  0.00P  
    08/06/2014 06:00 MST0.31P  0.82P  0.00P  
    08/06/2014 06:15 MST0.24P  0.78P  0.00P  
    08/06/2014 06:30 MST0.29P  0.81P  0.00P  
    08/06/2014 06:45 MST0.31P  0.82P  0.00P  
    08/06/2014 07:00 MST0.29P  0.81P  0.00P  
    08/06/2014 07:15 MST0.29P  0.81P  0.00P  
    08/06/2014 07:30 MST0.24P  0.78P  0.00P  
    08/06/2014 07:45 MST0.26P  0.79P  0.00P  
    08/06/2014 08:00 MST0.29P  0.81P  0.00P  
    08/06/2014 08:15 MST0.27P  0.80P  0.00P  
    08/06/2014 08:30 MST0.26P  0.79P  0.00P  
    08/06/2014 08:45 MST0.26P  0.79P  0.00P  
    08/06/2014 09:00 MST0.24P  0.78P  0.00P  
    08/06/2014 09:15 MST0.23P  0.77P  0.00P  
    08/06/2014 09:30 MST0.22P  0.76P  0.00P  
    08/06/2014 09:45 MST0.24P  0.78P  0.00P  
    08/06/2014 10:00 MST0.24P  0.78P  0.00P  
    08/06/2014 10:15 MST0.18P  0.73P  0.00P  
    08/06/2014 10:30 MST0.24P  0.78P  0.00P  
    08/06/2014 10:45 MST0.19P  0.74P  0.00P  
    08/06/2014 11:00 MST0.24P  0.78P  0.00P  
    08/06/2014 11:15 MST0.19P  0.74P  0.00P  
    08/06/2014 11:30 MST0.19P  0.74P  0.00P  
    08/06/2014 11:45 MST0.20P  0.75P  0.00P  
    08/06/2014 12:00 MST0.17P  0.72P  0.00P  
    08/06/2014 12:15 MST0.14P  0.69P  0.00P  
    08/06/2014 12:30 MST0.18P  0.73P  0.00P  
    08/06/2014 12:45 MST0.24P  0.78P  0.00P  
    08/06/2014 13:00 MST0.18P  0.73P  0.00P  
    08/06/2014 13:15 MST0.19P  0.74P  0.00P  
    08/06/2014 13:30 MST0.20P  0.75P  0.00P  
    08/06/2014 13:45 MST0.22P  0.76P  0.00P  
    08/06/2014 14:00 MST0.22P  0.76P  0.00P  
    08/06/2014 14:15 MST0.16P  0.71P  0.00P  
    08/06/2014 14:30 MST0.22P  0.76P  0.00P  
    08/06/2014 14:45 MST0.20P  0.75P  0.00P  
    08/06/2014 15:00 MST0.16P  0.71P  0.00P  
    08/06/2014 15:15 MST0.19P  0.74P  0.00P  
    08/06/2014 15:30 MST0.20P  0.75P  0.00P  
    08/06/2014 15:45 MST0.18P  0.73P  0.00P  
    08/06/2014 16:00 MST0.15P  0.70P  0.00P  
    08/06/2014 16:15 MST0.19P  0.74P  0.00P  
    08/06/2014 16:30 MST0.18P  0.73P  0.00P  
    08/06/2014 16:45 MST0.19P  0.74P  0.00P  
    08/06/2014 17:00 MST0.20P  0.75P  0.00P  
    08/06/2014 17:15 MST0.15P  0.70P  0.00P  
    08/06/2014 17:30 MST0.18P  0.73P  0.00P  
    08/06/2014 17:45 MST0.22P  0.76P  0.00P  
    08/06/2014 18:00 MST0.20P  0.75P  0.00P  
    08/06/2014 18:15 MST0.17P  0.72P  0.00P  
    08/06/2014 18:30 MST0.15P  0.70P  0.00P  
    08/06/2014 18:45 MST0.22P  0.76P  0.00P  
    08/06/2014 19:00 MST0.20P  0.75P  0.00P  
    08/06/2014 19:15 MST0.18P  0.73P  0.00P  
    08/06/2014 19:30 MST0.20P  0.75P  0.00P  
    08/06/2014 19:45 MST0.18P  0.73P  0.00P  
    08/06/2014 20:00 MST0.19P  0.74P  0.00P  
    08/06/2014 20:15 MST0.16P  0.71P  0.00P  
    08/06/2014 20:30 MST0.19P  0.74P  0.00P  
    08/06/2014 20:45 MST0.19P  0.74P  0.00P  
    08/06/2014 21:00 MST0.18P  0.73P  0.00P  
    08/06/2014 21:15 MST0.22P  0.76P  0.00P  
    08/06/2014 21:30 MST0.19P  0.74P  0.00P  
    08/06/2014 21:45 MST0.22P  0.76P  0.00P  
    08/06/2014 22:00 MST0.16P  0.71P  0.00P  
    08/06/2014 22:15 MST0.15P  0.70P  0.00P  
    08/06/2014 22:30 MST0.17P  0.72P  0.00P  
    08/06/2014 22:45 MST0.22P  0.76P  0.00P  
    08/06/2014 23:00 MST0.19P  0.74P  0.00P  
    08/06/2014 23:15 MST0.22P  0.76P  0.00P  
    08/06/2014 23:30 MST0.20P  0.75P  0.00P  
    08/06/2014 23:45 MST0.16P  0.71P  0.00P  
    08/07/2014 00:00 MST0.20P  0.75P  0.00P  
    08/07/2014 00:15 MST0.18P  0.73P  0.00P  
    08/07/2014 00:30 MST0.23P  0.77P  0.00P  
    08/07/2014 00:45 MST0.19P  0.74P  0.00P  
    08/07/2014 01:00 MST0.20P  0.75P  0.00P  
    08/07/2014 01:15 MST0.16P  0.71P  0.00P  
    08/07/2014 01:30 MST0.23P  0.77P  0.00P  
    08/07/2014 01:45 MST0.16P  0.71P  0.00P  
    08/07/2014 02:00 MST0.19P  0.74P  0.00P  
    08/07/2014 02:15 MST0.19P  0.74P  0.00P  
    08/07/2014 02:30 MST0.20P  0.75P  0.00P  
    08/07/2014 02:45 MST0.20P  0.75P  0.00P  
    08/07/2014 03:00 MST0.24P  0.78P  0.00P  
    08/07/2014 03:15 MST0.22P  0.76P  0.00P  
    08/07/2014 03:30 MST0.23P  0.77P  0.00P  
    08/07/2014 03:45 MST0.22P  0.76P  0.00P  
    08/07/2014 04:00 MST0.22P  0.76P  0.00P  
    08/07/2014 04:15 MST0.20P  0.75P  0.00P  
    08/07/2014 04:30 MST0.23P  0.77P  0.00P  
    08/07/2014 04:45 MST0.22P  0.76P  0.00P  
    08/07/2014 05:00 MST0.19P  0.74P  0.00P  
    08/07/2014 05:15 MST0.22P  0.76P  0.00P  
    08/07/2014 05:30 MST0.24P  0.78P  0.00P  
    08/07/2014 05:45 MST0.24P  0.78P  0.00P  
    08/07/2014 06:00 MST0.24P  0.78P  0.00P  
    08/07/2014 06:15 MST0.26P  0.79P  0.00P  
    08/07/2014 06:30 MST0.17P  0.72P  0.00P  
    08/07/2014 06:45 MST0.26P  0.79P  0.00P  
    08/07/2014 07:00 MST0.26P  0.79P  0.00P  
    08/07/2014 07:15 MST0.24P  0.78P  0.00P  
    08/07/2014 07:30 MST0.27P  0.80P  0.00P  
    08/07/2014 07:45 MST0.24P  0.78P  0.00P  
    08/07/2014 08:00 MST0.23P  0.77P  0.00P  
    08/07/2014 08:15 MST0.26P  0.79P  0.00P  
    08/07/2014 08:30 MST0.27P  0.80P  0.00P  
    08/07/2014 08:45 MST0.20P  0.75P  0.00P  
    08/07/2014 09:00 MST0.26P  0.79P  0.00P  
    08/07/2014 09:15 MST0.27P  0.80P  0.00P  
    08/07/2014 09:30 MST0.29P  0.81P  0.00P  
    08/07/2014 09:45 MST0.24P  0.78P  0.00P  
    08/07/2014 10:00 MST0.24P  0.78P  0.00P  
    08/07/2014 10:15 MST0.26P  0.79P  0.00P  
    08/07/2014 10:30 MST0.22P  0.76P  0.00P  
    08/07/2014 10:45 MST0.27P  0.80P  0.00P  
    08/07/2014 11:00 MST0.24P  0.78P  0.00P  
    08/07/2014 11:15 MST0.27P  0.80P  0.00P  
    08/07/2014 11:30 MST0.27P  0.80P  0.00P  
    08/07/2014 11:45 MST0.27P  0.80P  0.00P  
    08/07/2014 12:00 MST0.26P  0.79P  0.00P  
    08/07/2014 12:15 MST0.24P  0.78P  0.00P  
    08/07/2014 12:30 MST0.23P  0.77P  0.00P  
    08/07/2014 12:45 MST0.26P  0.79P  0.00P  
    08/07/2014 13:00 MST0.26P  0.79P  0.00P  
    08/07/2014 13:15 MST0.26P  0.79P  0.00P  
    08/07/2014 13:30 MST0.19P  0.74P  0.00P  
    08/07/2014 13:45 MST0.24P  0.78P  0.00P  
    08/07/2014 14:00 MST0.24P  0.78P  0.00P  
    08/07/2014 14:15 MST0.18P  0.73P  0.00P  
    08/07/2014 14:30 MST0.17P  0.72P  0.00P  
    08/07/2014 14:45 MST0.20P  0.75P  0.00P  
    08/07/2014 15:00 MST0.19P  0.74P  0.00P  
    08/07/2014 15:15 MST0.23P  0.77P  0.00P  
    08/07/2014 15:30 MST0.18P  0.73P  0.00P  
    08/07/2014 15:45 MST0.22P  0.76P  0.00P  
    08/07/2014 16:00 MST0.18P  0.73P  0.00P  
    08/07/2014 16:15 MST0.19P  0.74P  0.00P  
    08/07/2014 16:30 MST0.19P  0.74P  0.00P  
    08/07/2014 16:45 MST0.22P  0.76P  0.00P  
    08/07/2014 17:00 MST0.19P  0.74P  0.00P  
    08/07/2014 17:15 MST0.18P  0.73P  0.00P  
    08/07/2014 17:30 MST0.19P  0.74P  0.00P  
    08/07/2014 17:45 MST0.20P  0.75P  0.00P  
    08/07/2014 18:00 MST0.20P  0.75P  0.00P  
    08/07/2014 18:15 MST0.19P  0.74P  0.00P  
    08/07/2014 18:30 MST0.22P  0.76P  0.00P  
    08/07/2014 18:45 MST0.19P  0.74P  0.00P  
    08/07/2014 19:00 MST0.18P  0.73P  0.00P  
    08/07/2014 19:15 MST0.22P  0.76P  0.00P  
    08/07/2014 19:30 MST0.19P  0.74P  0.00P  
    08/07/2014 19:45 MST0.22P  0.76P  0.00P  
    08/07/2014 20:00 MST0.20P  0.75P  0.00P  
    08/07/2014 20:15 MST0.16P  0.71P  0.00P  
    08/07/2014 20:30 MST0.18P  0.73P  0.00P  
    08/07/2014 20:45 MST0.17P  0.72P  0.00P  
    08/07/2014 21:00 MST0.17P  0.72P  0.00P  
    08/07/2014 21:15 MST0.18P  0.73P  0.00P  
    08/07/2014 21:30 MST0.20P  0.75P  0.00P  
    08/07/2014 21:45 MST0.18P  0.73P  0.00P  
    08/07/2014 22:00 MST0.20P  0.75P  0.00P  
    08/07/2014 22:15 MST0.17P  0.72P  0.00P  
    08/07/2014 22:30 MST0.20P  0.75P  0.00P  
    08/07/2014 22:45 MST0.17P  0.72P  0.00P  
    08/07/2014 23:00 MST0.23P  0.77P  0.00P  
    08/07/2014 23:15 MST0.18P  0.73P  0.00P  
    08/07/2014 23:30 MST0.22P  0.76P  0.00P  
    08/07/2014 23:45 MST0.22P  0.76P  0.00P  
    08/08/2014 00:00 MST0.18P  0.73P  0.00P  
    08/08/2014 00:15 MST0.20P  0.75P  0.00P  
    08/08/2014 00:30 MST0.20P  0.75P  0.00P  
    08/08/2014 00:45 MST0.20P  0.75P  0.00P  
    08/08/2014 01:00 MST0.19P  0.74P  0.00P  
    08/08/2014 01:15 MST0.22P  0.76P  0.00P  
    08/08/2014 01:30 MST0.18P  0.73P  0.00P  
    08/08/2014 01:45 MST0.23P  0.77P  0.00P  
    08/08/2014 02:00 MST0.16P  0.71P  0.00P  
    08/08/2014 02:15 MST0.22P  0.76P  0.00P  
    08/08/2014 02:30 MST0.22P  0.76P  0.00P  
    08/08/2014 02:45 MST0.22P  0.76P  0.00P  
    08/08/2014 03:00 MST0.24P  0.78P  0.00P  
    08/08/2014 03:15 MST0.22P  0.76P  0.00P  
    08/08/2014 03:30 MST0.24P  0.78P  0.00P  
    08/08/2014 03:45 MST0.20P  0.75P  0.00P  
    08/08/2014 04:00 MST0.20P  0.75P  0.00P  
    08/08/2014 04:15 MST0.20P  0.75P  0.00P  
    08/08/2014 04:30 MST0.23P  0.77P  0.00P  
    08/08/2014 04:45 MST0.19P  0.74P  0.00P  
    08/08/2014 05:00 MST0.26P  0.79P  0.00P  
    08/08/2014 05:15 MST0.23P  0.77P  0.00P  
    08/08/2014 05:30 MST0.26P  0.79P  0.00P  
    08/08/2014 05:45 MST0.20P  0.75P  0.00P  
    08/08/2014 06:00 MST0.26P  0.79P  0.00P  
    08/08/2014 06:15 MST0.22P  0.76P  0.00P  
    08/08/2014 06:30 MST0.18P  0.73P  0.00P  
    08/08/2014 06:45 MST0.26P  0.79P  0.00P  
    08/08/2014 07:00 MST0.23P  0.77P  0.00P  
    08/08/2014 07:15 MST0.27P  0.80P  0.00P  
    08/08/2014 07:30 MST0.27P  0.80P  0.00P  
    08/08/2014 07:45 MST0.26P  0.79P  0.00P  
    08/08/2014 08:00 MST0.27P  0.80P  0.00P  
    08/08/2014 08:15 MST0.24P  0.78P  0.00P  
    08/08/2014 08:30 MST0.26P  0.79P  0.00P  
    08/08/2014 08:45 MST0.27P  0.80P  0.00P  
    08/08/2014 09:00 MST0.23P  0.77P  0.00P  
    08/08/2014 09:15 MST0.23P  0.77P  0.00P  
    08/08/2014 09:30 MST0.22P  0.76P  0.00P  
    08/08/2014 09:45 MST0.26P  0.79P  0.00P  
    08/08/2014 10:00 MST0.24P  0.78P  0.00P  
    08/08/2014 10:15 MST0.23P  0.77P  0.00P  
    08/08/2014 10:30 MST0.23P  0.77P  0.00P  
    08/08/2014 10:45 MST0.26P  0.79P  0.00P  
    08/08/2014 11:00 MST0.23P  0.77P  0.00P  
    08/08/2014 11:15 MST0.20P  0.75P  0.00P  
    08/08/2014 11:30 MST0.24P  0.78P  0.00P  
    08/08/2014 11:45 MST0.20P  0.75P  0.00P  
    08/08/2014 12:00 MST0.24P  0.78P  0.00P  
    08/08/2014 12:15 MST0.19P  0.74P  0.00P  
    08/08/2014 12:30 MST0.20P  0.75P  0.00P  
    08/08/2014 12:45 MST0.23P  0.77P  0.00P  
    08/08/2014 13:00 MST0.22P  0.76P  0.00P  
    08/08/2014 13:15 MST0.19P  0.74P  0.00P  
    08/08/2014 13:30 MST0.20P  0.75P  0.00P  
    08/08/2014 13:45 MST0.22P  0.76P  0.00P  
    08/08/2014 14:00 MST0.20P  0.75P  0.00P  
    08/08/2014 14:15 MST0.19P  0.74P  0.00P  
    08/08/2014 14:30 MST0.16P  0.71P  0.00P  
    08/08/2014 14:45 MST0.16P  0.71P  0.00P  
    08/08/2014 15:00 MST0.22P  0.76P  0.00P  
    08/08/2014 15:15 MST0.19P  0.74P  0.00P  
    08/08/2014 15:30 MST0.20P  0.75P  0.00P  
    08/08/2014 15:45 MST0.17P  0.72P  0.00P  
    08/08/2014 16:00 MST0.18P  0.73P  0.00P  
    08/08/2014 16:15 MST0.14P  0.69P  0.00P  
    08/08/2014 16:30 MST0.18P  0.73P  0.00P  
    08/08/2014 16:45 MST0.14P  0.69P  0.00P  
    08/08/2014 17:00 MST0.12P  0.67P  0.00P  
    08/08/2014 17:15 MST0.16P  0.71P  0.00P  
    08/08/2014 17:30 MST0.18P  0.73P  0.00P  
    08/08/2014 17:45 MST0.18P  0.73P  0.00P  
    08/08/2014 18:00 MST0.13P  0.68P  0.00P  
    08/08/2014 18:15 MST0.20P  0.75P  0.00P  
    08/08/2014 18:30 MST0.13P  0.68P  0.00P  
    08/08/2014 18:45 MST0.19P  0.74P  0.00P  
    08/08/2014 19:00 MST0.18P  0.73P  0.00P  
    08/08/2014 19:15 MST0.17P  0.72P  0.00P  
    08/08/2014 19:30 MST0.17P  0.72P  0.00P  
    08/08/2014 19:45 MST0.18P  0.73P  0.00P  
    08/08/2014 20:00 MST0.17P  0.72P  0.00P  
    08/08/2014 20:15 MST0.17P  0.72P  0.00P  
    08/08/2014 20:30 MST0.17P  0.72P  0.00P  
    08/08/2014 20:45 MST0.18P  0.73P  0.00P  
    08/08/2014 21:00 MST0.19P  0.74P  0.00P  
    08/08/2014 21:15 MST0.14P  0.69P  0.00P  
    08/08/2014 21:30 MST0.13P  0.68P  0.00P  
    08/08/2014 21:45 MST0.17P  0.72P  0.00P  
    08/08/2014 22:00 MST0.20P  0.75P  0.00P  
    08/08/2014 22:15 MST0.16P  0.71P  0.00P  
    08/08/2014 22:30 MST0.19P  0.74P  0.00P  
    08/08/2014 22:45 MST0.18P  0.73P  0.00P  
    08/08/2014 23:00 MST0.18P  0.73P  0.00P  
    08/08/2014 23:15 MST0.17P  0.72P  0.00P  
    08/08/2014 23:30 MST0.20P  0.75P  0.00P  
    08/08/2014 23:45 MST0.20P  0.75P  0.00P  
    08/09/2014 00:00 MST0.19P  0.74P  0.00P  
    08/09/2014 00:15 MST0.18P  0.73P  0.00P  
    08/09/2014 00:30 MST0.19P  0.74P  0.00P  
    08/09/2014 00:45 MST0.16P  0.71P  0.00P  
    08/09/2014 01:00 MST0.20P  0.75P  0.00P  
    08/09/2014 01:15 MST0.17P  0.72P  0.00P  
    08/09/2014 01:30 MST0.18P  0.73P  0.00P  
    08/09/2014 01:45 MST0.18P  0.73P  0.00P  
    08/09/2014 02:00 MST0.18P  0.73P  0.00P  
    08/09/2014 02:15 MST0.17P  0.72P  0.00P  
    08/09/2014 02:30 MST0.20P  0.75P  0.00P  
    08/09/2014 02:45 MST0.18P  0.73P  0.00P  
    08/09/2014 03:00 MST0.20P  0.75P  0.00P  
    08/09/2014 03:15 MST0.19P  0.74P  0.00P  
    08/09/2014 03:30 MST0.17P  0.72P  0.00P  
    08/09/2014 03:45 MST0.22P  0.76P  0.00P  
    08/09/2014 04:00 MST0.22P  0.76P  0.00P  
    08/09/2014 04:15 MST0.18P  0.73P  0.00P  
    08/09/2014 04:30 MST0.23P  0.77P  0.00P  
    08/09/2014 04:45 MST0.20P  0.75P  0.00P  
    08/09/2014 05:00 MST0.23P  0.77P  0.00P  
    08/09/2014 05:15 MST0.23P  0.77P  0.00P  
    08/09/2014 05:30 MST0.23P  0.77P  0.00P  
    08/09/2014 05:45 MST0.18P  0.73P  0.00P  
    08/09/2014 06:00 MST0.24P  0.78P  0.00P  
    08/09/2014 06:15 MST0.20P  0.75P  0.00P  
    08/09/2014 06:30 MST0.20P  0.75P  0.00P  
    08/09/2014 06:45 MST0.23P  0.77P  0.00P  
    08/09/2014 07:00 MST0.18P  0.73P  0.00P  
    08/09/2014 07:15 MST0.18P  0.73P  0.00P  
    08/09/2014 07:30 MST0.22P  0.76P  0.00P  
    08/09/2014 07:45 MST0.24P  0.78P  0.00P  
    08/09/2014 08:00 MST0.23P  0.77P  0.00P  
    08/09/2014 08:15 MST0.24P  0.78P  0.00P  
    08/09/2014 08:30 MST0.23P  0.77P  0.00P  
    08/09/2014 08:45 MST0.23P  0.77P  0.00P  
    08/09/2014 09:00 MST0.20P  0.75P  0.00P  
    08/09/2014 09:15 MST0.20P  0.75P  0.00P  
    08/09/2014 09:30 MST0.18P  0.73P  0.00P  
    08/09/2014 09:45 MST0.24P  0.78P  0.00P  
    08/09/2014 10:00 MST0.22P  0.76P  0.00P  
    08/09/2014 10:15 MST0.20P  0.75P  0.00P  
    08/09/2014 10:30 MST0.24P  0.78P  0.00P  
    08/09/2014 10:45 MST0.23P  0.77P  0.00P  
    08/09/2014 11:00 MST0.23P  0.77P  0.00P  
    08/09/2014 11:15 MST0.23P  0.77P  0.00P  
    08/09/2014 11:30 MST0.19P  0.74P  0.00P  
    08/09/2014 11:45 MST0.22P  0.76P  0.00P  
    08/09/2014 12:00 MST0.22P  0.76P  0.00P  
    08/09/2014 12:15 MST0.19P  0.74P  0.00P  
    08/09/2014 12:30 MST0.17P  0.72P  0.00P  
    08/09/2014 12:45 MST0.15P  0.70P  0.00P  
    08/09/2014 13:00 MST0.17P  0.72P  0.00P  
    08/09/2014 13:15 MST0.19P  0.74P  0.00P  
    08/09/2014 13:30 MST0.15P  0.70P  0.00P  
    08/09/2014 13:45 MST0.16P  0.71P  0.00P  
    08/09/2014 14:00 MST0.12P  0.67P  0.00P  
    08/09/2014 14:15 MST0.20P  0.75P  0.00P  
    08/09/2014 14:30 MST0.19P  0.74P  0.00P  
    08/09/2014 14:45 MST0.18P  0.73P  0.00P  
    08/09/2014 15:00 MST0.13P  0.68P  0.00P  
    08/09/2014 15:15 MST0.15P  0.70P  0.00P  
    08/09/2014 15:30 MST0.19P  0.74P  0.00P  
    08/09/2014 15:45 MST0.11P  0.66P  0.00P  
    08/09/2014 16:00 MST0.12P  0.67P  0.00P  
    08/09/2014 16:15 MST0.18P  0.73P  0.00P  
    08/09/2014 16:30 MST0.14P  0.69P  0.00P  
    08/09/2014 16:45 MST0.13P  0.68P  0.00P  
    08/09/2014 17:00 MST0.19P  0.74P  0.00P  
    08/09/2014 17:15 MST0.16P  0.71P  0.00P  
    08/09/2014 17:30 MST0.12P  0.67P  0.00P  
    08/09/2014 17:45 MST0.16P  0.71P  0.00P  
    08/09/2014 18:00 MST0.17P  0.72P  0.00P  
    08/09/2014 18:15 MST0.17P  0.72P  0.00P  
    08/09/2014 18:30 MST0.18P  0.73P  0.00P  
    08/09/2014 18:45 MST0.24P  0.78P  0.07P  
    08/09/2014 19:00 MST0.22P  0.76P  0.05P  
    08/09/2014 19:15 MST0.34P  0.84P  0.30P  
    08/09/2014 19:30 MST0.36P  0.85P  0.08P  
    08/09/2014 19:45 MST0.31P  0.82P  0.01P  
    08/09/2014 20:00 MST31P  2.29P  0.01P  
    08/09/2014 20:15 MST17P  1.96P  0.05P  
    08/09/2014 20:30 MST6.5P  1.55P  0.03P  
    08/09/2014 20:45 MST3.0P  1.31P  0.03P  
    08/09/2014 21:00 MST2.1P  1.22P  0.02P  
    08/09/2014 21:15 MST2.0P  1.21P  0.03P  
    08/09/2014 21:30 MST2.1P  1.22P  0.02P  
    08/09/2014 21:45 MST11P  1.75P  0.00P  
    08/09/2014 22:00 MST5.0P  1.46P  0.01P  
    08/09/2014 22:15 MST3.0P  1.31P  0.01P  
    08/09/2014 22:30 MST3.0P  1.32P  0.00P  
    08/09/2014 22:45 MST2.4P  1.25P  0.00P  
    08/09/2014 23:00 MST1.9P  1.19P  0.01P  
    08/09/2014 23:15 MST1.7P  1.17P  0.01P  
    08/09/2014 23:30 MST1.5P  1.15P  0.00P  
    08/09/2014 23:45 MST1.7P  1.17P  0.00P  
    08/10/2014 00:00 MST1.8P  1.18P  0.00P  
    08/10/2014 00:15 MST1.5P  1.15P  0.00P  
    08/10/2014 00:30 MST1.4P  1.13P  0.00P  
    08/10/2014 00:45 MST1.3P  1.11P  0.00P  
    08/10/2014 01:00 MST1.3P  1.12P  0.00P  
    08/10/2014 01:15 MST1.3P  1.11P  0.00P  
    08/10/2014 01:30 MST1.6P  1.16P  0.00P  
    08/10/2014 01:45 MST1.4P  1.13P  0.00P  
    08/10/2014 02:00 MST1.2P  1.10P  0.00P  
    08/10/2014 02:15 MST1.3P  1.11P  0.00P  
    08/10/2014 02:30 MST1.5P  1.15P  0.00P  
    08/10/2014 02:45 MST1.5P  1.15P  0.00P  
    08/10/2014 03:00 MST1.2P  1.09P  0.00P  
    08/10/2014 03:15 MST1.4P  1.13P  0.00P  
    08/10/2014 03:30 MST1.3P  1.12P  0.00P  
    08/10/2014 03:45 MST1.2P  1.10P  0.00P  
    08/10/2014 04:00 MST0.89P  1.03P  0.00P  
    08/10/2014 04:15 MST0.78P  1.01P  0.00P  
    08/10/2014 04:30 MST0.97P  1.05P  0.00P  
    08/10/2014 04:45 MST0.97P  1.05P  0.00P  
    08/10/2014 05:00 MST0.75P  1.00P  0.00P  
    08/10/2014 05:15 MST0.78P  1.01P  0.00P  
    08/10/2014 05:30 MST0.75P  1.00P  0.00P  
    08/10/2014 05:45 MST0.75P  1.00P  0.00P  
    08/10/2014 06:00 MST0.62P  0.96P  0.00P  
    08/10/2014 06:15 MST0.71P  0.99P  0.00P  
    08/10/2014 06:30 MST0.62P  0.96P  0.00P  
    08/10/2014 06:45 MST0.54P  0.93P  0.00P  
    08/10/2014 07:00 MST0.52P  0.92P  0.00P  
    08/10/2014 07:15 MST0.47P  0.90P  0.00P  
    08/10/2014 07:30 MST0.44P  0.89P  0.00P  
    08/10/2014 07:45 MST0.36P  0.85P  0.00P  
    08/10/2014 08:00 MST0.40P  0.87P  0.00P  
    08/10/2014 08:15 MST0.36P  0.85P  0.00P  
    08/10/2014 08:30 MST0.38P  0.86P  0.00P  
    08/10/2014 08:45 MST0.42P  0.88P  0.00P  
    08/10/2014 09:00 MST0.38P  0.86P  0.00P  
    08/10/2014 09:15 MST0.44P  0.89P  0.00P  
    08/10/2014 09:30 MST0.44P  0.89P  0.00P  
    08/10/2014 09:45 MST0.36P  0.85P  0.00P  
    08/10/2014 10:00 MST0.42P  0.88P  0.00P  
    08/10/2014 10:15 MST0.36P  0.85P  0.00P  
    08/10/2014 10:30 MST0.36P  0.85P  0.00P  
    08/10/2014 10:45 MST0.34P  0.84P  0.00P  
    08/10/2014 11:00 MST0.36P  0.85P  0.00P  
    08/10/2014 11:15 MST0.31P  0.82P  0.00P  
    08/10/2014 11:30 MST0.36P  0.85P  0.00P  
    08/10/2014 11:45 MST0.36P  0.85P  0.01P  
    08/10/2014 12:00 MST0.34P  0.84P  0.00P  
    08/10/2014 12:15 MST0.34P  0.84P  0.00P  
    08/10/2014 12:30 MST0.27P  0.80P  0.00P  
    08/10/2014 12:45 MST0.31P  0.82P  0.00P  
    08/10/2014 13:00 MST0.27P  0.80P  0.00P  
    08/10/2014 13:15 MST0.22P  0.76P  0.00P  
    08/10/2014 13:30 MST0.31P  0.82P  0.00P  
    08/10/2014 13:45 MST0.31P  0.82P  0.00P  
    08/10/2014 14:00 MST0.27P  0.80P  0.00P  
    08/10/2014 14:15 MST0.29P  0.81P  0.00P  
    08/10/2014 14:30 MST0.27P  0.80P  0.00P  
    08/10/2014 14:45 MST0.24P  0.78P  0.00P  
    08/10/2014 15:00 MST0.22P  0.76P  0.00P  
    08/10/2014 15:15 MST0.20P  0.75P  0.00P  
    08/10/2014 15:30 MST0.26P  0.79P  0.00P  
    08/10/2014 15:45 MST0.22P  0.76P  0.00P  
    08/10/2014 16:00 MST0.26P  0.79P  0.00P  
    08/10/2014 16:15 MST0.27P  0.80P  0.00P  
    08/10/2014 16:30 MST0.19P  0.74P  0.00P  
    08/10/2014 16:45 MST0.23P  0.77P  0.00P  
    08/10/2014 17:00 MST0.19P  0.74P  0.00P  
    08/10/2014 17:15 MST0.24P  0.78P  0.00P  
    08/10/2014 17:30 MST0.19P  0.74P  0.00P  
    08/10/2014 17:45 MST0.24P  0.78P  0.00P  
    08/10/2014 18:00 MST0.19P  0.74P  0.00P  
    08/10/2014 18:15 MST0.18P  0.73P  0.00P  
    08/10/2014 18:30 MST0.19P  0.74P  0.00P  
    08/10/2014 18:45 MST0.19P  0.74P  0.00P  
    08/10/2014 19:00 MST0.24P  0.78P  0.00P  
    08/10/2014 19:15 MST0.26P  0.79P  0.00P  
    08/10/2014 19:30 MST0.20P  0.75P  0.00P  
    08/10/2014 19:45 MST0.26P  0.79P  0.00P  
    08/10/2014 20:00 MST0.19P  0.74P  0.00P  
    08/10/2014 20:15 MST0.22P  0.76P  0.00P  
    08/10/2014 20:30 MST0.23P  0.77P  0.00P  
    08/10/2014 20:45 MST0.20P  0.75P  0.00P  
    08/10/2014 21:00 MST0.19P  0.74P  0.00P  
    08/10/2014 21:15 MST0.24P  0.78P  0.00P  
    08/10/2014 21:30 MST0.23P  0.77P  0.00P  
    08/10/2014 21:45 MST0.24P  0.78P  0.00P  
    08/10/2014 22:00 MST0.26P  0.79P  0.00P  
    08/10/2014 22:15 MST0.26P  0.79P  0.00P  
    08/10/2014 22:30 MST0.26P  0.79P  0.00P  
    08/10/2014 22:45 MST0.22P  0.76P  0.00P  
    08/10/2014 23:00 MST0.29P  0.81P  0.01P  
    08/10/2014 23:15 MST0.26P  0.79P  0.03P  
    08/10/2014 23:30 MST0.24P  0.78P  0.02P  
    08/10/2014 23:45 MST0.23P  0.77P  0.00P  
    08/11/2014 00:00 MST0.19P  0.74P  0.00P  
    08/11/2014 00:15 MST0.26P  0.79P  0.00P  
    08/11/2014 00:30 MST0.20P  0.75P  0.00P  
    08/11/2014 00:45 MST0.19P  0.74P  0.00P  
    08/11/2014 01:00 MST0.23P  0.77P  0.00P  
    08/11/2014 01:15 MST0.20P  0.75P  0.00P  
    08/11/2014 01:30 MST0.22P  0.76P  0.00P  
    08/11/2014 01:45 MST0.24P  0.78P  0.00P  
    08/11/2014 02:00 MST0.24P  0.78P  0.00P  
    08/11/2014 02:15 MST0.18P  0.73P  0.00P  
    08/11/2014 02:30 MST0.23P  0.77P  0.00P  
    08/11/2014 02:45 MST0.19P  0.74P  0.00P  
    08/11/2014 03:00 MST0.24P  0.78P  0.00P  
    08/11/2014 03:15 MST0.24P  0.78P  0.00P  
    08/11/2014 03:30 MST0.22P  0.76P  0.00P  
    08/11/2014 03:45 MST0.22P  0.76P  0.00P  
    08/11/2014 04:00 MST0.26P  0.79P  0.00P  
    08/11/2014 04:15 MST0.29P  0.81P  0.00P  
    08/11/2014 04:30 MST0.27P  0.80P  0.00P  
    08/11/2014 04:45 MST0.29P  0.81P  0.00P  
    08/11/2014 05:00 MST0.23P  0.77P  0.00P  
    08/11/2014 05:15 MST0.19P  0.74P  0.00P  
    08/11/2014 05:30 MST0.19P  0.74P  0.00P  
    08/11/2014 05:45 MST0.22P  0.76P  0.00P  
    08/11/2014 06:00 MST0.23P  0.77P  0.00P  
    08/11/2014 06:15 MST0.23P  0.77P  0.00P  
    08/11/2014 06:30 MST0.23P  0.77P  0.00P  
    08/11/2014 06:45 MST0.20P  0.75P  0.00P  
    08/11/2014 07:00 MST0.19P  0.74P  0.00P  
    08/11/2014 07:15 MST0.32P  0.83P  0.00P  
    08/11/2014 07:30 MST0.29P  0.81P  0.00P  
    08/11/2014 07:45 MST0.19P  0.74P  0.00P  
    08/11/2014 08:00 MST0.23P  0.77P  0.00P  
    08/11/2014 08:15 MST0.23P  0.77P  0.00P  
    08/11/2014 08:30 MST0.23P  0.77P  0.00P  
    08/11/2014 08:45 MST0.23P  0.77P  0.00P  
    08/11/2014 09:00 MST0.24P  0.78P  0.00P  
    08/11/2014 09:15 MST0.20P  0.75P  0.00P  
    08/11/2014 09:30 MST0.24P  0.78P  0.00P  
    08/11/2014 09:45 MST0.23P  0.77P  0.00P  
    08/11/2014 10:00 MST0.23P  0.77P  0.00P  
    08/11/2014 10:15 MST0.18P  0.73P  0.00P  
    08/11/2014 10:30 MST0.20P  0.75P  0.00P  
    08/11/2014 10:45 MST0.23P  0.77P  0.00P  
    08/11/2014 11:00 MST0.22P  0.76P  0.00P  
    08/11/2014 11:15 MST0.22P  0.76P  0.00P  
    08/11/2014 11:30 MST0.20P  0.75P  0.00P  
    08/11/2014 11:45 MST0.20P  0.75P  0.00P  
    08/11/2014 12:00 MST0.20P  0.75P  0.00P  
    08/11/2014 12:15 MST0.22P  0.76P  0.00P  
    08/11/2014 12:30 MST0.16P  0.71P  0.00P  
    08/11/2014 12:45 MST0.20P  0.75P  0.00P  
    08/11/2014 13:00 MST0.18P  0.73P  0.00P  
    08/11/2014 13:15 MST0.20P  0.75P  0.00P  
    08/11/2014 13:30 MST0.19P  0.74P  0.00P  
    08/11/2014 13:45 MST0.08P  0.62P  0.00P  
    08/11/2014 14:00 MST0.18P  0.73P  0.00P  
    08/11/2014 14:15 MST0.19P  0.74P  0.00P  
    08/11/2014 14:30 MST0.19P  0.74P  0.00P  
    08/11/2014 14:45 MST0.20P  0.75P  0.00P  
    08/11/2014 15:00 MST0.17P  0.72P  0.00P  
    08/11/2014 15:15 MST0.20P  0.75P  0.00P  
    08/11/2014 15:30 MST0.17P  0.72P  0.00P  
    08/11/2014 15:45 MST0.19P  0.74P  0.00P  
    08/11/2014 16:00 MST0.18P  0.73P  0.00P  
    08/11/2014 16:15 MST0.17P  0.72P  0.00P  
    08/11/2014 16:30 MST0.17P  0.72P  0.00P  
    08/11/2014 16:45 MST0.18P  0.73P  0.00P  
    08/11/2014 17:00 MST0.16P  0.71P  0.00P  
    08/11/2014 17:15 MST0.20P  0.75P  0.00P  
    08/11/2014 17:30 MST0.20P  0.75P  0.00P  
    08/11/2014 17:45 MST0.15P  0.70P  0.00P  
    08/11/2014 18:00 MST0.18P  0.73P  0.00P  
    08/11/2014 18:15 MST0.14P  0.69P  0.00P  
    08/11/2014 18:30 MST0.17P  0.72P  0.00P  
    08/11/2014 18:45 MST0.26P  0.79P  0.00P  
    08/11/2014 19:00 MST0.23P  0.77P  0.00P  
    08/11/2014 19:15 MST0.23P  0.77P  0.00P  
    08/11/2014 19:30 MST0.26P  0.79P  0.00P  
    08/11/2014 19:45 MST0.20P  0.75P  0.00P  
    08/11/2014 20:00 MST0.23P  0.77P  0.00P  
    08/11/2014 20:15 MST0.34P  0.84P  0.00P  
    08/11/2014 20:30 MST0.26P  0.79P  0.00P  
    08/11/2014 20:45 MST0.20P  0.75P  0.00P  
    08/11/2014 21:00 MST0.31P  0.82P  0.00P  
    08/11/2014 21:15 MST0.27P  0.80P  0.00P  
    08/11/2014 21:30 MST      0.00P  
    08/11/2014 21:45 MST0.23P  0.77P  0.00P  
    08/11/2014 22:00 MST0.22P  0.76P  0.00P  
    08/11/2014 22:15 MST0.29P  0.81P  0.00P  
    08/11/2014 22:30 MST0.24P  0.78P  0.00P  
    08/11/2014 22:45 MST0.31P  0.82P  0.00P  
    08/11/2014 23:00 MST0.18P  0.73P  0.00P  
    08/11/2014 23:15 MST0.24P  0.78P  0.00P  
    08/11/2014 23:30 MST0.27P  0.80P  0.00P  
    08/11/2014 23:45 MST0.31P  0.82P  0.00P  
    08/12/2014 00:00 MST0.24P  0.78P  0.00P  
    08/12/2014 00:15 MST0.29P  0.81P  0.00P  
    08/12/2014 00:30 MST0.31P  0.82P  0.00P  
    08/12/2014 00:45 MST0.20P  0.75P  0.00P  
    08/12/2014 01:00 MST0.36P  0.85P  0.00P  
    08/12/2014 01:15 MST0.31P  0.82P  0.00P  
    08/12/2014 01:30 MST0.23P  0.77P  0.00P  
    08/12/2014 01:45 MST0.17P  0.72P  0.00P  
    08/12/2014 02:00 MST0.36P  0.85P  0.00P  
    08/12/2014 02:15 MST0.19P  0.74P  0.00P  
    08/12/2014 02:30 MST0.19P  0.74P  0.00P  
    08/12/2014 02:45 MST0.38P  0.86P  0.00P  
    08/12/2014 03:00 MST0.23P  0.77P  0.00P  
    08/12/2014 03:15 MST0.19P  0.74P  0.00P  
    08/12/2014 03:30 MST0.32P  0.83P  0.00P  
    08/12/2014 03:45 MST0.44P  0.89P  0.00P  
    08/12/2014 04:00 MST0.34P  0.84P  0.00P  
    08/12/2014 04:15 MST0.31P  0.82P  0.00P  
    08/12/2014 04:30 MST0.31P  0.82P  0.00P  
    08/12/2014 04:45 MST0.24P  0.78P  0.00P  
    08/12/2014 05:00 MST0.22P  0.76P  0.00P  
    08/12/2014 05:15 MST0.20P  0.75P  0.00P  
    08/12/2014 05:30 MST0.24P  0.78P  0.00P  
    08/12/2014 05:45 MST0.31P  0.82P  0.00P  
    08/12/2014 06:00 MST0.31P  0.82P  0.00P  
    08/12/2014 06:15 MST0.29P  0.81P  0.00P  
    08/12/2014 06:30 MST0.26P  0.79P  0.00P  
    08/12/2014 06:45 MST0.26P  0.79P  0.00P  
    08/12/2014 07:00 MST0.22P  0.76P  0.00P  
    08/12/2014 07:15 MST0.31P  0.82P  0.00P  
    08/12/2014 07:30 MST0.27P  0.80P  0.00P  
    08/12/2014 07:45 MST0.36P  0.85P  0.00P  
    08/12/2014 08:00 MST0.27P  0.80P  0.00P  
    08/12/2014 08:15 MST0.26P  0.79P  0.00P  
    08/12/2014 08:30 MST0.34P  0.84P  0.00P  
    08/12/2014 08:45 MST0.29P  0.81P  0.00P  
    08/12/2014 09:00 MST0.32P  0.83P  0.00P  
    08/12/2014 09:15 MST0.32P  0.83P  0.00P  
    08/12/2014 09:30 MST0.22P  0.76P  0.00P  
    08/12/2014 09:45 MST0.27P  0.80P  0.00P  
    08/12/2014 10:00 MST0.32P  0.83P  0.00P  
    08/12/2014 10:15 MST0.27P  0.80P  0.00P  
    08/12/2014 10:30 MST0.23P  0.77P  0.00P  
    08/12/2014 10:45 MST0.22P  0.76P  0.00P  
    08/12/2014 11:00 MST0.31P  0.82P  0.00P  
    08/12/2014 11:15 MST0.27P  0.80P  0.00P  
    08/12/2014 11:30 MST0.24P  0.78P  0.00P  
    08/12/2014 11:45 MST0.32P  0.83P  0.00P  
    08/12/2014 12:00 MST0.32P  0.83P  0.00P  
    08/12/2014 12:15 MST0.38P  0.86P  0.00P  
    08/12/2014 12:30 MST0.38P  0.86P  0.00P  
    08/12/2014 12:45 MST0.22P  0.76P  0.00P  
    08/12/2014 13:00 MST0.31P  0.82P  0.00P  
    08/12/2014 13:15 MST0.26P  0.79P  0.00P  
    08/12/2014 13:30 MST0.26P  0.79P  0.00P  
    08/12/2014 13:45 MST0.47P  0.90P  0.28P  
    08/12/2014 14:00 MST0.34P  0.84P  0.00P  
    08/12/2014 14:15 MST0.34P  0.84P  0.00P  
    08/12/2014 14:30 MST0.34P  0.84P  0.01P  
    08/12/2014 14:45 MST0.31P  0.82P  0.00P  
    08/12/2014 15:00 MST0.26P  0.79P  0.00P  
    08/12/2014 15:15 MST0.26P  0.79P  0.00P  
    08/12/2014 15:30 MST0.38P  0.86P  0.00P  
    08/12/2014 15:45 MST0.27P  0.80P  0.00P  
    08/12/2014 16:00 MST0.34P  0.84P  0.00P  
    08/12/2014 16:15 MST0.26P  0.79P  0.00P  
    08/12/2014 16:30 MST0.29P  0.81P  0.00P  
    08/12/2014 16:45 MST0.38P  0.86P  0.00P  
    08/12/2014 17:00 MST0.23P  0.77P  0.00P  
    08/12/2014 17:15 MST0.26P  0.79P  0.00P  
    08/12/2014 17:30 MST0.23P  0.77P  0.00P  
    08/12/2014 17:45 MST0.29P  0.81P  0.01P  
    08/12/2014 18:00 MST0.23P  0.77P  0.02P  
    08/12/2014 18:15 MST0.29P  0.81P  0.01P  
    08/12/2014 18:30 MST0.32P  0.83P  0.00P  
    08/12/2014 18:45 MST0.34P  0.84P  0.00P  
    08/12/2014 19:00 MST0.29P  0.81P  0.00P  
    08/12/2014 19:15 MST0.24P  0.78P  0.00P  
    08/12/2014 19:30 MST0.32P  0.83P  0.01P  
    08/12/2014 19:45 MST0.31P  0.82P  0.00P  
    08/12/2014 20:00 MST0.36P  0.85P  0.00P  
    08/12/2014 20:15 MST0.40P  0.87P  0.00P  
    08/12/2014 20:30 MST0.26P  0.79P  0.00P  
    08/12/2014 20:45 MST0.32P  0.83P  0.01P  
    08/12/2014 21:00 MST0.29P  0.81P  0.01P  
    08/12/2014 21:15 MST0.31P  0.82P  0.02P  
    08/12/2014 21:30 MST0.29P  0.81P  0.00P  
    08/12/2014 21:45 MST0.27P  0.80P  0.00P  
    08/12/2014 22:00 MST0.36P  0.85P  0.01P  
    08/12/2014 22:15 MST0.23P  0.77P  0.00P  
    08/12/2014 22:30 MST0.27P  0.80P  0.00P  
    08/12/2014 22:45 MST0.26P  0.79P  0.00P  
    08/12/2014 23:00 MST0.24P  0.78P  0.00P  
    08/12/2014 23:15 MST0.44P  0.89P  0.00P  
    08/12/2014 23:30 MST0.24P  0.78P  0.00P  
    08/12/2014 23:45 MST0.31P  0.82P  0.00P  
    08/13/2014 00:00 MST0.31P  0.82P  0.00P  
    08/13/2014 00:15 MST0.31P  0.82P  0.00P  
    08/13/2014 00:30 MST0.31P  0.82P  0.00P  
    08/13/2014 00:45 MST0.31P  0.82P  0.00P  
    08/13/2014 01:00 MST0.44P  0.89P  0.00P  
    08/13/2014 01:15 MST0.32P  0.83P  0.00P  
    08/13/2014 01:30 MST0.27P  0.80P  0.00P  
    08/13/2014 01:45 MST0.36P  0.85P  0.00P  
    08/13/2014 02:00 MST0.26P  0.79P  0.00P  
    08/13/2014 02:15 MST0.31P  0.82P  0.00P  
    08/13/2014 02:30 MST0.36P  0.85P  0.00P  
    08/13/2014 02:45 MST0.42P  0.88P  0.00P  
    08/13/2014 03:00 MST0.31P  0.82P  0.00P  
    08/13/2014 03:15 MST0.27P  0.80P  0.00P  
    08/13/2014 03:30 MST0.38P  0.86P  0.00P  
    08/13/2014 03:45 MST0.32P  0.83P  0.00P  
    08/13/2014 04:00 MST0.26P  0.79P  0.00P  
    08/13/2014 04:15 MST0.29P  0.81P  0.00P  
    08/13/2014 04:30 MST0.34P  0.84P  0.00P  
    08/13/2014 04:45 MST0.29P  0.81P  0.00P  
    08/13/2014 05:00 MST0.24P  0.78P  0.00P  
    08/13/2014 05:15 MST0.24P  0.78P  0.00P  
    08/13/2014 05:30 MST0.24P  0.78P  0.00P  
    08/13/2014 05:45 MST0.24P  0.78P  0.00P  
    08/13/2014 06:00 MST0.24P  0.78P  0.00P  
    08/13/2014 06:15 MST0.26P  0.79P  0.00P  
    08/13/2014 06:30 MST0.24P  0.78P  0.00P  
    08/13/2014 06:45 MST0.26P  0.79P  0.00P  
    08/13/2014 07:00 MST0.27P  0.80P  0.00P  
    08/13/2014 07:15 MST0.27P  0.80P  0.00P  
    08/13/2014 07:30 MST0.24P  0.78P  0.00P  
    08/13/2014 07:45 MST0.26P  0.79P  0.00P  
    08/13/2014 08:00 MST0.26P  0.79P  0.00P  
    08/13/2014 08:15 MST0.27P  0.80P  0.00P  
    08/13/2014 08:30 MST0.27P  0.80P  0.00P  
    08/13/2014 08:45 MST0.27P  0.80P  0.00P  
    08/13/2014 09:00 MST0.26P  0.79P  0.00P  
    08/13/2014 09:15 MST0.26P  0.79P  0.00P  
    08/13/2014 09:30 MST0.26P  0.79P  0.00P  
    08/13/2014 09:45 MST0.26P  0.79P  0.00P  
    08/13/2014 10:00 MST0.26P  0.79P  0.00P  
    08/13/2014 10:15 MST0.26P  0.79P  0.00P  
    08/13/2014 10:30 MST0.24P  0.78P  0.00P  
    08/13/2014 10:45 MST0.26P  0.79P  0.00P  
    08/13/2014 11:00 MST0.24P  0.78P  0.00P  
    08/13/2014 11:15 MST0.24P  0.78P  0.00P  
    08/13/2014 11:30 MST0.26P  0.79P  0.00P  
    08/13/2014 11:45 MST0.24P  0.78P  0.00P  
    08/13/2014 12:00 MST0.24P  0.78P  0.00P  
    08/13/2014 12:15 MST0.24P  0.78P  0.00P  
    08/13/2014 12:30 MST0.26P  0.79P  0.00P  
    08/13/2014 12:45 MST0.24P  0.78P  0.00P  
    08/13/2014 13:00 MST0.24P  0.78P  0.00P  
    08/13/2014 13:15 MST0.24P  0.78P  0.00P  
    08/13/2014 13:30 MST0.24P  0.78P  0.00P  
    08/13/2014 13:45 MST0.24P  0.78P  0.00P  
    08/13/2014 14:00 MST0.22P  0.76P  0.00P  
    08/13/2014 14:15 MST0.23P  0.77P  0.00P  
    08/13/2014 14:30 MST0.23P  0.77P  0.00P  
    08/13/2014 14:45 MST0.22P  0.76P  0.00P  
    08/13/2014 15:00 MST0.23P  0.77P  0.00P  
    08/13/2014 15:15 MST0.22P  0.76P  0.00P  
    08/13/2014 15:30 MST0.22P  0.76P  0.00P  
    08/13/2014 15:45 MST0.22P  0.76P  0.00P  
    08/13/2014 16:00 MST0.23P  0.77P  0.00P  
    08/13/2014 16:15 MST0.22P  0.76P  0.00P  
    08/13/2014 16:30 MST0.20P  0.75P  0.00P  
    08/13/2014 16:45 MST0.22P  0.76P  0.00P  
    08/13/2014 17:00 MST0.20P  0.75P  0.00P  
    08/13/2014 17:15 MST0.20P  0.75P  0.01P  
    08/13/2014 17:30 MST0.31P  0.82P  0.34P  
    08/13/2014 17:45 MST0.42P  0.88P  0.21P  
    08/13/2014 18:00 MST8.6P  1.66P  0.03P  
    08/13/2014 18:15 MST21P  2.07P  0.10P  
    08/13/2014 18:30 MST20P  2.05P  0.74P  
    08/13/2014 18:45 MST278P  3.97P  0.43P  
    08/13/2014 19:00 MST463P  4.51P  0.64P  
    08/13/2014 19:15 MST994P  5.52P  0.55P  
    08/13/2014 19:30 MST541P  4.69P  0.03P  
    08/13/2014 19:45 MST415P  4.39P  0.00P  
    08/13/2014 20:00 MST298P  4.04P  0.00P  
    08/13/2014 20:15 MST254P  3.88P  0.00P  
    08/13/2014 20:30 MST219P  3.74P  0.00P  
    08/13/2014 20:45 MST180P  3.56P  0.00P  
    08/13/2014 21:00 MST159P  3.45P  0.00P  
    08/13/2014 21:15 MST138P  3.33P  0.00P  
    08/13/2014 21:30 MST116P  3.19P  0.00P  
    08/13/2014 21:45 MST101P  3.08P  0.00P  
    08/13/2014 22:00 MST90P  2.99P  0.00P  
    08/13/2014 22:15 MST89P  2.98P  0.00P  
    08/13/2014 22:30 MST70P  2.81P  0.00P  
    08/13/2014 22:45 MST64P  2.75P  0.00P  
    08/13/2014 23:00 MST61P  2.71P  0.00P  
    08/13/2014 23:15 MST54P  2.63P  0.00P  
    08/13/2014 23:30 MST49P  2.57P  0.01P  
    08/13/2014 23:45 MST46P  2.53P  0.00P  
    08/14/2014 00:00 MST34P  2.34P  0.00P  
    08/14/2014 00:15 MST29P  2.25P  0.00P  
    08/14/2014 00:30 MST25P  2.16P  0.00P  
    08/14/2014 00:45 MST22P  2.11P  0.00P  
    08/14/2014 01:00 MST21P  2.07P  0.00P  
    08/14/2014 01:15 MST19P  2.02P  0.00P  
    08/14/2014 01:30 MST15P  1.92P  0.00P  
    08/14/2014 01:45 MST15P  1.92P  0.00P  
    08/14/2014 02:00 MST13P  1.85P  0.00P  
    08/14/2014 02:15 MST12P  1.81P  0.00P  
    08/14/2014 02:30 MST11P  1.75P  0.00P  
    08/14/2014 02:45 MST9.9P  1.72P  0.00P  
    08/14/2014 03:00 MST8.8P  1.67P  0.00P  
    08/14/2014 03:15 MST8.2P  1.64P  0.00P  
    08/14/2014 03:30 MST7.4P  1.60P  0.00P  
    08/14/2014 03:45 MST6.7P  1.56P  0.00P  
    08/14/2014 04:00 MST6.7P  1.56P  0.00P  
    08/14/2014 04:15 MST5.7P  1.50P  0.00P  
    08/14/2014 04:30 MST5.1P  1.47P  0.00P  
    08/14/2014 04:45 MST4.7P  1.44P  0.00P  
    08/14/2014 05:00 MST4.4P  1.42P  0.00P  
    08/14/2014 05:15 MST4.2P  1.41P  0.00P  
    08/14/2014 05:30 MST3.7P  1.37P  0.00P  
    08/14/2014 05:45 MST3.4P  1.35P  0.00P  
    08/14/2014 06:00 MST3.7P  1.37P  0.00P  
    08/14/2014 06:15 MST3.4P  1.35P  0.00P  
    08/14/2014 06:30 MST3.2P  1.33P  0.00P  
    08/14/2014 06:45 MST3.0P  1.32P  0.00P  
    08/14/2014 07:00 MST2.9P  1.30P  0.00P  
    08/14/2014 07:15 MST2.9P  1.30P  0.00P  
    08/14/2014 07:30 MST2.5P  1.27P  0.00P  
    08/14/2014 07:45 MST2.5P  1.27P  0.00P  
    08/14/2014 08:00 MST2.4P  1.25P  0.00P  
    08/14/2014 08:15 MST2.4P  1.25P  0.00P  
    08/14/2014 08:30 MST2.3P  1.24P  0.00P  
    08/14/2014 08:45 MST2.2P  1.23P  0.00P  
    08/14/2014 09:00 MST1.7P  1.17P  0.00P  
    08/14/2014 09:15 MST1.8P  1.18P  0.00P  
    08/14/2014 09:30 MST1.7P  1.17P  0.00P  
    08/14/2014 09:45 MST1.6P  1.16P  0.00P  
    08/14/2014 10:00 MST1.5P  1.15P  0.00P  
    08/14/2014 10:15 MST1.5P  1.14P  0.00P  
    08/14/2014 10:30 MST1.5P  1.14P  0.00P  
    08/14/2014 10:45 MST1.4P  1.13P  0.00P  
    08/14/2014 11:00 MST1.4P  1.13P  0.00P  
    08/14/2014 11:15 MST1.3P  1.12P  0.00P  
    08/14/2014 11:30 MST1.3P  1.12P  0.00P  
    08/14/2014 11:45 MST1.3P  1.11P  0.00P  
    08/14/2014 12:00 MST1.2P  1.10P  0.00P  
    08/14/2014 12:15 MST1.3P  1.11P  0.00P  
    08/14/2014 12:30 MST1.2P  1.09P  0.00P  
    08/14/2014 12:45 MST1.0P  1.07P  0.00P  
    08/14/2014 13:00 MST1.1P  1.08P  0.00P  
    08/14/2014 13:15 MST1.1P  1.08P  0.00P  
    08/14/2014 13:30 MST1.0P  1.07P  0.00P  
    08/14/2014 13:45 MST1.0P  1.07P  0.00P  
    08/14/2014 14:00 MST0.97P  1.05P  0.00P  
    08/14/2014 14:15 MST0.97P  1.05P  0.00P  
    08/14/2014 14:30 MST0.97P  1.05P  0.00P  
    08/14/2014 14:45 MST0.93P  1.04P  0.00P  
    08/14/2014 15:00 MST0.89P  1.03P  0.00P  
    08/14/2014 15:15 MST0.93P  1.04P  0.00P  
    08/14/2014 15:30 MST0.82P  1.02P  0.00P  
    08/14/2014 15:45 MST0.82P  1.02P  0.00P  
    08/14/2014 16:00 MST0.78P  1.01P  0.00P  
    08/14/2014 16:15 MST0.78P  1.01P  0.00P  
    08/14/2014 16:30 MST0.78P  1.01P  0.00P  
    08/14/2014 16:45 MST0.78P  1.01P  0.00P  
    08/14/2014 17:00 MST0.78P  1.01P  0.00P  
    08/14/2014 17:15 MST0.75P  1.00P  0.00P  
    08/14/2014 17:30 MST0.75P  1.00P  0.00P  
    08/14/2014 17:45 MST0.71P  0.99P  0.00P  
    08/14/2014 18:00 MST0.65P  0.97P  0.00P  
    08/14/2014 18:15 MST0.78P  1.01P  0.00P  
    08/14/2014 18:30 MST0.78P  1.01P  0.00P  
    08/14/2014 18:45 MST0.75P  1.00P  0.00P  
    08/14/2014 19:00 MST0.78P  1.01P  0.00P  
    08/14/2014 19:15 MST0.75P  1.00P  0.00P  
    08/14/2014 19:30 MST0.71P  0.99P  0.00P  
    08/14/2014 19:45 MST0.75P  1.00P  0.00P  
    08/14/2014 20:00 MST0.71P  0.99P  0.00P  
    08/14/2014 20:15 MST0.75P  1.00P  0.00P  
    08/14/2014 20:30 MST0.71P  0.99P  0.00P  
    08/14/2014 20:45 MST0.71P  0.99P  0.00P  
    08/14/2014 21:00 MST0.68P  0.98P  0.00P  
    08/14/2014 21:15 MST0.65P  0.97P  0.00P  
    08/14/2014 21:30 MST0.68P  0.98P  0.00P  
    08/14/2014 21:45 MST0.82P  1.02P  0.00P  
    08/14/2014 22:00 MST0.97P  1.05P  0.00P  
    08/14/2014 22:15 MST1.1P  1.08P  0.00P  
    08/14/2014 22:30 MST1.1P  1.08P  0.00P  
    08/14/2014 22:45 MST0.97P  1.05P  0.00P  
    08/14/2014 23:00 MST0.97P  1.05P  0.00P  
    08/14/2014 23:15 MST0.97P  1.05P  0.00P  
    08/14/2014 23:30 MST0.97P  1.05P  0.00P  
    08/14/2014 23:45 MST1.0P  1.06P  0.00P  
    08/15/2014 00:00 MST1.0P  1.07P  0.00P  
    08/15/2014 00:15 MST0.93P  1.04P  0.00P  
    08/15/2014 00:30 MST1.0P  1.06P  0.00P  
    08/15/2014 00:45 MST0.93P  1.04P  0.00P  
    08/15/2014 01:00 MST0.93P  1.04P  0.00P  
    08/15/2014 01:15 MST1.0P  1.06P  0.00P  
    08/15/2014 01:30 MST0.97P  1.05P  0.00P  
    08/15/2014 01:45 MST0.93P  1.04P  0.00P  
    08/15/2014 02:00 MST0.97P  1.05P  0.00P  
    08/15/2014 02:15 MST1.0P  1.06P  0.00P  
    08/15/2014 02:30 MST0.82P  1.02P  0.00P  
    08/15/2014 02:45 MST0.78P  1.01P  0.00P  
    08/15/2014 03:00 MST0.75P  1.00P  0.00P  
    08/15/2014 03:15 MST0.97P  1.05P  0.00P  
    08/15/2014 03:30 MST0.78P  1.01P  0.00P  
    08/15/2014 03:45 MST0.89P  1.03P  0.00P  
    08/15/2014 04:00 MST0.78P  1.01P  0.00P  
    08/15/2014 04:15 MST0.68P  0.98P  0.00P  
    08/15/2014 04:30 MST0.93P  1.04P  0.00P  
    08/15/2014 04:45 MST0.89P  1.03P  0.00P  
    08/15/2014 05:00 MST0.75P  1.00P  0.00P  
    08/15/2014 05:15 MST0.57P  0.94P  0.00P  
    08/15/2014 05:30 MST0.62P  0.96P  0.00P  
    08/15/2014 05:45 MST0.54P  0.93P  0.00P  
    08/15/2014 06:00 MST0.57P  0.94P  0.00P  
    08/15/2014 06:15 MST0.59P  0.95P  0.00P  
    08/15/2014 06:30 MST0.62P  0.96P  0.00P  
    08/15/2014 06:45 MST0.62P  0.96P  0.00P  
    08/15/2014 07:00 MST0.59P  0.95P  0.00P  
    08/15/2014 07:15 MST0.54P  0.93P  0.00P  
    08/15/2014 07:30 MST0.59P  0.95P  0.00P  
    08/15/2014 07:45 MST0.52P  0.92P  0.00P  
    08/15/2014 08:00 MST0.57P  0.94P  0.00P  
    08/15/2014 08:15 MST0.62P  0.96P  0.00P  
    08/15/2014 08:30 MST0.54P  0.93P  0.00P  
    08/15/2014 08:45 MST0.59P  0.95P  0.00P  
    08/15/2014 09:00 MST0.65P  0.97P  0.00P  
    08/15/2014 09:15 MST0.65P  0.97P  0.00P  
    08/15/2014 09:30 MST0.62P  0.96P  0.00P  
    08/15/2014 09:45 MST0.59P  0.95P  0.00P  
    08/15/2014 10:00 MST0.62P  0.96P  0.00P  
    08/15/2014 10:15 MST0.59P  0.95P  0.00P  
    08/15/2014 10:30 MST0.59P  0.95P  0.00P  
    08/15/2014 10:45 MST0.59P  0.95P  0.00P  
    08/15/2014 11:00 MST0.65P  0.97P  0.00P  
    08/15/2014 11:15 MST0.65P  0.97P  0.00P  
    08/15/2014 11:30 MST0.65P  0.97P  0.00P  
    08/15/2014 11:45 MST0.52P  0.92P  0.00P  
    08/15/2014 12:00 MST0.65P  0.97P  0.00P  
    08/15/2014 12:15 MST0.59P  0.95P  0.00P  
    08/15/2014 12:30 MST0.62P  0.96P  0.00P  
    08/15/2014 12:45 MST0.62P  0.96P  0.00P  
    08/15/2014 13:00 MST0.49P  0.91P  0.00P  
    08/15/2014 13:15 MST0.49P  0.91P  0.00P  
    08/15/2014 13:30 MST0.57P  0.94P  0.00P  
    08/15/2014 13:45 MST0.57P  0.94P  0.00P  
    08/15/2014 14:00 MST0.49P  0.91P  0.00P  
    08/15/2014 14:15 MST0.54P  0.93P  0.00P  
    08/15/2014 14:30 MST0.62P  0.96P  0.00P  
    08/15/2014 14:45 MST0.49P  0.91P  0.00P  
    08/15/2014 15:00 MST0.57P  0.94P  0.00P  
    08/15/2014 15:15 MST0.44P  0.89P  0.00P  
    08/15/2014 15:30 MST0.44P  0.89P  0.00P  
    08/15/2014 15:45 MST0.75P  1.00P  0.00P  
    08/15/2014 16:00 MST0.42P  0.88P  0.00P  
    08/15/2014 16:15 MST0.42P  0.88P  0.00P  
    08/15/2014 16:30 MST0.44P  0.89P  0.00P  
    08/15/2014 16:45 MST0.44P  0.89P  0.00P  
    08/15/2014 17:00 MST0.49P  0.91P  0.00P  
    08/15/2014 17:15 MST0.44P  0.89P  0.00P  
    08/15/2014 17:30 MST0.44P  0.89P  0.00P  
    08/15/2014 17:45 MST0.47P  0.90P  0.00P  
    08/15/2014 18:00 MST0.42P  0.88P  0.00P  
    08/15/2014 18:15 MST0.49P  0.91P  0.00P  
    08/15/2014 18:30 MST0.44P  0.89P  0.00P  
    08/15/2014 18:45 MST0.57P  0.94P  0.00P  
    08/15/2014 19:00 MST0.44P  0.89P  0.00P  
    08/15/2014 19:15 MST0.52P  0.92P  0.00P  
    08/15/2014 19:30 MST0.47P  0.90P  0.00P  
    08/15/2014 19:45 MST0.47P  0.90P  0.00P  
    08/15/2014 20:00 MST0.44P  0.89P  0.00P  
    08/15/2014 20:15 MST0.42P  0.88P  0.00P  
    08/15/2014 20:30 MST0.52P  0.92P  0.00P  
    08/15/2014 20:45 MST0.47P  0.90P  0.00P  
    08/15/2014 21:00 MST0.52P  0.92P  0.00P  
    08/15/2014 21:15 MST0.49P  0.91P  0.00P  
    08/15/2014 21:30 MST0.49P  0.91P  0.00P  
    08/15/2014 21:45 MST0.52P  0.92P  0.00P  
    08/15/2014 22:00 MST0.57P  0.94P  0.00P  
    08/15/2014 22:15 MST0.57P  0.94P  0.00P  
    08/15/2014 22:30 MST0.57P  0.94P  0.00P  
    08/15/2014 22:45 MST0.59P  0.95P  0.00P  
    08/15/2014 23:00 MST0.52P  0.92P  0.00P  
    08/15/2014 23:15 MST0.62P  0.96P  0.00P  
    08/15/2014 23:30 MST0.57P  0.94P  0.00P  
    08/15/2014 23:45 MST0.62P  0.96P  0.00P  
    08/16/2014 00:00 MST0.54P  0.93P  0.00P  
    08/16/2014 00:15 MST0.49P  0.91P  0.00P  
    08/16/2014 00:30 MST0.62P  0.96P  0.00P  
    08/16/2014 00:45 MST0.97P  1.05P  0.00P  
    08/16/2014 01:00 MST0.54P  0.93P  0.00P  
    08/16/2014 01:15 MST0.71P  0.99P  0.00P  
    08/16/2014 01:30 MST0.68P  0.98P  0.00P  
    08/16/2014 01:45 MST0.97P  1.05P  0.00P  
    08/16/2014 02:00 MST0.52P  0.92P  0.00P  
    08/16/2014 02:15 MST0.89P  1.03P  0.00P  
    08/16/2014 02:30 MST0.82P  1.02P  0.00P  
    08/16/2014 02:45 MST0.75P  1.00P  0.00P  
    08/16/2014 03:00 MST0.89P  1.03P  0.00P  
    08/16/2014 03:15 MST0.97P  1.05P  0.00P  
    08/16/2014 03:30 MST0.49P  0.91P  0.00P  
    08/16/2014 03:45 MST0.68P  0.98P  0.00P  
    08/16/2014 04:00 MST0.62P  0.96P  0.00P  
    08/16/2014 04:15 MST0.75P  1.00P  0.00P  
    08/16/2014 04:30 MST0.57P  0.94P  0.00P  
    08/16/2014 04:45 MST0.65P  0.97P  0.00P  
    08/16/2014 05:00 MST0.57P  0.94P  0.00P  
    08/16/2014 05:15 MST0.44P  0.89P  0.00P  
    08/16/2014 05:30 MST0.44P  0.89P  0.00P  
    08/16/2014 05:45 MST0.42P  0.88P  0.00P  
    08/16/2014 06:00 MST0.44P  0.89P  0.00P  
    08/16/2014 06:15 MST0.36P  0.85P  0.00P  
    08/16/2014 06:30 MST0.36P  0.85P  0.00P  
    08/16/2014 06:45 MST0.54P  0.93P  0.00P  
    08/16/2014 07:00 MST0.44P  0.89P  0.00P  
    08/16/2014 07:15 MST0.44P  0.89P  0.00P  
    08/16/2014 07:30 MST0.38P  0.86P  0.00P  
    08/16/2014 07:45 MST0.40P  0.87P  0.00P  
    08/16/2014 08:00 MST0.40P  0.87P  0.00P  
    08/16/2014 08:15 MST0.44P  0.89P  0.00P  
    08/16/2014 08:30 MST0.47P  0.90P  0.00P  
    08/16/2014 08:45 MST0.42P  0.88P  0.00P  
    08/16/2014 09:00 MST0.42P  0.88P  0.00P  
    08/16/2014 09:15 MST0.44P  0.89P  0.00P  
    08/16/2014 09:30 MST0.44P  0.89P  0.00P  
    08/16/2014 09:45 MST0.42P  0.88P  0.00P  
    08/16/2014 10:00 MST0.38P  0.86P  0.00P  
    08/16/2014 10:15 MST0.42P  0.88P  0.00P  
    08/16/2014 10:30 MST0.49P  0.91P  0.00P  
    08/16/2014 10:45 MST0.44P  0.89P  0.00P  
    08/16/2014 11:00 MST0.44P  0.89P  0.00P  
    08/16/2014 11:15 MST0.42P  0.88P  0.00P  
    08/16/2014 11:30 MST0.47P  0.90P  0.00P  
    08/16/2014 11:45 MST0.44P  0.89P  0.00P  
    08/16/2014 12:00 MST0.44P  0.89P  0.00P  
    08/16/2014 12:15 MST0.42P  0.88P  0.00P  
    08/16/2014 12:30 MST0.40P  0.87P  0.00P  
    08/16/2014 12:45 MST0.42P  0.88P  0.00P  
    08/16/2014 13:00 MST0.40P  0.87P  0.00P  
    08/16/2014 13:15 MST0.42P  0.88P  0.00P  
    08/16/2014 13:30 MST0.40P  0.87P  0.00P  
    08/16/2014 13:45 MST0.36P  0.85P  0.00P  
    08/16/2014 14:00 MST0.38P  0.86P  0.00P  
    08/16/2014 14:15 MST0.40P  0.87P  0.00P  
    08/16/2014 14:30 MST0.36P  0.85P  0.00P  
    08/16/2014 14:45 MST0.38P  0.86P  0.00P  
    08/16/2014 15:00 MST0.42P  0.88P  0.00P  
    08/16/2014 15:15 MST0.38P  0.86P  0.00P  
    08/16/2014 15:30 MST0.40P  0.87P  0.00P  
    08/16/2014 15:45 MST0.38P  0.86P  0.00P  
    08/16/2014 16:00 MST0.40P  0.87P  0.00P  
    08/16/2014 16:15 MST0.38P  0.86P  0.00P  
    08/16/2014 16:30 MST0.36P  0.85P  0.00P  
    08/16/2014 16:45 MST0.38P  0.86P  0.00P  
    08/16/2014 17:00 MST0.20P  0.75P  0.00P  
    08/16/2014 17:15 MST0.57P  0.94P  0.00P  
    08/16/2014 17:30 MST0.54P  0.93P  0.00P  
    08/16/2014 17:45 MST0.59P  0.95P  0.00P  
    08/16/2014 18:00 MST0.47P  0.90P  0.00P  
    08/16/2014 18:15 MST0.47P  0.90P  0.00P  
    08/16/2014 18:30 MST0.47P  0.90P  0.00P  
    08/16/2014 18:45 MST0.47P  0.90P  0.00P  
    08/16/2014 19:00 MST0.49P  0.91P  0.00P  
    08/16/2014 19:15 MST0.47P  0.90P  0.00P  
    08/16/2014 19:30 MST0.47P  0.90P  0.00P  
    08/16/2014 19:45 MST0.47P  0.90P  0.00P  
    08/16/2014 20:00 MST0.47P  0.90P  0.02P  
    08/16/2014 20:15 MST0.49P  0.91P  0.01P  
    08/16/2014 20:30 MST0.47P  0.90P  0.00P  
    08/16/2014 20:45 MST0.49P  0.91P  0.02P  
    08/16/2014 21:00 MST0.52P  0.92P  0.05P  
    08/16/2014 21:15 MST0.49P  0.91P  0.00P  
    08/16/2014 21:30 MST0.49P  0.91P  0.00P  
    08/16/2014 21:45 MST0.52P  0.92P  0.00P  
    08/16/2014 22:00 MST0.52P  0.92P  0.01P  
    08/16/2014 22:15 MST0.49P  0.91P  0.00P  
    08/16/2014 22:30 MST0.52P  0.92P  0.00P  
    08/16/2014 22:45 MST0.52P  0.92P  0.03P  
    08/16/2014 23:00 MST0.54P  0.93P  0.03P  
    08/16/2014 23:15 MST0.57P  0.94P  0.02P  
    08/16/2014 23:30 MST0.57P  0.94P  0.00P  
    08/16/2014 23:45 MST0.52P  0.92P  0.00P  
    08/17/2014 00:00 MST0.52P  0.92P  0.00P  
    08/17/2014 00:15 MST0.52P  0.92P  0.00P  
    08/17/2014 00:30 MST0.54P  0.93P  0.00P  
    08/17/2014 00:45 MST0.54P  0.93P  0.00P  
    08/17/2014 01:00 MST0.52P  0.92P  0.00P  
    08/17/2014 01:15 MST0.54P  0.93P  0.00P  
    08/17/2014 01:30 MST0.54P  0.93P  0.00P  
    08/17/2014 01:45 MST0.57P  0.94P  0.00P  
    08/17/2014 02:00 MST0.52P  0.92P  0.00P  
    08/17/2014 02:15 MST0.52P  0.92P  0.00P  
    08/17/2014 02:30 MST0.52P  0.92P  0.00P  
    08/17/2014 02:45 MST0.49P  0.91P  0.00P  
    08/17/2014 03:00 MST0.49P  0.91P  0.00P  
    08/17/2014 03:15 MST0.54P  0.93P  0.00P  
    08/17/2014 03:30 MST0.75P  1.00P  0.00P  
    08/17/2014 03:45 MST0.57P  0.94P  0.00P  
    08/17/2014 04:00 MST0.54P  0.93P  0.00P  
    08/17/2014 04:15 MST0.57P  0.94P  0.00P  
    08/17/2014 04:30 MST0.54P  0.93P  0.00P  
    08/17/2014 04:45 MST0.65P  0.97P  0.00P  
    08/17/2014 05:00 MST0.68P  0.98P  0.00P  
    08/17/2014 05:15 MST0.42P  0.88P  0.00P  
    08/17/2014 05:30 MST0.42P  0.88P  0.00P  
    08/17/2014 05:45 MST0.44P  0.89P  0.00P  
    08/17/2014 06:00 MST0.42P  0.88P  0.00P  
    08/17/2014 06:15 MST0.42P  0.88P  0.00P  
    08/17/2014 06:30 MST0.44P  0.89P  0.00P  
    08/17/2014 06:45 MST0.42P  0.88P  0.00P  
    08/17/2014 07:00 MST0.42P  0.88P  0.00P  
    08/17/2014 07:15 MST0.42P  0.88P  0.00P  
    08/17/2014 07:30 MST0.44P  0.89P  0.00P  
    08/17/2014 07:45 MST0.44P  0.89P  0.00P  
    08/17/2014 08:00 MST0.44P  0.89P  0.00P  
    08/17/2014 08:15 MST0.42P  0.88P  0.00P  
    08/17/2014 08:30 MST0.44P  0.89P  0.00P  
    08/17/2014 08:45 MST0.42P  0.88P  0.00P  
    08/17/2014 09:00 MST0.44P  0.89P  0.00P  
    08/17/2014 09:15 MST0.42P  0.88P  0.00P  
    08/17/2014 09:30 MST0.44P  0.89P  0.00P  
    08/17/2014 09:45 MST0.44P  0.89P  0.00P  
    08/17/2014 10:00 MST0.42P  0.88P  0.00P  
    08/17/2014 10:15 MST0.42P  0.88P  0.00P  
    08/17/2014 10:30 MST0.42P  0.88P  0.00P  
    08/17/2014 10:45 MST0.42P  0.88P  0.00P  
    08/17/2014 11:00 MST0.42P  0.88P  0.00P  
    08/17/2014 11:15 MST0.42P  0.88P  0.00P  
    08/17/2014 11:30 MST0.40P  0.87P  0.00P  
    08/17/2014 11:45 MST0.40P  0.87P  0.00P  
    08/17/2014 12:00 MST0.42P  0.88P  0.00P  
    08/17/2014 12:15 MST0.38P  0.86P  0.00P  
    08/17/2014 12:30 MST0.42P  0.88P  0.00P  
    08/17/2014 12:45 MST0.38P  0.86P  0.00P  
    08/17/2014 13:00 MST0.40P  0.87P  0.00P  
    08/17/2014 13:15 MST0.40P  0.87P  0.00P  
    08/17/2014 13:30 MST0.38P  0.86P  0.00P  
    08/17/2014 13:45 MST0.36P  0.85P  0.00P  
    08/17/2014 14:00 MST0.40P  0.87P  0.00P  
    08/17/2014 14:15 MST0.40P  0.87P  0.00P  
    08/17/2014 14:30 MST0.38P  0.86P  0.00P  
    08/17/2014 14:45 MST0.38P  0.86P  0.00P  
    08/17/2014 15:00 MST0.38P  0.86P  0.00P  
    08/17/2014 15:15 MST0.38P  0.86P  0.00P  
    08/17/2014 15:30 MST0.38P  0.86P  0.00P  
    08/17/2014 15:45 MST0.38P  0.86P  0.00P  
    08/17/2014 16:00 MST0.36P  0.85P  0.00P  
    08/17/2014 16:15 MST0.36P  0.85P  0.00P  
    08/17/2014 16:30 MST0.38P  0.86P  0.00P  
    08/17/2014 16:45 MST0.38P  0.86P  0.00P  
    08/17/2014 17:00 MST0.38P  0.86P  0.00P  
    08/17/2014 17:15 MST0.36P  0.85P  0.00P  
    08/17/2014 17:30 MST0.36P  0.85P  0.00P  
    08/17/2014 17:45 MST0.36P  0.85P  0.00P  
    08/17/2014 18:00 MST0.38P  0.86P  0.00P  
    08/17/2014 18:15 MST0.38P  0.86P  0.00P  
    08/17/2014 18:30 MST0.38P  0.86P  0.00P  
    08/17/2014 18:45 MST0.38P  0.86P  0.00P  
    08/17/2014 19:00 MST0.57P  0.94P  0.00P  
    08/17/2014 19:15 MST0.57P  0.94P  0.00P  
    08/17/2014 19:30 MST1.0P  1.07P  0.45P  
    08/17/2014 19:45 MST1.5P  1.15P  0.20P  
    08/17/2014 20:00 MST84P  2.94P  0.04P  
    08/17/2014 20:15 MST72P  2.83P  0.00P  
    08/17/2014 20:30 MST45P  2.51P  0.02P  
    08/17/2014 20:45 MST28P  2.24P  0.02P  
    08/17/2014 21:00 MST20P  2.06P  0.03P  
    08/17/2014 21:15 MST19P  2.02P  0.03P  
    08/17/2014 21:30 MST22P  2.11P  0.00P  
    08/17/2014 21:45 MST21P  2.07P  0.00P  
    08/17/2014 22:00 MST16P  1.95P  0.00P  
    08/17/2014 22:15 MST12P  1.81P  0.00P  
    08/17/2014 22:30 MST9.4P  1.70P  0.00P  
    08/17/2014 22:45 MST7.8P  1.62P  0.00P  
    08/17/2014 23:00 MST7.6P  1.61P  0.00P  
    08/17/2014 23:15 MST8.4P  1.65P  0.00P  
    08/17/2014 23:30 MST7.2P  1.59P  0.00P  
    08/17/2014 23:45 MST7.4P  1.60P  0.00P  
    08/18/2014 00:00 MST6.7P  1.56P  0.00P  
    08/18/2014 00:15 MST6.9P  1.57P  0.00P  
    08/18/2014 00:30 MST5.0P  1.46P  0.00P  
    08/18/2014 00:45 MST5.6P  1.49P  0.00P  
    08/18/2014 01:00 MST4.2P  1.41P  0.00P  
    08/18/2014 01:15 MST3.5P  1.36P  0.00P  
    08/18/2014 01:30 MST3.0P  1.31P  0.00P  
    08/18/2014 01:45 MST2.9P  1.30P  0.00P  
    08/18/2014 02:00 MST2.5P  1.27P  0.00P  
    08/18/2014 02:15 MST2.4P  1.25P  0.00P  
    08/18/2014 02:30 MST2.2P  1.23P  0.00P  
    08/18/2014 02:45 MST2.0P  1.21P  0.00P  
    08/18/2014 03:00 MST1.9P  1.19P  0.00P  
    08/18/2014 03:15 MST1.6P  1.16P  0.00P  
    08/18/2014 03:30 MST1.5P  1.15P  0.00P  
    08/18/2014 03:45 MST1.5P  1.14P  0.00P  
    08/18/2014 04:00 MST1.3P  1.11P  0.00P  
    08/18/2014 04:15 MST1.2P  1.10P  0.00P  
    08/18/2014 04:30 MST2.3P  1.24P  0.00P  
    08/18/2014 04:45 MST1.3P  1.11P  0.00P  
    08/18/2014 05:00 MST1.5P  1.14P  0.00P  
    08/18/2014 05:15 MST0.93P  1.04P  0.00P  
    08/18/2014 05:30 MST0.89P  1.03P  0.00P  
    08/18/2014 05:45 MST0.89P  1.03P  0.00P  
    08/18/2014 06:00 MST0.82P  1.02P  0.00P  
    08/18/2014 06:15 MST1.0P  1.06P  0.00P  
    08/18/2014 06:30 MST0.89P  1.03P  0.00P  
    08/18/2014 06:45 MST0.82P  1.02P  0.00P  
    08/18/2014 07:00 MST0.97P  1.05P  0.00P  
    08/18/2014 07:15 MST1.0P  1.06P  0.00P  
    08/18/2014 07:30 MST1.0P  1.06P  0.00P  
    08/18/2014 07:45 MST0.93P  1.04P  0.00P  
    08/18/2014 08:00 MST0.75P  1.00P  0.00P  
    08/18/2014 08:15 MST0.89P  1.03P  0.00P  
    08/18/2014 08:30 MST0.93P  1.04P  0.00P  
    08/18/2014 08:45 MST0.97P  1.05P  0.00P  
    08/18/2014 09:00 MST1.2P  1.09P  0.00P  
    08/18/2014 09:15 MST1.2P  1.10P  0.00P  
    08/18/2014 09:30 MST0.89P  1.03P  0.00P  
    08/18/2014 09:45 MST0.75P  1.00P  0.00P  
    08/18/2014 10:00 MST0.78P  1.01P  0.00P  
    08/18/2014 10:15 MST0.78P  1.01P  0.00P  
    08/18/2014 10:30 MST1.1P  1.08P  0.00P  
    08/18/2014 10:45 MST0.68P  0.98P  0.00P  
    08/18/2014 11:00 MST0.65P  0.97P  0.00P  
    08/18/2014 11:15 MST0.68P  0.98P  0.00P  
    08/18/2014 11:30 MST0.57P  0.94P  0.00P  
    08/18/2014 11:45 MST0.68P  0.98P  0.00P  
    08/18/2014 12:00 MST0.62P  0.96P  0.00P  
    08/18/2014 12:15 MST0.62P  0.96P  0.00P  
    08/18/2014 12:30 MST0.71P  0.99P  0.00P  
    08/18/2014 12:45 MST0.62P  0.96P  0.00P  
    08/18/2014 13:00 MST0.52P  0.92P  0.00P  
    08/18/2014 13:15 MST0.78P  1.01P  0.00P  
    08/18/2014 13:30 MST0.54P  0.93P  0.00P  
    08/18/2014 13:45 MST0.47P  0.90P  0.00P  
    08/18/2014 14:00 MST0.57P  0.94P  0.00P  
    08/18/2014 14:15 MST0.52P  0.92P  0.00P  
    08/18/2014 14:30 MST0.65P  0.97P  0.00P  
    08/18/2014 14:45 MST0.44P  0.89P  0.00P  
    08/18/2014 15:00 MST0.54P  0.93P  0.00P  
    08/18/2014 15:15 MST0.49P  0.91P  0.00P  
    08/18/2014 15:30 MST0.47P  0.90P  0.00P  
    08/18/2014 15:45 MST0.42P  0.88P  0.00P  
    08/18/2014 16:00 MST0.47P  0.90P  0.00P  
    08/18/2014 16:15 MST0.52P  0.92P  0.00P  
    08/18/2014 16:30 MST0.44P  0.89P  0.00P  
    08/18/2014 16:45 MST0.42P  0.88P  0.00P  
    08/18/2014 17:00 MST0.47P  0.90P  0.00P  
    08/18/2014 17:15 MST0.52P  0.92P  0.08P  
    08/18/2014 17:30 MST0.59P  0.95P  0.19P  
    08/18/2014 17:45 MST210P  3.70P  0.01P  
    08/18/2014 18:00 MST203P  3.67P  0.01P  
    08/18/2014 18:15 MST550P  4.71P  0.00P  
    08/18/2014 18:30 MST574P  4.76P  0.00P  
    08/18/2014 18:45 MST527P  4.66P  0.00P  
    08/18/2014 19:00 MST475P  4.54P  0.01P  
    08/18/2014 19:15 MST427P  4.42P  0.00P  
    08/18/2014 19:30 MST397P  4.34P  0.00P  
    08/18/2014 19:45 MST304P  4.06P  0.01P  
    08/18/2014 20:00 MST256P  3.89P  0.01P  
    08/18/2014 20:15 MST215P  3.72P  0.05P  
    08/18/2014 20:30 MST180P  3.56P  0.02P  
    08/18/2014 20:45 MST170P  3.51P  0.02P  
    08/18/2014 21:00 MST155P  3.43P  0.05P  
    08/18/2014 21:15 MST127P  3.26P  0.02P  
    08/18/2014 21:30 MST122P  3.23P  0.02P  
    08/18/2014 21:45 MST96P  3.04P  0.03P  
    08/18/2014 22:00 MST85P  2.95P  0.02P  
    08/18/2014 22:15 MST70P  2.81P  0.01P  
    08/18/2014 22:30 MST62P  2.73P  0.01P  
    08/18/2014 22:45 MST51P  2.59P  0.00P  
    08/18/2014 23:00 MST44P  2.50P  0.00P  
    08/18/2014 23:15 MST39P  2.43P  0.00P  
    08/18/2014 23:30 MST34P  2.35P  0.00P  
    08/18/2014 23:45 MST33P  2.32P  0.00P  
    08/19/2014 00:00 MST30P  2.28P  0.00P  
    08/19/2014 00:15 MST25P  2.16P  0.00P  
    08/19/2014 00:30 MST22P  2.10P  0.00P  
    08/19/2014 00:45 MST22P  2.10P  0.00P  
    08/19/2014 01:00 MST20P  2.04P  0.00P  
    08/19/2014 01:15 MST17P  1.97P  0.00P  
    08/19/2014 01:30 MST16P  1.93P  0.00P  
    08/19/2014 01:45 MST13P  1.85P  0.00P  
    08/19/2014 02:00 MST13P  1.83P  0.00P  
    08/19/2014 02:15 MST11P  1.78P  0.00P  
    08/19/2014 02:30 MST11P  1.75P  0.00P  
    08/19/2014 02:45 MST10P  1.73P  0.00P  
    08/19/2014 03:00 MST9.9P  1.72P  0.00P  
    08/19/2014 03:15 MST8.4P  1.65P  0.00P  
    08/19/2014 03:30 MST8.6P  1.66P  0.00P  
    08/19/2014 03:45 MST8.8P  1.67P  0.00P  
    08/19/2014 04:00 MST7.4P  1.60P  0.00P  
    08/19/2014 04:15 MST7.4P  1.60P  0.00P  
    08/19/2014 04:30 MST6.5P  1.55P  0.00P  
    08/19/2014 04:45 MST7.1P  1.58P  0.00P  
    08/19/2014 05:00 MST5.9P  1.51P  0.00P  
    08/19/2014 05:15 MST5.7P  1.50P  0.00P  
    08/19/2014 05:30 MST4.4P  1.42P  0.00P  
    08/19/2014 05:45 MST4.2P  1.41P  0.00P  
    08/19/2014 06:00 MST4.9P  1.45P  0.00P  
    08/19/2014 06:15 MST3.4P  1.35P  0.00P  
    08/19/2014 06:30 MST4.0P  1.39P  0.00P  
    08/19/2014 06:45 MST4.4P  1.42P  0.00P  
    08/19/2014 07:00 MST3.9P  1.38P  0.00P  
    08/19/2014 07:15 MST3.2P  1.33P  0.00P  
    08/19/2014 07:30 MST4.1P  1.40P  0.00P  
    08/19/2014 07:45 MST3.0P  1.32P  0.00P  
    08/19/2014 08:00 MST3.5P  1.36P  0.00P  
    08/19/2014 08:15 MST3.2P  1.33P  0.00P  
    08/19/2014 08:30 MST3.0P  1.31P  0.00P  
    08/19/2014 08:45 MST2.5P  1.27P  0.00P  
    08/19/2014 09:00 MST2.9P  1.30P  0.00P  
    08/19/2014 09:15 MST2.8P  1.29P  0.00P  
    08/19/2014 09:30 MST3.0P  1.31P  0.00P  
    08/19/2014 09:45 MST3.0P  1.32P  0.00P  
    08/19/2014 10:00 MST2.7P  1.28P  0.00P  
    08/19/2014 10:15 MST3.0P  1.31P  0.00P  
    08/19/2014 10:30 MST2.7P  1.28P  0.00P  
    08/19/2014 10:45 MST287P  4.00P  0.00P  
    08/19/2014 11:00 MST313P  4.09P  0.00P  
    08/19/2014 11:15 MST332P  4.15P  0.00P  
    08/19/2014 11:30 MST338P  4.17P  0.00P  
    08/19/2014 11:45 MST338P  4.17P  0.00P  
    08/19/2014 12:00 MST319P  4.11P  0.00P  
    08/19/2014 12:15 MST313P  4.09P  0.00P  
    08/19/2014 12:30 MST287P  4.00P  0.00P  
    08/19/2014 12:45 MST273P  3.95P  0.00P  
    08/19/2014 13:00 MST264P  3.92P  0.00P  
    08/19/2014 13:15 MST246P  3.85P  0.00P  
    08/19/2014 13:30 MST239P  3.82P  0.00P  
    08/19/2014 13:45 MST224P  3.76P  0.00P  
    08/19/2014 14:00 MST212P  3.71P  0.00P  
    08/19/2014 14:15 MST210P  3.70P  0.00P  
    08/19/2014 14:30 MST193P  3.62P  0.00P  
    08/19/2014 14:45 MST186P  3.59P  0.01P  
    08/19/2014 15:00 MST178P  3.55P  0.00P  
    08/19/2014 15:15 MST172P  3.52P  0.00P  
    08/19/2014 15:30 MST163P  3.47P  0.00P  
    08/19/2014 15:45 MST155P  3.43P  0.00P  
    08/19/2014 16:00 MST148P  3.39P  0.00P  
    08/19/2014 16:15 MST143P  3.36P  0.00P  
    08/19/2014 16:30 MST136P  3.32P  0.00P  
    08/19/2014 16:45 MST130P  3.28P  0.00P  
    08/19/2014 17:00 MST130P  3.28P  0.00P  
    08/19/2014 17:15 MST118P  3.20P  0.00P  
    08/19/2014 17:30 MST116P  3.19P  0.00P  
    08/19/2014 17:45 MST113P  3.17P  0.01P  
    08/19/2014 18:00 MST105P  3.11P  0.00P  
    08/19/2014 18:15 MST98P  3.06P  0.04P  
    08/19/2014 18:30 MST100P  3.07P  0.05P  
    08/19/2014 18:45 MST95P  3.03P  0.01P  
    08/19/2014 19:00 MST93P  3.02P  0.00P  
    08/19/2014 19:15 MST89P  2.98P  0.01P  
    08/19/2014 19:30 MST91P  3.00P  0.00P  
    08/19/2014 19:45 MST92P  3.01P  0.01P  
    08/19/2014 20:00 MST95P  3.03P  0.03P  
    08/19/2014 20:15 MST89P  2.98P  0.01P  
    08/19/2014 20:30 MST85P  2.95P  0.05P  
    08/19/2014 20:45 MST89P  2.98P  0.03P  
    08/19/2014 21:00 MST82P  2.92P  0.02P  
    08/19/2014 21:15 MST82P  2.92P  0.00P  
    08/19/2014 21:30 MST72P  2.83P  0.01P  
    08/19/2014 21:45 MST71P  2.82P  0.00P  
    08/19/2014 22:00 MST67P  2.78P  0.00P  
    08/19/2014 22:15 MST65P  2.76P  0.00P  
    08/19/2014 22:30 MST66P  2.77P  0.00P  
    08/19/2014 22:45 MST62P  2.73P  0.00P  
    08/19/2014 23:00 MST59P  2.69P  0.00P  
    08/19/2014 23:15 MST59P  2.69P  0.00P  
    08/19/2014 23:30 MST62P  2.72P  0.00P  
    08/19/2014 23:45 MST63P  2.74P  0.00P  
    08/20/2014 00:00 MST65P  2.76P  0.00P  
    08/20/2014 00:15 MST67P  2.78P  0.00P  
    08/20/2014 00:30 MST71P  2.82P  0.00P  
    08/20/2014 00:45 MST65P  2.76P  0.00P  
    08/20/2014 01:00 MST61P  2.71P  0.00P  
    08/20/2014 01:15 MST64P  2.75P  0.00P  
    08/20/2014 01:30 MST60P  2.70P  0.00P  
    08/20/2014 01:45 MST54P  2.63P  0.00P  
    08/20/2014 02:00 MST53P  2.62P  0.00P  
    08/20/2014 02:15 MST52P  2.61P  0.00P  
    08/20/2014 02:30 MST45P  2.51P  0.00P  
    08/20/2014 02:45 MST45P  2.52P  0.00P  
    08/20/2014 03:00 MST43P  2.48P  0.00P  
    08/20/2014 03:15 MST37P  2.40P  0.00P  
    08/20/2014 03:30 MST36P  2.38P  0.00P  
    08/20/2014 03:45 MST37P  2.39P  0.00P  
    08/20/2014 04:00 MST32P  2.31P  0.00P  
    08/20/2014 04:15 MST32P  2.31P  0.00P  
    08/20/2014 04:30 MST29P  2.25P  0.00P  
    08/20/2014 04:45 MST26P  2.20P  0.00P  
    08/20/2014 05:00 MST25P  2.18P  0.00P  
    08/20/2014 05:15 MST20P  2.05P  0.00P  
    08/20/2014 05:30 MST20P  2.04P  0.00P  
    08/20/2014 05:45 MST18P  2.00P  0.00P  
    08/20/2014 06:00 MST18P  2.00P  0.00P  
    08/20/2014 06:15 MST17P  1.97P  0.00P  
    08/20/2014 06:30 MST16P  1.95P  0.00P  
    08/20/2014 06:45 MST16P  1.93P  0.00P  
    08/20/2014 07:00 MST15P  1.90P  0.00P  
    08/20/2014 07:15 MST14P  1.86P  0.00P  
    08/20/2014 07:30 MST12P  1.81P  0.00P  
    08/20/2014 07:45 MST11P  1.78P  0.00P  
    08/20/2014 08:00 MST12P  1.79P  0.00P  
    08/20/2014 08:15 MST11P  1.78P  0.00P  
    08/20/2014 08:30 MST10P  1.73P  0.00P  
    08/20/2014 08:45 MST9.9P  1.72P  0.00P  
    08/20/2014 09:00 MST9.2P  1.69P  0.00P  
    08/20/2014 09:15 MST9.0P  1.68P  0.00P  
    08/20/2014 09:30 MST8.6P  1.66P  0.00P  
    08/20/2014 09:45 MST8.2P  1.64P  0.00P  
    08/20/2014 10:00 MST7.2P  1.59P  0.00P  
    08/20/2014 10:15 MST7.4P  1.60P  0.00P  
    08/20/2014 10:30 MST6.2P  1.53P  0.00P  
    08/20/2014 10:45 MST6.4P  1.54P  0.00P  
    08/20/2014 11:00 MST5.9P  1.51P  0.00P  
    08/20/2014 11:15 MST5.9P  1.51P  0.00P  
    08/20/2014 11:30 MST4.9P  1.45P  0.00P  
    08/20/2014 11:45 MST5.6P  1.49P  0.00P  
    08/20/2014 12:00 MST5.0P  1.46P  0.00P  
    08/20/2014 12:15 MST4.9P  1.45P  0.00P  
    08/20/2014 12:30 MST5.0P  1.46P  0.00P  
    08/20/2014 12:45 MST4.2P  1.41P  0.00P  
    08/20/2014 13:00 MST4.1P  1.40P  0.00P  
    08/20/2014 13:15 MST4.2P  1.41P  0.00P  
    08/20/2014 13:30 MST4.1P  1.40P  0.00P  
    08/20/2014 13:45 MST3.9P  1.38P  0.00P  
    08/20/2014 14:00 MST3.5P  1.36P  0.00P  
    08/20/2014 14:15 MST3.9P  1.38P  0.09P  
    08/20/2014 14:30 MST3.3P  1.34P  0.02P  
    08/20/2014 14:45 MST5.4P  1.48P  0.00P  
    08/20/2014 15:00 MST25P  2.16P  0.00P  
    08/20/2014 15:15 MST16P  1.93P  0.00P  
    08/20/2014 15:30 MST10P  1.73P  0.00P  
    08/20/2014 15:45 MST6.5P  1.55P  0.00P  
    08/20/2014 16:00 MST5.6P  1.49P  0.00P  
    08/20/2014 16:15 MST6.4P  1.54P  0.00P  
    08/20/2014 16:30 MST7.4P  1.60P  0.00P  
    08/20/2014 16:45 MST6.0P  1.52P  0.00P  
    08/20/2014 17:00 MST6.4P  1.54P  0.00P  
    08/20/2014 17:15 MST5.7P  1.50P  0.00P  
    08/20/2014 17:30 MST4.7P  1.44P  0.00P  
    08/20/2014 17:45 MST5.0P  1.46P  0.00P  
    08/20/2014 18:00 MST4.9P  1.45P  0.00P  
    08/20/2014 18:15 MST5.6P  1.49P  0.00P  
    08/20/2014 18:30 MST4.9P  1.45P  0.00P  
    08/20/2014 18:45 MST4.6P  1.43P  0.00P  
    08/20/2014 19:00 MST4.4P  1.42P  0.00P  
    08/20/2014 19:15 MST3.7P  1.37P  0.00P  
    08/20/2014 19:30 MST3.3P  1.34P  0.00P  
    08/20/2014 19:45 MST3.4P  1.35P  0.00P  
    08/20/2014 20:00 MST2.7P  1.28P  0.00P  
    08/20/2014 20:15 MST2.9P  1.30P  0.00P  
    08/20/2014 20:30 MST2.3P  1.24P  0.00P  
    08/20/2014 20:45 MST2.8P  1.29P  0.00P  
    08/20/2014 21:00 MST2.4P  1.26P  0.00P  
    08/20/2014 21:15 MST2.4P  1.26P  0.00P  
    08/20/2014 21:30 MST1.9P  1.20P  0.00P  
    08/20/2014 21:45 MST2.3P  1.24P  0.00P  
    08/20/2014 22:00 MST2.2P  1.23P  0.00P  
    08/20/2014 22:15 MST2.3P  1.24P  0.00P  
    08/20/2014 22:30 MST1.8P  1.18P  0.00P  
    08/20/2014 22:45 MST2.1P  1.22P  0.00P  
    08/20/2014 23:00 MST1.9P  1.20P  0.00P  
    08/20/2014 23:15 MST1.5P  1.15P  0.00P  
    08/20/2014 23:30 MST1.7P  1.17P  0.00P  
    08/20/2014 23:45 MST1.9P  1.19P  0.00P  
    08/21/2014 00:00 MST1.9P  1.20P  0.00P  
    08/21/2014 00:15 MST1.8P  1.18P  0.00P  
    08/21/2014 00:30 MST1.8P  1.18P  0.00P  
    08/21/2014 00:45 MST2.1P  1.22P  0.00P  
    08/21/2014 01:00 MST1.7P  1.17P  0.00P  
    08/21/2014 01:15 MST1.8P  1.18P  0.00P  
    08/21/2014 01:30 MST2.2P  1.23P  0.00P  
    08/21/2014 01:45 MST2.1P  1.22P  0.00P  
    08/21/2014 02:00 MST2.4P  1.25P  0.00P  
    08/21/2014 02:15 MST1.9P  1.20P  0.00P  
    08/21/2014 02:30 MST2.4P  1.25P  0.00P  
    08/21/2014 02:45 MST2.1P  1.22P  0.00P  
    08/21/2014 03:00 MST2.4P  1.25P  0.00P  
    08/21/2014 03:15 MST2.5P  1.27P  0.00P  
    08/21/2014 03:30 MST2.2P  1.23P  0.00P  
    08/21/2014 03:45 MST2.4P  1.26P  0.00P  
    08/21/2014 04:00 MST2.7P  1.28P  0.00P  
    08/21/2014 04:15 MST2.2P  1.23P  0.00P  
    08/21/2014 04:30 MST2.5P  1.27P  0.00P  
    08/21/2014 04:45 MST2.9P  1.30P  0.00P  
    08/21/2014 05:00 MST1.9P  1.19P  0.00P  
    08/21/2014 05:15 MST1.8P  1.18P  0.00P  
    08/21/2014 05:30 MST1.9P  1.20P  0.00P  
    08/21/2014 05:45 MST1.8P  1.18P  0.00P  
    08/21/2014 06:00 MST2.0P  1.21P  0.00P  
    08/21/2014 06:15 MST1.9P  1.19P  0.00P  
    08/21/2014 06:30 MST2.0P  1.21P  0.00P  
    08/21/2014 06:45 MST1.8P  1.18P  0.00P  
    08/21/2014 07:00 MST1.6P  1.16P  0.00P  
    08/21/2014 07:15 MST1.7P  1.17P  0.00P  
    08/21/2014 07:30 MST1.5P  1.15P  0.00P  
    08/21/2014 07:45 MST1.4P  1.13P  0.00P  
    08/21/2014 08:00 MST1.8P  1.18P  0.00P  
    08/21/2014 08:15 MST1.5P  1.15P  0.00P  
    08/21/2014 08:30 MST1.6P  1.16P  0.00P  
    08/21/2014 08:45 MST1.2P  1.10P  0.00P  
    08/21/2014 09:00 MST1.5P  1.14P  0.00P  
    08/21/2014 09:15 MST1.3P  1.11P  0.00P  
    08/21/2014 09:30 MST1.2P  1.10P  0.00P  
    08/21/2014 09:45 MST1.6P  1.16P  0.00P  
    08/21/2014 10:00 MST1.6P  1.16P  0.00P  
    08/21/2014 10:15 MST1.4P  1.13P  0.00P  
    08/21/2014 10:30 MST1.0P  1.06P  0.00P  
    08/21/2014 10:45 MST1.0P  1.07P  0.00P  
    08/21/2014 11:00 MST1.3P  1.12P  0.00P  
    08/21/2014 11:15 MST1.5P  1.14P  0.00P  
    08/21/2014 11:30 MST1.2P  1.10P  0.00P  
    08/21/2014 11:45 MST1.2P  1.10P  0.00P  
    08/21/2014 12:00 MST0.97P  1.05P  0.00P  
    08/21/2014 12:15 MST1.2P  1.10P  0.00P  
    08/21/2014 12:30 MST1.3P  1.11P  0.00P  
    08/21/2014 12:45 MST1.3P  1.11P  0.00P  
    08/21/2014 13:00 MST0.89P  1.03P  0.00P  
    08/21/2014 13:15 MST1.0P  1.06P  0.00P  
    08/21/2014 13:30 MST1.0P  1.06P  0.00P  
    08/21/2014 13:45 MST1.3P  1.11P  0.00P  
    08/21/2014 14:00 MST1.9P  1.20P  0.00P  
    08/21/2014 14:15 MST1.4P  1.13P  0.00P  
    08/21/2014 14:30 MST1.2P  1.10P  0.00P  
    08/21/2014 14:45 MST1.0P  1.06P  0.00P  
    08/21/2014 15:00 MST1.2P  1.10P  0.00P  
    08/21/2014 15:15 MST1.5P  1.14P  0.00P  
    08/21/2014 15:30 MST1.3P  1.12P  0.01P  
    08/21/2014 15:45 MST1.3P  1.12P  0.00P  
    08/21/2014 16:00 MST1.4P  1.13P  0.00P  
    08/21/2014 16:15 MST1.3P  1.11P  0.00P  
    08/21/2014 16:30 MST1.0P  1.06P  0.00P  
    08/21/2014 16:45 MST1.0P  1.07P  0.00P  
    08/21/2014 17:00 MST1.0P  1.07P  0.00P  
    08/21/2014 17:15 MST0.97P  1.05P  0.00P  
    08/21/2014 17:30 MST1.1P  1.08P  0.00P  
    08/21/2014 17:45 MST1.8P  1.18P  0.00P  
    08/21/2014 18:00 MST1.2P  1.09P  0.00P  
    08/21/2014 18:15 MST1.0P  1.07P  0.00P  
    08/21/2014 18:30 MST1.0P  1.06P  0.00P  
    08/21/2014 18:45 MST1.0P  1.06P  0.00P  
    08/21/2014 19:00 MST1.0P  1.06P  0.00P  
    08/21/2014 19:15 MST1.0P  1.07P  0.00P  
    08/21/2014 19:30 MST1.0P  1.07P  0.00P  
    08/21/2014 19:45 MST1.0P  1.07P  0.00P  
    08/21/2014 20:00 MST1.0P  1.06P  0.00P  
    08/21/2014 20:15 MST1.0P  1.06P  0.00P  
    08/21/2014 20:30 MST1.0P  1.06P  0.00P  
    08/21/2014 20:45 MST0.97P  1.05P  0.00P  
    08/21/2014 21:00 MST0.97P  1.05P  0.00P  
    08/21/2014 21:15 MST0.97P  1.05P  0.00P  
    08/21/2014 21:30 MST1.0P  1.07P  0.00P  
    08/21/2014 21:45 MST1.2P  1.09P  0.00P  
    08/21/2014 22:00 MST1.0P  1.07P  0.00P  
    08/21/2014 22:15 MST1.0P  1.07P  0.00P  
    08/21/2014 22:30 MST0.89P  1.03P  0.00P  
    08/21/2014 22:45 MST1.1P  1.08P  0.00P  
    08/21/2014 23:00 MST1.0P  1.07P  0.00P  
    08/21/2014 23:15 MST0.97P  1.05P  0.00P  
    08/21/2014 23:30 MST0.93P  1.04P  0.00P  
    08/21/2014 23:45 MST0.97P  1.05P  0.00P  
    08/22/2014 00:00 MST0.97P  1.05P  0.00P  
    08/22/2014 00:15 MST0.93P  1.04P  0.00P  
    08/22/2014 00:30 MST0.93P  1.04P  0.00P  
    08/22/2014 00:45 MST0.93P  1.04P  0.00P  
    08/22/2014 01:00 MST0.82P  1.02P  0.00P  
    08/22/2014 01:15 MST0.89P  1.03P  0.00P  
    08/22/2014 01:30 MST0.89P  1.03P  0.00P  
    08/22/2014 01:45 MST1.4P  1.13P  0.00P  
    08/22/2014 02:00 MST0.93P  1.04P  0.00P  
    08/22/2014 02:15 MST0.97P  1.05P  0.00P  
    08/22/2014 02:30 MST0.78P  1.01P  0.00P  
    08/22/2014 02:45 MST1.4P  1.13P  0.00P  
    08/22/2014 03:00 MST0.78P  1.01P  0.01P  
    08/22/2014 03:15 MST0.75P  1.00P  0.00P  
    08/22/2014 03:30 MST0.75P  1.00P  0.00P  
    08/22/2014 03:45 MST0.82P  1.02P  0.00P  
    08/22/2014 04:00 MST0.75P  1.00P  0.00P  
    08/22/2014 04:15 MST0.75P  1.00P  0.00P  
    08/22/2014 04:30 MST0.78P  1.01P  0.00P  
    08/22/2014 04:45 MST0.71P  0.99P  0.00P  
    08/22/2014 05:00 MST1.1P  1.08P  0.00P  
    08/22/2014 05:15 MST0.82P  1.02P  0.00P  
    08/22/2014 05:30 MST0.93P  1.04P  0.00P  
    08/22/2014 05:45 MST0.97P  1.05P  0.00P  
    08/22/2014 06:00 MST0.82P  1.02P  0.00P  
    08/22/2014 06:15 MST0.89P  1.03P  0.00P  
    08/22/2014 06:30 MST0.93P  1.04P  0.00P  
    08/22/2014 06:45 MST0.93P  1.04P  0.00P  
    08/22/2014 07:00 MST0.97P  1.05P  0.00P  
    08/22/2014 07:15 MST1.0P  1.06P  0.00P  
    08/22/2014 07:30 MST0.97P  1.05P  0.00P  
    08/22/2014 07:45 MST0.82P  1.02P  0.00P  
    08/22/2014 08:00 MST0.78P  1.01P  0.00P  
    08/22/2014 08:15 MST0.78P  1.01P  0.00P  
    08/22/2014 08:30 MST0.68P  0.98P  0.00P  
    08/22/2014 08:45 MST0.71P  0.99P  0.00P  
    08/22/2014 09:00 MST0.71P  0.99P  0.00P  
    08/22/2014 09:15 MST0.71P  0.99P  0.00P  
    08/22/2014 09:30 MST0.71P  0.99P  0.00P  
    08/22/2014 09:45 MST0.75P  1.00P  0.00P  
    08/22/2014 10:00 MST0.78P  1.01P  0.00P  
    08/22/2014 10:15 MST0.71P  0.99P  0.00P  
    08/22/2014 10:30 MST5.1P  1.47P  0.00P  
    08/22/2014 10:45 MST34P  2.34P  0.00P  
    08/22/2014 11:00 MST34P  2.34P  0.00P  
    08/22/2014 11:15 MST33P  2.33P  0.00P  
    08/22/2014 11:30 MST33P  2.32P  0.00P  
    08/22/2014 11:45 MST30P  2.28P  0.00P  
    08/22/2014 12:00 MST29P  2.26P  0.06P  
    08/22/2014 12:15 MST28P  2.23P  0.00P  
    08/22/2014 12:30 MST26P  2.20P  0.00P  
    08/22/2014 12:45 MST27P  2.21P  0.00P  
    08/22/2014 13:00 MST25P  2.18P  0.00P  
    08/22/2014 13:15 MST24P  2.15P  0.00P  
    08/22/2014 13:30 MST22P  2.10P  0.02P  
    08/22/2014 13:45 MST21P  2.08P  0.00P  
    08/22/2014 14:00 MST20P  2.05P  0.00P  
    08/22/2014 14:15 MST19P  2.03P  0.00P  
    08/22/2014 14:30 MST19P  2.02P  0.00P  
    08/22/2014 14:45 MST16P  1.95P  0.00P  
    08/22/2014 15:00 MST15P  1.91P  0.00P  
    08/22/2014 15:15 MST14P  1.88P  0.00P  
    08/22/2014 15:30 MST14P  1.89P  0.00P  
    08/22/2014 15:45 MST13P  1.84P  0.00P  
    08/22/2014 16:00 MST12P  1.81P  0.00P  
    08/22/2014 16:15 MST11P  1.78P  0.00P  
    08/22/2014 16:30 MST11P  1.75P  0.00P  
    08/22/2014 16:45 MST10P  1.73P  0.00P  
    08/22/2014 17:00 MST9.4P  1.70P  0.00P  
    08/22/2014 17:15 MST8.8P  1.67P  0.00P  
    08/22/2014 17:30 MST8.4P  1.65P  0.00P  
    08/22/2014 17:45 MST8.0P  1.63P  0.00P  
    08/22/2014 18:00 MST7.4P  1.60P  0.00P  
    08/22/2014 18:15 MST6.7P  1.56P  0.00P  
    08/22/2014 18:30 MST6.4P  1.54P  0.00P  
    08/22/2014 18:45 MST6.0P  1.52P  0.00P  
    08/22/2014 19:00 MST5.9P  1.51P  0.00P  
    08/22/2014 19:15 MST5.4P  1.48P  0.00P  
    08/22/2014 19:30 MST5.0P  1.46P  0.00P  
    08/22/2014 19:45 MST4.7P  1.44P  0.00P  
    08/22/2014 20:00 MST4.7P  1.44P  0.00P  
    08/22/2014 20:15 MST4.6P  1.43P  0.00P  
    08/22/2014 20:30 MST4.1P  1.40P  0.00P  
    08/22/2014 20:45 MST4.0P  1.39P  0.00P  
    08/22/2014 21:00 MST4.4P  1.42P  0.00P  
    08/22/2014 21:15 MST4.2P  1.41P  0.00P  
    08/22/2014 21:30 MST4.9P  1.45P  0.00P  
    08/22/2014 21:45 MST3.4P  1.35P  0.00P  
    08/22/2014 22:00 MST3.2P  1.33P  0.00P  
    08/22/2014 22:15 MST2.7P  1.28P  0.00P  
    08/22/2014 22:30 MST2.9P  1.30P  0.00P  
    08/22/2014 22:45 MST2.4P  1.26P  0.00P  
    08/22/2014 23:00 MST2.9P  1.30P  0.00P  
    08/22/2014 23:15 MST2.7P  1.28P  0.00P  
    08/22/2014 23:30 MST2.5P  1.27P  0.00P  
    08/22/2014 23:45 MST2.5P  1.27P  0.00P  
    08/23/2014 00:00 MST2.8P  1.29P  0.00P  
    08/23/2014 00:15 MST2.2P  1.23P  0.00P  
    08/23/2014 00:30 MST2.4P  1.26P  0.00P  
    08/23/2014 00:45 MST2.1P  1.22P  0.00P  
    08/23/2014 01:00 MST2.0P  1.21P  0.00P  
    08/23/2014 01:15 MST2.1P  1.22P  0.00P  
    08/23/2014 01:30 MST2.0P  1.21P  0.00P  
    08/23/2014 01:45 MST2.2P  1.23P  0.00P  
    08/23/2014 02:00 MST1.7P  1.17P  0.00P  
    08/23/2014 02:15 MST1.8P  1.18P  0.00P  
    08/23/2014 02:30 MST1.5P  1.15P  0.00P  
    08/23/2014 02:45 MST1.5P  1.14P  0.00P  
    08/23/2014 03:00 MST1.9P  1.20P  0.00P  
    08/23/2014 03:15 MST1.4P  1.13P  0.00P  
    08/23/2014 03:30 MST1.5P  1.15P  0.00P  
    08/23/2014 03:45 MST1.4P  1.13P  0.00P  
    08/23/2014 04:00 MST1.5P  1.15P  0.00P  
    08/23/2014 04:15 MST1.2P  1.10P  0.00P  
    08/23/2014 04:30 MST1.3P  1.12P  0.00P  
    08/23/2014 04:45 MST1.2P  1.10P  0.00P  
    08/23/2014 05:00 MST1.3P  1.12P  0.00P  
    08/23/2014 05:15 MST1.2P  1.10P  0.00P  
    08/23/2014 05:30 MST1.3P  1.11P  0.00P  
    08/23/2014 05:45 MST1.3P  1.11P  0.00P  
    08/23/2014 06:00 MST1.2P  1.10P  0.00P  
    08/23/2014 06:15 MST1.2P  1.10P  0.00P  
    08/23/2014 06:30 MST1.2P  1.09P  0.00P  
    08/23/2014 06:45 MST1.2P  1.09P  0.00P  
    08/23/2014 07:00 MST1.2P  1.10P  0.00P  
    08/23/2014 07:15 MST1.2P  1.10P  0.01P  
    08/23/2014 07:30 MST1.2P  1.10P  0.00P  
    08/23/2014 07:45 MST1.0P  1.06P  0.00P  
    08/23/2014 08:00 MST0.97P  1.05P  0.00P  
    08/23/2014 08:15 MST1.2P  1.09P  0.00P  
    08/23/2014 08:30 MST1.0P  1.07P  0.00P  
    08/23/2014 08:45 MST0.93P  1.04P  0.00P  
    08/23/2014 09:00 MST1.0P  1.07P  0.00P  
    08/23/2014 09:15 MST0.97P  1.05P  0.00P  
    08/23/2014 09:30 MST1.0P  1.07P  0.00P  
    08/23/2014 09:45 MST0.93P  1.04P  0.00P  
    08/23/2014 10:00 MST0.97P  1.05P  0.00P  
    08/23/2014 10:15 MST1.1P  1.08P  0.00P  
    08/23/2014 10:30 MST0.82P  1.02P  0.00P  
    08/23/2014 10:45 MST0.97P  1.05P  0.00P  
    08/23/2014 11:00 MST0.75P  1.00P  0.00P  
    08/23/2014 11:15 MST0.97P  1.05P  0.00P  
    08/23/2014 11:30 MST1.0P  1.06P  0.00P  
    08/23/2014 11:45 MST0.82P  1.02P  0.00P  
    08/23/2014 12:00 MST0.78P  1.01P  0.00P  
    08/23/2014 12:15 MST0.71P  0.99P  0.00P  
    08/23/2014 12:30 MST0.93P  1.04P  0.00P  
    08/23/2014 12:45 MST0.75P  1.00P  0.00P  
    08/23/2014 13:00 MST0.71P  0.99P  0.00P  
    08/23/2014 13:15 MST0.89P  1.03P  0.00P  
    08/23/2014 13:30 MST0.68P  0.98P  0.00P  
    08/23/2014 13:45 MST0.75P  1.00P  0.00P  
    08/23/2014 14:00 MST0.75P  1.00P  0.00P  
    08/23/2014 14:15 MST0.82P  1.02P  0.00P  
    08/23/2014 14:30 MST0.68P  0.98P  0.00P  
    08/23/2014 14:45 MST0.59P  0.95P  0.00P  
    08/23/2014 15:00 MST0.75P  1.00P  0.00P  
    08/23/2014 15:15 MST0.68P  0.98P  0.00P  
    08/23/2014 15:30 MST0.78P  1.01P  0.00P  
    08/23/2014 15:45 MST0.71P  0.99P  0.00P  
    08/23/2014 16:00 MST0.65P  0.97P  0.00P  
    08/23/2014 16:15 MST0.68P  0.98P  0.00P  
    08/23/2014 16:30 MST0.89P  1.03P  0.00P  
    08/23/2014 16:45 MST0.89P  1.03P  0.00P  
    08/23/2014 17:00 MST0.97P  1.05P  0.00P  
    08/23/2014 17:15 MST0.75P  1.00P  0.00P  
    08/23/2014 17:30 MST0.75P  1.00P  0.00P  
    08/23/2014 17:45 MST0.78P  1.01P  0.00P  
    08/23/2014 18:00 MST0.93P  1.04P  0.00P  
    08/23/2014 18:15 MST0.89P  1.03P  0.00P  
    08/23/2014 18:30 MST0.75P  1.00P  0.00P  
    08/23/2014 18:45 MST0.78P  1.01P  0.00P  
    08/23/2014 19:00 MST0.68P  0.98P  0.00P  
    08/23/2014 19:15 MST0.78P  1.01P  0.00P  
    08/23/2014 19:30 MST0.82P  1.02P  0.00P  
    08/23/2014 19:45 MST0.75P  1.00P  0.00P  
    08/23/2014 20:00 MST0.78P  1.01P  0.00P  
    08/23/2014 20:15 MST0.65P  0.97P  0.00P  
    08/23/2014 20:30 MST0.75P  1.00P  0.00P  
    08/23/2014 20:45 MST0.89P  1.03P  0.00P  
    08/23/2014 21:00 MST0.78P  1.01P  0.00P  
    08/23/2014 21:15 MST0.78P  1.01P  0.00P  
    08/23/2014 21:30 MST0.82P  1.02P  0.00P  
    08/23/2014 21:45 MST0.89P  1.03P  0.00P  
    08/23/2014 22:00 MST0.93P  1.04P  0.00P  
    08/23/2014 22:15 MST0.65P  0.97P  0.00P  
    08/23/2014 22:30 MST0.68P  0.98P  0.00P  
    08/23/2014 22:45 MST0.82P  1.02P  0.00P  
    08/23/2014 23:00 MST0.68P  0.98P  0.00P  
    08/23/2014 23:15 MST0.82P  1.02P  0.00P  
    08/23/2014 23:30 MST0.82P  1.02P  0.00P  
    08/23/2014 23:45 MST0.93P  1.04P  0.00P  
    08/24/2014 00:00 MST0.78P  1.01P  0.00P  
    08/24/2014 00:15 MST0.82P  1.02P  0.00P  
    08/24/2014 00:30 MST0.82P  1.02P  0.00P  
    08/24/2014 00:45 MST0.75P  1.00P  0.00P  
    08/24/2014 01:00 MST0.75P  1.00P  0.00P  
    08/24/2014 01:15 MST0.71P  0.99P  0.00P  
    08/24/2014 01:30 MST0.82P  1.02P  0.00P  
    08/24/2014 01:45 MST0.75P  1.00P  0.00P  
    08/24/2014 02:00 MST0.78P  1.01P  0.00P  
    08/24/2014 02:15 MST0.75P  1.00P  0.00P  
    08/24/2014 02:30 MST0.78P  1.01P  0.00P  
    08/24/2014 02:45 MST0.68P  0.98P  0.00P  
    08/24/2014 03:00 MST0.75P  1.00P  0.00P  
    08/24/2014 03:15 MST0.82P  1.02P  0.00P  
    08/24/2014 03:30 MST0.82P  1.02P  0.00P  
    08/24/2014 03:45 MST0.65P  0.97P  0.00P  
    08/24/2014 04:00 MST0.89P  1.03P  0.00P  
    08/24/2014 04:15 MST0.93P  1.04P  0.00P  
    08/24/2014 04:30 MST0.89P  1.03P  0.00P  
    08/24/2014 04:45 MST0.68P  0.98P  0.00P  
    08/24/2014 05:00 MST0.75P  1.00P  0.00P  
    08/24/2014 05:15 MST0.65P  0.97P  0.00P  
    08/24/2014 05:30 MST0.75P  1.00P  0.00P  
    08/24/2014 05:45 MST0.89P  1.03P  0.00P  
    08/24/2014 06:00 MST0.82P  1.02P  0.00P  
    08/24/2014 06:15 MST0.89P  1.03P  0.00P  
    08/24/2014 06:30 MST0.78P  1.01P  0.00P  
    08/24/2014 06:45 MST0.75P  1.00P  0.00P  
    08/24/2014 07:00 MST0.68P  0.98P  0.00P  
    08/24/2014 07:15 MST0.78P  1.01P  0.00P  
    08/24/2014 07:30 MST0.68P  0.98P  0.00P  
    08/24/2014 07:45 MST0.57P  0.94P  0.00P  
    08/24/2014 08:00 MST0.54P  0.93P  0.00P  
    08/24/2014 08:15 MST0.57P  0.94P  0.00P  
    08/24/2014 08:30 MST0.75P  1.00P  0.00P  
    08/24/2014 08:45 MST0.65P  0.97P  0.00P  
    08/24/2014 09:00 MST0.75P  1.00P  0.00P  
    08/24/2014 09:15 MST0.75P  1.00P  0.00P  
    08/24/2014 09:30 MST0.82P  1.02P  0.00P  
    08/24/2014 09:45 MST0.75P  1.00P  0.00P  
    08/24/2014 10:00 MST0.65P  0.97P  0.00P  
    08/24/2014 10:15 MST0.68P  0.98P  0.00P  
    08/24/2014 10:30 MST0.59P  0.95P  0.00P  
    08/24/2014 10:45 MST0.68P  0.98P  0.00P  
    08/24/2014 11:00 MST0.75P  1.00P  0.00P  
    08/24/2014 11:15 MST0.62P  0.96P  0.00P  
    08/24/2014 11:30 MST0.68P  0.98P  0.00P  
    08/24/2014 11:45 MST0.75P  1.00P  0.00P  
    08/24/2014 12:00 MST0.57P  0.94P  0.00P  
    08/24/2014 12:15 MST0.62P  0.96P  0.00P  
    08/24/2014 12:30 MST0.75P  1.00P  0.00P  
    08/24/2014 12:45 MST0.59P  0.95P  0.00P  
    08/24/2014 13:00 MST0.68P  0.98P  0.00P  
    08/24/2014 13:15 MST0.71P  0.99P  0.00P  
    08/24/2014 13:30 MST0.71P  0.99P  0.00P  
    08/24/2014 13:45 MST0.71P  0.99P  0.00P  
    08/24/2014 14:00 MST0.59P  0.95P  0.00P  
    08/24/2014 14:15 MST0.71P  0.99P  0.00P  
    08/24/2014 14:30 MST0.62P  0.96P  0.00P  
    08/24/2014 14:45 MST0.59P  0.95P  0.00P  
    08/24/2014 15:00 MST0.68P  0.98P  0.00P  
    08/24/2014 15:15 MST0.52P  0.92P  0.00P  
    08/24/2014 15:30 MST0.68P  0.98P  0.00P  
    08/24/2014 15:45 MST0.68P  0.98P  0.00P  
    08/24/2014 16:00 MST0.68P  0.98P  0.00P  
    08/24/2014 16:15 MST0.52P  0.92P  0.00P  
    08/24/2014 16:30 MST0.65P  0.97P  0.00P  
    08/24/2014 16:45 MST0.59P  0.95P  0.00P  
    08/24/2014 17:00 MST0.52P  0.92P  0.00P  
    08/24/2014 17:15 MST0.62P  0.96P  0.00P  
    08/24/2014 17:30 MST0.52P  0.92P  0.00P  
    08/24/2014 17:45 MST0.68P  0.98P  0.00P  
    08/24/2014 18:00 MST0.52P  0.92P  0.00P  
    08/24/2014 18:15 MST0.49P  0.91P  0.00P  
    08/24/2014 18:30 MST0.71P  0.99P  0.00P  
    08/24/2014 18:45 MST0.68P  0.98P  0.00P  
    08/24/2014 19:00 MST0.65P  0.97P  0.00P  
    08/24/2014 19:15 MST0.62P  0.96P  0.00P  
    08/24/2014 19:30 MST0.68P  0.98P  0.00P  
    08/24/2014 19:45 MST0.57P  0.94P  0.00P  
    08/24/2014 20:00 MST0.68P  0.98P  0.00P  
    08/24/2014 20:15 MST0.71P  0.99P  0.00P  
    08/24/2014 20:30 MST0.57P  0.94P  0.00P  
    08/24/2014 20:45 MST0.68P  0.98P  0.00P  
    08/24/2014 21:00 MST0.68P  0.98P  0.00P  
    08/24/2014 21:15 MST0.59P  0.95P  0.00P  
    08/24/2014 21:30 MST0.62P  0.96P  0.00P  
    08/24/2014 21:45 MST0.71P  0.99P  0.00P  
    08/24/2014 22:00 MST0.54P  0.93P  0.00P  
    08/24/2014 22:15 MST0.52P  0.92P  0.00P  
    08/24/2014 22:30 MST0.57P  0.94P  0.00P  
    08/24/2014 22:45 MST0.57P  0.94P  0.00P  
    08/24/2014 23:00 MST0.54P  0.93P  0.00P  
    08/24/2014 23:15 MST0.57P  0.94P  0.00P  
    08/24/2014 23:30 MST0.57P  0.94P  0.00P  
    08/24/2014 23:45 MST0.65P  0.97P  0.00P  
    08/25/2014 00:00 MST0.57P  0.94P  0.00P  
    08/25/2014 00:15 MST0.62P  0.96P  0.00P  
    08/25/2014 00:30 MST0.52P  0.92P  0.00P  
    08/25/2014 00:45 MST0.65P  0.97P  0.00P  
    08/25/2014 01:00 MST0.75P  1.00P  0.00P  
    08/25/2014 01:15 MST0.62P  0.96P  0.00P  
    08/25/2014 01:30 MST0.68P  0.98P  0.00P  
    08/25/2014 01:45 MST0.65P  0.97P  0.00P  
    08/25/2014 02:00 MST0.68P  0.98P  0.00P  
    08/25/2014 02:15 MST0.54P  0.93P  0.00P  
    08/25/2014 02:30 MST0.54P  0.93P  0.00P  
    08/25/2014 02:45 MST0.71P  0.99P  0.00P  
    08/25/2014 03:00 MST0.75P  1.00P  0.00P  
    08/25/2014 03:15 MST0.71P  0.99P  0.00P  
    08/25/2014 03:30 MST0.71P  0.99P  0.00P  
    08/25/2014 03:45 MST0.65P  0.97P  0.00P  
    08/25/2014 04:00 MST0.75P  1.00P  0.00P  
    08/25/2014 04:15 MST0.59P  0.95P  0.00P  
    08/25/2014 04:30 MST0.75P  1.00P  0.00P  
    08/25/2014 04:45 MST0.65P  0.97P  0.00P  
    08/25/2014 05:00 MST0.71P  0.99P  0.00P  
    08/25/2014 05:15 MST0.71P  0.99P  0.00P  
    08/25/2014 05:30 MST0.59P  0.95P  0.00P  
    08/25/2014 05:45 MST0.54P  0.93P  0.00P  
    08/25/2014 06:00 MST0.65P  0.97P  0.00P  
    08/25/2014 06:15 MST0.59P  0.95P  0.00P  
    08/25/2014 06:30 MST0.68P  0.98P  0.00P  
    08/25/2014 06:45 MST0.62P  0.96P  0.00P  
    08/25/2014 07:00 MST0.57P  0.94P  0.00P  
    08/25/2014 07:15 MST0.59P  0.95P  0.00P  
    08/25/2014 07:30 MST0.49P  0.91P  0.00P  
    08/25/2014 07:45 MST0.65P  0.97P  0.00P  
    08/25/2014 08:00 MST0.65P  0.97P  0.00P  
    08/25/2014 08:15 MST0.75P  1.00P  0.00P  
    08/25/2014 08:30 MST0.54P  0.93P  0.00P  
    08/25/2014 08:45 MST0.65P  0.97P  0.00P  
    08/25/2014 09:00 MST0.68P  0.98P  0.00P  
    08/25/2014 09:15 MST0.75P  1.00P  0.00P  
    08/25/2014 09:30 MST0.71P  0.99P  0.00P  
    08/25/2014 09:45 MST0.54P  0.93P  0.00P  
    08/25/2014 10:00 MST0.59P  0.95P  0.00P  
    08/25/2014 10:15 MST0.68P  0.98P  0.00P  
    08/25/2014 10:30 MST0.65P  0.97P  0.00P  
    08/25/2014 10:45 MST0.62P  0.96P  0.00P  
    08/25/2014 11:00 MST0.57P  0.94P  0.00P  
    08/25/2014 11:15 MST0.68P  0.98P  0.00P  
    08/25/2014 11:30 MST0.71P  0.99P  0.00P  
    08/25/2014 11:45 MST0.65P  0.97P  0.00P  
    08/25/2014 12:00 MST0.57P  0.94P  0.00P  
    08/25/2014 12:15 MST0.62P  0.96P  0.00P  
    08/25/2014 12:30 MST0.52P  0.92P  0.00P  
    08/25/2014 12:45 MST0.52P  0.92P  0.00P  
    08/25/2014 13:00 MST0.59P  0.95P  0.00P  
    08/25/2014 13:15 MST0.65P  0.97P  0.00P  
    08/25/2014 13:30 MST0.52P  0.92P  0.00P  
    08/25/2014 13:45 MST0.62P  0.96P  0.00P  
    08/25/2014 14:00 MST0.62P  0.96P  0.00P  
    08/25/2014 14:15 MST0.52P  0.92P  0.00P  
    08/25/2014 14:30 MST0.54P  0.93P  0.00P  
    08/25/2014 14:45 MST0.65P  0.97P  0.00P  
    08/25/2014 15:00 MST0.47P  0.90P  0.00P  
    08/25/2014 15:15 MST0.54P  0.93P  0.00P  
    08/25/2014 15:30 MST0.68P  0.98P  0.00P  
    08/25/2014 15:45 MST0.62P  0.96P  0.00P  
    08/25/2014 16:00 MST0.62P  0.96P  0.00P  
    08/25/2014 16:15 MST0.57P  0.94P  0.00P  
    08/25/2014 16:30 MST0.62P  0.96P  0.00P  
    08/25/2014 16:45 MST0.57P  0.94P  0.00P  
    08/25/2014 17:00 MST0.59P  0.95P  0.00P  
    08/25/2014 17:15 MST0.62P  0.96P  0.00P  
    08/25/2014 17:30 MST0.65P  0.97P  0.00P  
    08/25/2014 17:45 MST0.49P  0.91P  0.00P  
    08/25/2014 18:00 MST0.57P  0.94P  0.00P  
    08/25/2014 18:15 MST0.68P  0.98P  0.00P  
    08/25/2014 18:30 MST0.57P  0.94P  0.00P  
    08/25/2014 18:45 MST0.57P  0.94P  0.00P  
    08/25/2014 19:00 MST0.62P  0.96P  0.00P  
    08/25/2014 19:15 MST0.68P  0.98P  0.00P  
    08/25/2014 19:30 MST0.52P  0.92P  0.00P  
    08/25/2014 19:45 MST0.65P  0.97P  0.00P  
    08/25/2014 20:00 MST0.62P  0.96P  0.00P  
    08/25/2014 20:15 MST0.54P  0.93P  0.00P  
    08/25/2014 20:30 MST0.65P  0.97P  0.00P  
    08/25/2014 20:45 MST0.62P  0.96P  0.00P  
    08/25/2014 21:00 MST0.62P  0.96P  0.00P  
    08/25/2014 21:15 MST0.89P  1.03P  0.00P  
    08/25/2014 21:30 MST0.68P  0.98P  0.00P  
    08/25/2014 21:45 MST0.78P  1.01P  0.00P  
    08/25/2014 22:00 MST0.54P  0.93P  0.00P  
    08/25/2014 22:15 MST0.49P  0.91P  0.00P  
    08/25/2014 22:30 MST0.54P  0.93P  0.00P  
    08/25/2014 22:45 MST0.54P  0.93P  0.00P  
    08/25/2014 23:00 MST0.75P  1.00P  0.00P  
    08/25/2014 23:15 MST0.65P  0.97P  0.00P  
    08/25/2014 23:30 MST0.65P  0.97P  0.00P  
    08/25/2014 23:45 MST0.68P  0.98P  0.00P  
    08/26/2014 00:00 MST0.71P  0.99P  0.00P  
    08/26/2014 00:15 MST0.68P  0.98P  0.00P  
    08/26/2014 00:30 MST0.68P  0.98P  0.00P  
    08/26/2014 00:45 MST0.71P  0.99P  0.00P  
    08/26/2014 01:00 MST0.68P  0.98P  0.00P  
    08/26/2014 01:15 MST0.68P  0.98P  0.00P  
    08/26/2014 01:30 MST0.68P  0.98P  0.00P  
    08/26/2014 01:45 MST0.68P  0.98P  0.00P  
    08/26/2014 02:00 MST0.68P  0.98P  0.00P  
    08/26/2014 02:15 MST0.68P  0.98P  0.00P  
    08/26/2014 02:30 MST0.68P  0.98P  0.00P  
    08/26/2014 02:45 MST0.68P  0.98P  0.00P  
    08/26/2014 03:00 MST0.68P  0.98P  0.00P  
    08/26/2014 03:15 MST0.68P  0.98P  0.00P  
    08/26/2014 03:30 MST0.68P  0.98P  0.00P  
    08/26/2014 03:45 MST0.68P  0.98P  0.00P  
    08/26/2014 04:00 MST0.68P  0.98P  0.00P  
    08/26/2014 04:15 MST0.68P  0.98P  0.00P  
    08/26/2014 04:30 MST0.68P  0.98P  0.00P  
    08/26/2014 04:45 MST0.68P  0.98P  0.00P  
    08/26/2014 05:00 MST0.68P  0.98P  0.00P  
    08/26/2014 05:15 MST0.49P  0.91P  0.00P  
    08/26/2014 05:30 MST0.52P  0.92P  0.00P  
    08/26/2014 05:45 MST0.59P  0.95P  0.00P  
    08/26/2014 06:00 MST0.68P  0.98P  0.00P  
    08/26/2014 06:15 MST0.59P  0.95P  0.00P  
    08/26/2014 06:30 MST0.54P  0.93P  0.00P  
    08/26/2014 06:45 MST0.59P  0.95P  0.00P  
    08/26/2014 07:00 MST0.65P  0.97P  0.00P  
    08/26/2014 07:15 MST0.65P  0.97P  0.00P  
    08/26/2014 07:30 MST0.62P  0.96P  0.00P  
    08/26/2014 07:45 MST0.62P  0.96P  0.00P  
    08/26/2014 08:00 MST0.65P  0.97P  0.00P  
    08/26/2014 08:15 MST0.68P  0.98P  0.00P  
    08/26/2014 08:30 MST0.68P  0.98P  0.00P  
    08/26/2014 08:45 MST0.57P  0.94P  0.00P  
    08/26/2014 09:00 MST0.62P  0.96P  0.00P  
    08/26/2014 09:15 MST0.68P  0.98P  0.00P  
    08/26/2014 09:30 MST0.54P  0.93P  0.00P  
    08/26/2014 09:45 MST0.65P  0.97P  0.00P  
    08/26/2014 10:00 MST0.57P  0.94P  0.00P  
    08/26/2014 10:15 MST0.59P  0.95P  0.00P  
    08/26/2014 10:30 MST0.65P  0.97P  0.00P  
    08/26/2014 10:45 MST0.59P  0.95P  0.00P  
    08/26/2014 11:00 MST0.57P  0.94P  0.00P  
    08/26/2014 11:15 MST0.59P  0.95P  0.00P  
    08/26/2014 11:30 MST0.65P  0.97P  0.00P  
    08/26/2014 11:45 MST0.57P  0.94P  0.00P  
    08/26/2014 12:00 MST0.57P  0.94P  0.00P  
    08/26/2014 12:15 MST0.59P  0.95P  0.00P  
    08/26/2014 12:30 MST0.59P  0.95P  0.00P  
    08/26/2014 12:45 MST0.65P  0.97P  0.00P  
    08/26/2014 13:00 MST0.62P  0.96P  0.00P  
    08/26/2014 13:15 MST0.62P  0.96P  0.00P  
    08/26/2014 13:30 MST0.62P  0.96P  0.00P  
    08/26/2014 13:45 MST0.62P  0.96P  0.00P  
    08/26/2014 14:00 MST0.57P  0.94P  0.00P  
    08/26/2014 14:15 MST0.57P  0.94P  0.00P  
    08/26/2014 14:30 MST0.59P  0.95P  0.00P  
    08/26/2014 14:45 MST0.62P  0.96P  0.00P  
    08/26/2014 15:00 MST0.57P  0.94P  0.01P  
    08/26/2014 15:15 MST0.57P  0.94P  0.00P  
    08/26/2014 15:30 MST0.65P  0.97P  0.01P  
    08/26/2014 15:45 MST0.54P  0.93P  0.00P  
    08/26/2014 16:00 MST0.65P  0.97P  0.00P  
    08/26/2014 16:15 MST0.62P  0.96P  0.00P  
    08/26/2014 16:30 MST0.52P  0.92P  0.00P  
    08/26/2014 16:45 MST0.57P  0.94P  0.00P  
    08/26/2014 17:00 MST0.62P  0.96P  0.00P  
    08/26/2014 17:15 MST0.59P  0.95P  0.00P  
    08/26/2014 17:30 MST0.54P  0.93P  0.00P  
    08/26/2014 17:45 MST0.62P  0.96P  0.00P  
    08/26/2014 18:00 MST0.57P  0.94P  0.00P  
    08/26/2014 18:15 MST0.54P  0.93P  0.00P  
    08/26/2014 18:30 MST0.59P  0.95P  0.00P  
    08/26/2014 18:45 MST0.59P  0.95P  0.00P  
    08/26/2014 19:00 MST0.65P  0.97P  0.00P  
    08/26/2014 19:15 MST0.54P  0.93P  0.00P  
    08/26/2014 19:30 MST0.54P  0.93P  0.00P  
    08/26/2014 19:45 MST0.57P  0.94P  0.00P  
    08/26/2014 20:00 MST0.62P  0.96P  0.00P  
    08/26/2014 20:15 MST0.57P  0.94P  0.00P  
    08/26/2014 20:30 MST0.62P  0.96P  0.00P  
    08/26/2014 20:45 MST0.62P  0.96P  0.00P  
    08/26/2014 21:00 MST0.65P  0.97P  0.00P  
    08/26/2014 21:15 MST0.59P  0.95P  0.00P  
    08/26/2014 21:30 MST0.59P  0.95P  0.00P  
    08/26/2014 21:45 MST0.65P  0.97P  0.00P  
    08/26/2014 22:00 MST0.57P  0.94P  0.00P  
    08/26/2014 22:15 MST0.57P  0.94P  0.00P  
    08/26/2014 22:30 MST0.65P  0.97P  0.00P  
    08/26/2014 22:45 MST0.59P  0.95P  0.00P  
    08/26/2014 23:00 MST0.65P  0.97P  0.00P  
    08/26/2014 23:15 MST0.54P  0.93P  0.00P  
    08/26/2014 23:30 MST0.65P  0.97P  0.00P  
    08/26/2014 23:45 MST0.57P  0.94P  0.00P  
    08/27/2014 00:00 MST0.59P  0.95P  0.00P  
    08/27/2014 00:15 MST0.65P  0.97P  0.00P  
    08/27/2014 00:30 MST0.62P  0.96P  0.00P  
    08/27/2014 00:45 MST0.68P  0.98P  0.00P  
    08/27/2014 01:00 MST0.71P  0.99P  0.00P  
    08/27/2014 01:15 MST0.78P  1.01P  0.00P  
    08/27/2014 01:30 MST1.0P  1.06P  0.00P  
    08/27/2014 01:45 MST1.2P  1.09P  0.00P  
    08/27/2014 02:00 MST1.5P  1.15P  0.00P  
    08/27/2014 02:15 MST1.7P  1.17P  0.00P  
    08/27/2014 02:30 MST2.0P  1.21P  0.00P  
    08/27/2014 02:45 MST2.2P  1.23P  0.00P  
    08/27/2014 03:00 MST2.1P  1.22P  0.00P  
    08/27/2014 03:15 MST2.3P  1.24P  0.00P  
    08/27/2014 03:30 MST2.2P  1.23P  0.00P  
    08/27/2014 03:45 MST2.1P  1.22P  0.00P  
    08/27/2014 04:00 MST2.4P  1.25P  0.00P  
    08/27/2014 04:15 MST2.4P  1.25P  0.00P  
    08/27/2014 04:30 MST2.1P  1.22P  0.00P  
    08/27/2014 04:45 MST1.9P  1.20P  0.00P  
    08/27/2014 05:00 MST1.9P  1.20P  0.00P  
    08/27/2014 05:15 MST2.1P  1.22P  0.00P  
    08/27/2014 05:30 MST1.9P  1.20P  0.00P  
    08/27/2014 05:45 MST1.9P  1.19P  0.00P  
    08/27/2014 06:00 MST1.9P  1.19P  0.00P  
    08/27/2014 06:15 MST1.8P  1.18P  0.00P  
    08/27/2014 06:30 MST1.6P  1.16P  0.00P  
    08/27/2014 06:45 MST1.8P  1.18P  0.00P  
    08/27/2014 07:00 MST1.7P  1.17P  0.00P  
    08/27/2014 07:15 MST1.5P  1.15P  0.00P  
    08/27/2014 07:30 MST1.5P  1.15P  0.00P  
    08/27/2014 07:45 MST1.5P  1.14P  0.00P  
    08/27/2014 08:00 MST1.5P  1.15P  0.00P  
    08/27/2014 08:15 MST1.4P  1.13P  0.00P  
    08/27/2014 08:30 MST1.5P  1.14P  0.00P  
    08/27/2014 08:45 MST1.3P  1.12P  0.00P  
    08/27/2014 09:00 MST1.3P  1.11P  0.00P  
    08/27/2014 09:15 MST1.4P  1.13P  0.00P  
    08/27/2014 09:30 MST1.3P  1.11P  0.00P  
    08/27/2014 09:45 MST1.3P  1.11P  0.00P  
    08/27/2014 10:00 MST1.1P  1.08P  0.00P  
    08/27/2014 10:15 MST1.3P  1.11P  0.00P  
    08/27/2014 10:30 MST1.1P  1.08P  0.00P  
    08/27/2014 10:45 MST1.0P  1.07P  0.00P  
    08/27/2014 11:00 MST1.0P  1.07P  0.00P  
    08/27/2014 11:15 MST0.89P  1.03P  0.00P  
    08/27/2014 11:30 MST1.0P  1.07P  0.00P  
    08/27/2014 11:45 MST0.97P  1.05P  0.00P  
    08/27/2014 12:00 MST1.0P  1.06P  0.00P  
    08/27/2014 12:15 MST0.97P  1.05P  0.00P  
    08/27/2014 12:30 MST0.97P  1.05P  0.00P  
    08/27/2014 12:45 MST0.97P  1.05P  0.00P  
    08/27/2014 13:00 MST0.97P  1.05P  0.00P  
    08/27/2014 13:15 MST0.89P  1.03P  0.00P  
    08/27/2014 13:30 MST0.93P  1.04P  0.00P  
    08/27/2014 13:45 MST0.82P  1.02P  0.00P  
    08/27/2014 14:00 MST0.82P  1.02P  0.00P  
    08/27/2014 14:15 MST0.89P  1.03P  0.00P  
    08/27/2014 14:30 MST0.71P  0.99P  0.00P  
    08/27/2014 14:45 MST0.78P  1.01P  0.00P  
    08/27/2014 15:00 MST0.71P  0.99P  0.00P  
    08/27/2014 15:15 MST0.75P  1.00P  0.00P  
    08/27/2014 15:30 MST0.71P  0.99P  0.00P  
    08/27/2014 15:45 MST0.75P  1.00P  0.00P  
    08/27/2014 16:00 MST0.71P  0.99P  0.00P  
    08/27/2014 16:15 MST0.75P  1.00P  0.00P  
    08/27/2014 16:30 MST0.68P  0.98P  0.00P  
    08/27/2014 16:45 MST0.68P  0.98P  0.00P  
    08/27/2014 17:00 MST0.71P  0.99P  0.00P  
    08/27/2014 17:15 MST0.65P  0.97P  0.00P  
    08/27/2014 17:30 MST0.68P  0.98P  0.00P  
    08/27/2014 17:45 MST0.62P  0.96P  0.00P  
    08/27/2014 18:00 MST0.68P  0.98P  0.00P  
    08/27/2014 18:15 MST0.71P  0.99P  0.00P  
    08/27/2014 18:30 MST0.65P  0.97P  0.00P  
    08/27/2014 18:45 MST0.57P  0.94P  0.00P  
    08/27/2014 19:00 MST0.68P  0.98P  0.00P  
    08/27/2014 19:15 MST0.68P  0.98P  0.00P  
    08/27/2014 19:30 MST0.62P  0.96P  0.00P  
    08/27/2014 19:45 MST0.65P  0.97P  0.00P  
    08/27/2014 20:00 MST0.68P  0.98P  0.00P  
    08/27/2014 20:15 MST0.65P  0.97P  0.00P  
    08/27/2014 20:30 MST0.68P  0.98P  0.00P  
    08/27/2014 20:45 MST0.68P  0.98P  0.00P  
    08/27/2014 21:00 MST0.68P  0.98P  0.00P  
    08/27/2014 21:15 MST0.68P  0.98P  0.00P  
    08/27/2014 21:30 MST0.52P  0.92P  0.00P  
    08/27/2014 21:45 MST0.62P  0.96P  0.00P  
    08/27/2014 22:00 MST0.57P  0.94P  0.00P  
    08/27/2014 22:15 MST0.54P  0.93P  0.00P  
    08/27/2014 22:30 MST0.65P  0.97P  0.00P  
    08/27/2014 22:45 MST0.68P  0.98P  0.00P  
    08/27/2014 23:00 MST0.59P  0.95P  0.00P  
    08/27/2014 23:15 MST0.54P  0.93P  0.00P  
    08/27/2014 23:30 MST0.65P  0.97P  0.00P  
    08/27/2014 23:45 MST0.65P  0.97P  0.00P  
    08/28/2014 00:00 MST0.59P  0.95P  0.00P  
    08/28/2014 00:15 MST0.62P  0.96P  0.00P  
    08/28/2014 00:30 MST0.62P  0.96P  0.00P  
    08/28/2014 00:45 MST0.65P  0.97P  0.00P  
    08/28/2014 01:00 MST0.68P  0.98P  0.00P  
    08/28/2014 01:15 MST0.65P  0.97P  0.00P  
    08/28/2014 01:30 MST0.65P  0.97P  0.00P  
    08/28/2014 01:45 MST0.68P  0.98P  0.00P  
    08/28/2014 02:00 MST0.49P  0.91P  0.00P  
    08/28/2014 02:15 MST0.47P  0.90P  0.00P  
    08/28/2014 02:30 MST0.47P  0.90P  0.00P  
    08/28/2014 02:45 MST0.42P  0.88P  0.00P  
    08/28/2014 03:00 MST0.47P  0.90P  0.00P  
    08/28/2014 03:15 MST0.44P  0.89P  0.00P  
    08/28/2014 03:30 MST0.54P  0.93P  0.00P  
    08/28/2014 03:45 MST0.57P  0.94P  0.00P  
    08/28/2014 04:00 MST0.54P  0.93P  0.00P  
    08/28/2014 04:15 MST0.54P  0.93P  0.00P  
    08/28/2014 04:30 MST0.54P  0.93P  0.00P  
    08/28/2014 04:45 MST0.57P  0.94P  0.00P  
    08/28/2014 05:00 MST0.57P  0.94P  0.00P  
    08/28/2014 05:15 MST0.54P  0.93P  0.00P  
    08/28/2014 05:30 MST0.68P  0.98P  0.00P  
    08/28/2014 05:45 MST0.71P  0.99P  0.00P  
    08/28/2014 06:00 MST0.71P  0.99P  0.00P  
    08/28/2014 06:15 MST0.68P  0.98P  0.00P  
    08/28/2014 06:30 MST0.52P  0.92P  0.00P  
    08/28/2014 06:45 MST0.44P  0.89P  0.00P  
    08/28/2014 07:00 MST0.71P  0.99P  0.00P  
    08/28/2014 07:15 MST0.75P  1.00P  0.00P  
    08/28/2014 07:30 MST0.75P  1.00P  0.00P  
    08/28/2014 07:45 MST0.75P  1.00P  0.00P  
    08/28/2014 08:00 MST0.78P  1.01P  0.00P  
    08/28/2014 08:15 MST0.71P  0.99P  0.00P  
    08/28/2014 08:30 MST0.75P  1.00P  0.00P  
    08/28/2014 08:45 MST0.75P  1.00P  0.00P  
    08/28/2014 09:00 MST0.71P  0.99P  0.00P  
    08/28/2014 09:15 MST0.75P  1.00P  0.00P  
    08/28/2014 09:30 MST0.75P  1.00P  0.00P  
    08/28/2014 09:45 MST0.75P  1.00P  0.00P  
    08/28/2014 10:00 MST0.71P  0.99P  0.00P  
    08/28/2014 10:15 MST0.75P  1.00P  0.00P  
    08/28/2014 10:30 MST0.75P  1.00P  0.00P  
    08/28/2014 10:45 MST0.68P  0.98P  0.00P  
    08/28/2014 11:00 MST0.68P  0.98P  0.00P  
    08/28/2014 11:15 MST0.68P  0.98P  0.00P  
    08/28/2014 11:30 MST0.68P  0.98P  0.00P  
    08/28/2014 11:45 MST0.68P  0.98P  0.00P  
    08/28/2014 12:00 MST0.71P  0.99P  0.00P  
    08/28/2014 12:15 MST0.65P  0.97P  0.00P  
    08/28/2014 12:30 MST0.68P  0.98P  0.00P  
    08/28/2014 12:45 MST0.65P  0.97P  0.00P  
    08/28/2014 13:00 MST0.62P  0.96P  0.00P  
    08/28/2014 13:15 MST0.49P  0.91P  0.00P  
    08/28/2014 13:30 MST0.52P  0.92P  0.00P  
    08/28/2014 13:45 MST0.52P  0.92P  0.00P  
    08/28/2014 14:00 MST0.62P  0.96P  0.00P  
    08/28/2014 14:15 MST0.59P  0.95P  0.00P  
    08/28/2014 14:30 MST0.52P  0.92P  0.00P  
    08/28/2014 14:45 MST0.59P  0.95P  0.00P  
    08/28/2014 15:00 MST0.59P  0.95P  0.00P  
    08/28/2014 15:15 MST0.54P  0.93P  0.00P  
    08/28/2014 15:30 MST0.52P  0.92P  0.00P  
    08/28/2014 15:45 MST0.59P  0.95P  0.00P  
    08/28/2014 16:00 MST0.62P  0.96P  0.00P  
    08/28/2014 16:15 MST0.57P  0.94P  0.00P  
    08/28/2014 16:30 MST0.62P  0.96P  0.00P  
    08/28/2014 16:45 MST0.57P  0.94P  0.00P  
    08/28/2014 17:00 MST0.59P  0.95P  0.00P  
    08/28/2014 17:15 MST0.59P  0.95P  0.00P  
    08/28/2014 17:30 MST0.57P  0.94P  0.00P  
    08/28/2014 17:45 MST0.42P  0.88P  0.00P  
    08/28/2014 18:00 MST0.44P  0.89P  0.00P  
    08/28/2014 18:15 MST0.52P  0.92P  0.00P  
    08/28/2014 18:30 MST0.57P  0.94P  0.00P  
    08/28/2014 18:45 MST0.57P  0.94P  0.00P  
    08/28/2014 19:00 MST0.62P  0.96P  0.00P  
    08/28/2014 19:15 MST0.52P  0.92P  0.00P  
    08/28/2014 19:30 MST0.54P  0.93P  0.00P  
    08/28/2014 19:45 MST0.59P  0.95P  0.00P  
    08/28/2014 20:00 MST0.49P  0.91P  0.00P  
    08/28/2014 20:15 MST0.52P  0.92P  0.00P  
    08/28/2014 20:30 MST0.49P  0.91P  0.00P  
    08/28/2014 20:45 MST0.54P  0.93P  0.00P  
    08/28/2014 21:00 MST0.62P  0.96P  0.00P  
    08/28/2014 21:15 MST0.57P  0.94P  0.00P  
    08/28/2014 21:30 MST0.57P  0.94P  0.00P  
    08/28/2014 21:45 MST0.52P  0.92P  0.00P  
    08/28/2014 22:00 MST0.47P  0.90P  0.00P  
    08/28/2014 22:15 MST0.59P  0.95P  0.00P  
    08/28/2014 22:30 MST0.59P  0.95P  0.00P  
    08/28/2014 22:45 MST0.52P  0.92P  0.00P  
    08/28/2014 23:00 MST0.62P  0.96P  0.00P  
    08/28/2014 23:15 MST0.65P  0.97P  0.00P  
    08/28/2014 23:30 MST0.65P  0.97P  0.00P  
    08/28/2014 23:45 MST0.54P  0.93P  0.00P  
    08/29/2014 00:00 MST0.57P  0.94P  0.00P  
    08/29/2014 00:15 MST0.54P  0.93P  0.00P  
    08/29/2014 00:30 MST0.62P  0.96P  0.00P  
    08/29/2014 00:45 MST0.65P  0.97P  0.00P  
    08/29/2014 01:00 MST0.65P  0.97P  0.00P  
    08/29/2014 01:15 MST0.65P  0.97P  0.00P  
    08/29/2014 01:30 MST0.57P  0.94P  0.00P  
    08/29/2014 01:45 MST0.65P  0.97P  0.00P  
    08/29/2014 02:00 MST0.75P  1.00P  0.00P  
    08/29/2014 02:15 MST0.68P  0.98P  0.00P  
    08/29/2014 02:30 MST0.59P  0.95P  0.00P  
    08/29/2014 02:45 MST0.71P  0.99P  0.00P  
    08/29/2014 03:00 MST0.62P  0.96P  0.00P  
    08/29/2014 03:15 MST0.65P  0.97P  0.00P  
    08/29/2014 03:30 MST0.57P  0.94P  0.00P  
    08/29/2014 03:45 MST0.68P  0.98P  0.00P  
    08/29/2014 04:00 MST0.62P  0.96P  0.00P  
    08/29/2014 04:15 MST0.59P  0.95P  0.00P  
    08/29/2014 04:30 MST0.62P  0.96P  0.00P  
    08/29/2014 04:45 MST0.71P  0.99P  0.00P  
    08/29/2014 05:00 MST0.62P  0.96P  0.00P  
    08/29/2014 05:15 MST0.65P  0.97P  0.00P  
    08/29/2014 05:30 MST0.52P  0.92P  0.00P  
    08/29/2014 05:45 MST0.62P  0.96P  0.00P  
    08/29/2014 06:00 MST0.62P  0.96P  0.00P  
    08/29/2014 06:15 MST0.65P  0.97P  0.00P  
    08/29/2014 06:30 MST0.68P  0.98P  0.00P  
    08/29/2014 06:45 MST0.65P  0.97P  0.00P  
    08/29/2014 07:00 MST0.71P  0.99P  0.00P  
    08/29/2014 07:15 MST0.59P  0.95P  0.00P  
    08/29/2014 07:30 MST0.57P  0.94P  0.00P  
    08/29/2014 07:45 MST0.59P  0.95P  0.00P  
    08/29/2014 08:00 MST0.62P  0.96P  0.00P  
    08/29/2014 08:15 MST0.65P  0.97P  0.00P  
    08/29/2014 08:30 MST0.52P  0.92P  0.00P  
    08/29/2014 08:45 MST0.71P  0.99P  0.00P  
    08/29/2014 09:00 MST0.49P  0.91P  0.00P  
    08/29/2014 09:15 MST0.54P  0.93P  0.00P  
    08/29/2014 09:30 MST0.68P  0.98P  0.00P  
    08/29/2014 09:45 MST0.47P  0.90P  0.00P  
    08/29/2014 10:00 MST0.54P  0.93P  0.00P  
    08/29/2014 10:15 MST0.44P  0.89P  0.00P  
    08/29/2014 10:30 MST0.52P  0.92P  0.00P  
    08/29/2014 10:45 MST0.62P  0.96P  0.00P  
    08/29/2014 11:00 MST0.65P  0.97P  0.00P  
    08/29/2014 11:15 MST0.49P  0.91P  0.00P  
    08/29/2014 11:30 MST0.52P  0.92P  0.00P  
    08/29/2014 11:45 MST0.47P  0.90P  0.00P  
    08/29/2014 12:00 MST0.62P  0.96P  0.00P  
    08/29/2014 12:15 MST0.57P  0.94P  0.00P  
    08/29/2014 12:30 MST0.49P  0.91P  0.00P  
    08/29/2014 12:45 MST0.40P  0.87P  0.00P  
    08/29/2014 13:00 MST0.52P  0.92P  0.00P  
    08/29/2014 13:15 MST0.54P  0.93P  0.00P  
    08/29/2014 13:30 MST0.54P  0.93P  0.00P  
    08/29/2014 13:45 MST0.57P  0.94P  0.00P  
    08/29/2014 14:00 MST0.36P  0.85P  0.00P  
    08/29/2014 14:15 MST0.57P  0.94P  0.00P  
    08/29/2014 14:30 MST0.44P  0.89P  0.00P  
    08/29/2014 14:45 MST0.52P  0.92P  0.00P  
    08/29/2014 15:00 MST0.54P  0.93P  0.00P  
    08/29/2014 15:15 MST0.44P  0.89P  0.00P  
    08/29/2014 15:30 MST0.44P  0.89P  0.00P  
    08/29/2014 15:45 MST0.54P  0.93P  0.00P  
    08/29/2014 16:00 MST0.49P  0.91P  0.00P  
    08/29/2014 16:15 MST0.40P  0.87P  0.00P  
    08/29/2014 16:30 MST0.44P  0.89P  0.00P  
    08/29/2014 16:45 MST0.44P  0.89P  0.00P  
    08/29/2014 17:00 MST0.54P  0.93P  0.00P  
    08/29/2014 17:15 MST0.49P  0.91P  0.00P  
    08/29/2014 17:30 MST0.40P  0.87P  0.00P  
    08/29/2014 17:45 MST0.54P  0.93P  0.00P  
    08/29/2014 18:00 MST0.36P  0.85P  0.00P  
    08/29/2014 18:15 MST0.42P  0.88P  0.00P  

    Explanation
      P  Provisional data subject to revision.